Aviation Digital Data Service (ADDS)

Output produced by METARs form (0208 UTC 30 August 2014)
found at http://aviationweather.gov/adds/metars/
 
K01M 300155Z AUTO 00000KT 10SM CLR 23/21 A3000 RMK AO2 T02270206
K04W 300200Z AUTO 36003KT 10SM BKN026 BKN110 20/19 A2978 RMK AO2
K06D 300155Z AUTO 35003KT 10SM CLR 11/11 A2997 RMK AO2
K08D 300155Z AUTO 09003KT 10SM CLR 16/12 A2998 RMK AO2
K0A9 300155Z AUTO 00000KT 10SM CLR 24/19 A3016 RMK
K0CO 300155Z AUTO 30013KT 10SM SCT032 BKN044 BKN050 03/03 A3060 RMK AO2 LTG DSNT N
K0E0 300155Z AUTO 15004KT 10SM CLR 20/08 A3017 RMK AO2 T02030082
K0F2 300155Z AUTO 00000KT 10SM SCT080 SCT090 24/23 A2991 RMK AO2 T02440227
K0J4 300158Z AUTO 19004KT 10SM CLR 27/23 A3007 RMK AO2 TSB26E52 SLP176 T02720228
K0R0 300155Z AUTO 15004KT 10SM CLR 24/23 A2997 RMK AO2
K0V4 300155Z AUTO 10SM OVC039 25/22 A3019 RMK AO1 T02520224
K0VG 300155Z AUTO 03003KT 10SM 24/22 A3014 RMK AO2
K11R 300155Z AUTO 13006KT 10SM SCT006 SCT029 SCT037 27/24 A2988 RMK AO2 P0007 T02710243
K12N 300154Z AUTO 23004KT 17/13 A3024 RMK AO1 SLP237 T01720128
K14Y 300159Z AUTO 30003KT 10SM BKN036 OVC041 19/18 A2981 RMK AO2
K19A 300155Z AUTO 00000KT 10SM CLR 24/07 A3009 RMK AO2
K1A5 300155Z AUTO 00000KT 10SM 18/18 A3019 RMK AO2 T01780178
K1A6 300155Z AUTO 00000KT 10SM CLR 24/20 A3010 RMK AO2 T02360200
K1A9 300155Z AUTO 00000KT 10SM SCT070 25/22 A3002 RMK AO2 T02520223
K1B7 292130Z 02004KT 10SM -TSRA FEW010 FEW036 BKN060 26/25 A2997 RMK LAST
K1F0 300155Z AUTO 00000KT 10SM SCT070 23/21 A2990 RMK AO2
K1H2 300155Z AUTO 15005KT 10SM CLR 25/19 A2993 RMK AO2 T02480187
K1II 300155Z AUTO 16005KT 10SM CLR 25/19 A2999 RMK AO2
K1J0 300158Z AUTO 18005KT 10SM -RA FEW085 25/24 A3007 RMK AO2 SLP141 P0000 T02500239
K1L0 300155Z AUTO 14003KT 10SM CLR 26/24 A2996 RMK AO2 LTG DSNT SW P0001 T02570240
K1M4 300156Z AUTO 00000KT 10SM CLR 23/19 A3005 RMK AO2 T02270188 SLP187
K1P1 300155Z AUTO 12005KT 10SM CLR 17/16 A3024 RMK AO2 T01690158
K1R7 300155Z AUTO 00000KT 10SM CLR 25/23 A2999 RMK AO2
K1V4 300154Z AUTO 15/13 A3020 RMK AO1 SLP220 T01500128
K1V6 300150Z AUTO 00000KT 10SM -RA SCT055 SCT090 OVC110 22/08 A3017 RMK AO2
K1YT 300156Z AUTO 02011G17KT 10SM CLR 22/07 A2988 RMK AO2 SLPNO T02190074
K20U 300155Z AUTO 12005KT 10SM 14/13 A2999 RMK AO2
K20V 300157Z AUTO 18010KT 10SM BKN100 13/06 A3028 RMK AO2
K21D 300151Z AUTO 00000KT 10SM VCTS BKN010 OVC015 20/20 A2978 RMK AO2 LTG DSNT E AND SE
K24J 300155Z AUTO 00000KT 10SM CLR 27/26 A3009 RMK AO1
K28J 300155Z AUTO 12004KT 10SM BKN015 BKN023 24/24 A3010 RMK AO2
K2C8 300155Z AUTO 35009G15KT 10SM SCT024 BKN032 16/13 A2992 RMK AO2
K2D5 300155Z AUTO 34016KT 10SM 17/17 A2988 RMK AO2
K2DP 300156Z AUTO M 12SM CLR 22/20 A3019 RMK AO2 SLPNO T02200196 $
K2G4 300200Z AUTO 13009G15KT 10SM CLR 16/14 A3023 RMK AO1
K2I0 300155Z AUTO 19005KT 10SM CLR 27/21 A2998 RMK AO2 T02680210
K2J9 300135Z AUTO 00000KT 10SM FEW070 25/24 A3009 RMK AO1
K2V5 300155Z AUTO 36006KT 10SM 21/14 A3001 RMK AO2 T02070138
K2W6 300159Z AUTO 12004KT 10SM CLR 20/13 A3022 RMK AO1
K2WX 300156Z AUTO 05006KT 17/11 A2993 RMK AO1 SLP122 T01720111
K33V 300155Z AUTO 09005KT 10SM BKN100 BKN120 12/07 A3027 RMK AO2
K36U 300155Z AUTO 10006KT 10SM CLR 17/08 A3008 RMK AO2
K3I2 300155Z AUTO 00000KT 10SM CLR 22/20 A3008 RMK AO2
K3J7 300155Z AUTO 00000KT 10SM CLR 26/15 A3006 RMK AO2
K3LF 300155Z AUTO 18009KT 10SM CLR 25/21 A2990 RMK AO2 T02470205
K3N8 300155Z AUTO 31003KT 10SM BKN019 BKN028 OVC050 18/18 A2981 RMK AO2 T01810175
K3R7 300155Z AUTO 14008KT 10SM -RA SCT120 25/24 A2994 RMK AO2 LTG DSNT S T02480235
K3T5 300155Z AUTO 12008KT 10SM CLR 28/24 A2986 RMK AO2 T02840241
K40B 300116Z AUTO 00000KT 10/09 A3020 RMK AO1 SLP222 T01010089 52010
K40J 300155Z AUTO 00000KT 10SM CLR 25/24 A3008 RMK AO2
K46D 300155Z AUTO 00000KT 10SM BKN032 15/15 A2996 RMK AO2
K4A6 300155Z AUTO 00000KT 10SM CLR 23/21 A3005 RMK AO2
K4A9 300155Z AUTO 00000KT 10SM CLR 21/16 A3006 RMK AO2
K4I3 300156Z AUTO 12004KT 10SM CLR 21/17 A3009 RMK AO2
K4I7 300155Z AUTO 00000KT 3SM BR CLR 22/21 A2997 RMK AO2
K4M9 300155Z AUTO 15009KT 2SM RA 22/22 A2998 RMK AO2 LTG DSNT NE-S P0019
K4MR 300156Z AUTO 25008KT 10SM CLR 25/04 A3005 RMK AO2 SLP121 T02480040
K4O4 300155Z AUTO 00000KT 10SM CLR 25/20 A2990 RMK AO2
K54J 300155Z AUTO 21004KT 10SM SCT016 SCT110 26/24 A3007 RMK AO2 T02590237
K5C1 300155Z AUTO 00000KT 10SM CLR 27/18 A2990 RMK AO1
K5H4 300155Z AUTO 02003KT 10SM CLR 13/13 A2996 RMK AO2
K5M9 300155Z AUTO 17003KT 10SM SCT110 25/19 A2998 RMK AO2 T02500192
K5R8 300155Z AUTO 11003KT 10SM -RA SCT020 SCT060 BKN100 24/24 A2993 RMK AO2 P0001 T02430236
K5SM 300158Z AUTO 00000KT 10SM CLR 11/05 A3050 RMK AO2
K5W8 300155Z AUTO 06003KT 10SM SCT080 23/23 A3017 RMK AO2 T02310225
K65S 300155Z AUTO 21004KT 10SM CLR 24/05 A2977 RMK AO2
K6A2 300155Z AUTO 00000KT 10SM CLR 25/16 A3009 RMK AO2
K6B0 300155Z AUTO 13004KT 10SM CLR 18/13 A3019 RMK AO2 T01770130
K6R3 300155Z AUTO 00000KT 10SM SCT018 24/23 A2991 RMK AO2 T02420232
K6R6 300153Z AUTO 13008KT 32/17 A2987 RMK AO1 SLP074 T03220167 $
K79J 300156Z AUTO 21003KT 10SM BKN070 29/23 A3005 RMK AO2 SLP172 T02940228
K7BM 300154Z AUTO 00000KT 10SM SCT055 12/02 A3047 RMK AO2 LTG DSNT E
K7L2 300155Z AUTO 01004KT 9SM CLR 15/14 A2994 RMK AO2
K7W4 300155Z AUTO 09004KT 10SM OVC050 22/16 A3020 RMK AO1 T02150163
K82V 300155Z AUTO 00000KT 10SM SCT095 16/08 A3012 RMK AO2
K8A0 300155Z AUTO 15004KT 10SM CLR 26/19 A3006 RMK AO2
K8D3 300156Z AUTO 34008KT 21/19 A2980 RMK AO1 SLP079 T02060189
K8S0 300145Z 19005KT
K8W2 300155Z AUTO 00000KT 10SM OVC042 20/17 RMK AO1 T01970174
K96D 300155Z AUTO 34007KT 10SM 14/14 A2993 RMK AO2
K9D7 300155Z AUTO 01005KT 10SM CLR 12/10 A2996 RMK AO2
K9F2 292128Z 0000KT 7SM BKN070 25/24 A2995 RMK LAST
K9L2 300155Z AUTO 27016KT 10SM CLR 33/02 A2983 RMK AO2 PK WND 22026/0103 SLP081 T03330017 $
K9MN 300151Z AUTO 14010G21KT 110V170 10SM SCT016 OVC028 20/18 A2982 RMK AO1 P0008 T01950181
K9V9 300155Z AUTO 33009KT 10SM SCT120 21/15 A2989 RMK AO2 T02140152
KAAA 300155Z AUTO 17004KT 10SM SCT070 BKN090 OVC110 26/21 A2986 RMK AO2 T02550209
KAAF 300153Z AUTO 18007KT 10SM CLR 28/25 A3006 RMK AO2 SLP178 T02780250
KAAO 300154Z AUTO 19005KT 10SM CLR 23/19 A2986 RMK AO2 SLP101 T02330194
KAAT 300155Z AUTO 24013G19KT 10SM CLR 28/00 A2996 RMK AO2 SLP106 T02780000
KABE 300151Z 14006KT 10SM CLR 20/12 A3022 RMK AO2 SLP231 T02000122
KABH 300156Z AUTO 06010KT 10SM FEW100 SCT120 14/10 A3020 RMK AO2 TSE04RAE20 SLP177 T01440100 PNO $
KABI 300152Z 06005KT 10SM FEW070 BKN120 27/19 A2994 RMK AO2 SLP111 T02670189
KABQ 300152Z 12007KT 10SM FEW090 FEW200 26/04 A3008 RMK AO2 SLP108 T02560044
KABR 300153Z AUTO 35010KT 10SM BKN037 17/16 A2987 RMK AO2 SLP111 T01720156
KABY 300153Z 18005KT 10SM OVC100 27/23 A3008 RMK AO2 SLP184 T02720233
KACB 300153Z AUTO 17005KT 10SM BKN090 BKN110 22/17 A2991 RMK AO2 T02150172
KACJ 300155Z AUTO 22004KT 10SM SCT085 OVC110 28/21 A3008 RMK AO2
KACK 300153Z AUTO 08005KT 10SM CLR 14/11 A3027 RMK AO2 SLP251 T01390106 TSNO
KACP 300155Z AUTO 00000KT 10SM CLR 25/23 A2994 RMK AO2 T02500230
KACQ 300154Z AUTO 00000KT 5SM HZ BKN100 BKN120 22/19 A2978 RMK AO2 LTG DSNT E
KACT 300151Z 14008KT 10SM CLR 28/20 A2990 RMK AO2 LTG DSNT W SLP118 T02780200
KACV 300153Z AUTO 33010KT 10SM CLR 18/14 A2999 RMK AO2 SLP159 T01780139
KACY 300154Z 00000KT 10SM CLR 16/14 A3024 RMK AO2 SLP239 T01610144
KADC 300153Z AUTO 00000KT 10SM OVC049 19/18 A2980 RMK AO2
KADF 300156Z AUTO 00000KT 10SM CLR 27/25 A2992 RMK AO2 T02720250 LTG DSNT N SLP143 $
KADG 300153Z AUTO 15005KT 10SM CLR 21/18 A3003 RMK AO2 SLP168 T02110178
KADH 300155Z AUTO 00000KT 10SM SCT085 25/21 A2990 RMK AO2
KADM 300155Z 00000KT 10SM HZ SKC 24/22 A2989
KADS 300147Z 12006KT 20SM SCT060 BKN150 29/20 A2989
KADU 300155Z AUTO 00000KT 10SM BKN095 20/19 A2980 RMK AO2
KADW 300158Z AUTO 10004KT 10SM CLR 18/14 A3021 RMK AO2 SLP236 T01830143
KAEG 300148Z VRB04KT 10SM SKC 24/04 A3012
KAEJ 300155Z AUTO 08003KT 10SM CLR 14/07 A3035 RMK AO2 T01400065
KAEL 300152Z AUTO 10005KT 2 1/2SM +RA SCT013 BKN032 OVC060 22/22 A2978 RMK AO2 LTG DSNT NE S AND SW P0003
KAEX 300153Z 14005KT 10SM FEW120 26/24 A2992 RMK AO2 RAB0059E40 SLP134 P0000 T02560239
KAFF 300158Z AUTO 06007KT 10SM BKN110 15/10 A3024 RMK AO2 SLP181 T01540104
KAFJ 300155Z AUTO 00000KT 10SM CLR 14/13 A3013 RMK AO1
KAFK 300155Z AUTO 30005KT 10SM SCT055 BKN120 21/20 A2982 RMK AO2 LTG DSNT E T02100203
KAFN 300152Z AUTO 17003KT 10SM CLR 16/13 A3026 RMK AO2 SLP252 T01560128
KAFO 300155Z AUTO 17003KT 10SM CLR 20/07 A3009 RMK AO2
KAFP 300155Z AUTO 00000KT 7SM CLR 25/23 A3013 RMK AO2 T02480225
KAFW 300153Z 05003KT 10SM BKN150 BKN170 28/20 A2988 RMK AO2 SLP106 T02830200
KAGC 300153Z 11003KT 10SM CLR 22/12 A3012 RMK AO2 SLP200 T02220117
KAGS 300153Z 14008KT 10SM CLR 26/19 A3008 RMK AO2 SLP183 T02560194
KAHN 300151Z AUTO 10003KT 10SM CLR 23/17 A3008 RMK AO2 SLP180 T02330167
KAHQ 300155Z AUTO 21005KT 10SM CLR 21/19 A2980 RMK AO2 T02050185
KAIA 300153Z AUTO 08004KT 10SM CLR 18/12 A3003 RMK AO2 SLP142 T01830122
KAIB 300155Z AUTO 32004KT 10SM BKN095 23/05 A3017 RMK AO2
KAIG 300155Z AUTO 28006KT 10SM SCT030 BKN080 OVC100 19/18 A2987 RMK AO2 T01860178
KAIK 300215Z AUTO 10006KT 10SM CLR 27/19 A3014 RMK AO2 PNO
KAIO 300155Z AUTO 20005KT 10SM FEW065 SCT085 OVC110 19/19 A2980 RMK AO2
KAIT 300153Z AUTO 00000KT 10SM SCT012 OVC046 20/17 A2978 RMK AO2
KAIZ 300155Z AUTO 16007KT 10SM CLR 23/21 A2989 RMK AO1
KAJG 300155Z AUTO 00000KT 10SM CLR 25/23 A2995 RMK AO2
KAJO 300156Z AUTO 28008G16KT 10SM CLR 28/13 A2979 RMK AO2 T02830127 SLP080 $
KAJZ 300055Z AUTO 28007KT 7SM CLR 29/04 A3008 RMK AO2 T02850037
KAKH 300154Z AUTO 08003KT 9SM FEW060 25/21 A3015 RMK AO2 SLP201 T02500211 $
KAKO 300153Z AUTO 28010KT 10SM CLR 18/11 A3008 RMK AO2 PK WND 28027/0106 SLP145 T01830111
KAKQ 300154Z AUTO VRB03KT 10SM OVC043 23/17 A3020 RMK AO2 SLP226 T02280172 TSNO
KAKR 300154Z AUTO 00000KT 10SM CLR 21/13 A3009 RMK AO2 SLP184 T02110133
KALB 300151Z 00000KT 10SM FEW150 17/13 A3020 RMK AO2 SLP228 T01720133
KALI 300153Z AUTO 13005KT 10SM SCT090 27/24 A2982 RMK AO2 SLP097 T02720244
KALK 300156Z AUTO 17006KT 10SM CLR 24/08 A3005 RMK AO2 SLP085 T02440083 TSNO
KALM 300155Z AUTO 26005KT 10SM CLR 28/05 A3000 RMK AO2
KALN 300145Z 19006KT 10SM SCT065 SCT090 26/18 A2991
KALO 300154Z 20004KT 10SM OVC055 21/18 A2978 RMK AO2 RAE01 SLP080 P0000 T02060183
KALS 300152Z AUTO 24004KT 10SM OVC100 19/03 A3023 RMK AO2 RAB21E32 SLP161 P0000 T01940033
KALW 300153Z AUTO 24010KT 10SM CLR 28/06 A2982 RMK AO2 SLP092 T02780056
KALX 300155Z AUTO 00000KT 10SM CLR 26/21 A3006 RMK AO2 T02560211
KAMA 300153Z 08007KT 10SM CLR 26/09 A3000 RMK AO2 SLP109 T02560089
KAMG 300153Z AUTO 13005KT 10SM FEW080 28/22 A3009 RMK AO2 SLP186 T02780222
KAMN 300148Z AUTO 14004KT 10SM RA SCT100 21/18 A2998 RMK AO2 T02100181
KAMW 300153Z AUTO 00000KT 9SM FEW027 BKN037 OVC100 21/19 A2977 RMK AO2 LTG DSNT S-W SLP073 T02060194
KANB 300153Z AUTO 00000KT 10SM CLR 24/20 A3005 RMK AO2 SLP166 T02440200
KAND 300156Z AUTO 08009KT 10SM SCT090 27/21 A3011 RMK AO2 SLP183 T02720206
KANE 300155Z 00000KT 4SM RA- SCT013 OVC034 22/22 A2977
KANJ 300155Z AUTO 12009KT 8SM BKN005 OVC032 17/15 A2990 RMK AO2 SLP122 T01670150
KANK 300155Z AUTO 23005KT 10SM SCT080 OVC100 16/06 A3039 RMK AO1 T01600063
KANQ 300155Z AUTO 14005KT 10SM CLR 24/19 A3000 RMK
KANW 300155Z AUTO 34007KT 10SM CLR 19/14 A2995 RMK AO2 T01930140
KAOH 300153Z AUTO 11005KT 10SM CLR 23/18 A3003 RMK AO2 SLP165 T02330178
KAOO 300153Z AUTO 00000KT 10SM CLR 18/12 A3021 RMK AO2 SLP226 T01780122
KAPA 300153Z 19006KT 10SM SCT100 BKN160 17/07 A3017 RMK AO2 SLP163 OCNL LTGICCG DSNT NW VIRGA DSNT SW AND NW CB DSNT NW MOV SE T01720072
KAPC 300154Z 19009KT 10SM CLR 22/16 A2985 RMK AO2 SLP100 T02170161
KAPF 300153Z 05005KT 10SM SCT050 26/22 A3007 RMK AO2 SLP180 T02560222 $
KAPG 292350Z 00000KT 7SM SCT200 21/11 A3016 RMK LAST
KAPN 300154Z AUTO 18008KT 10SM BKN110 19/16 A2996 RMK AO2 SLP145 T01940156
KAPY 300155Z AUTO 11009G14KT 10SM SCT004 29/22 A2980 RMK AO2 T02950221
KAQO 300155Z AUTO 12005KT 10SM CLR 28/21 A2992 RMK AO2
KAQP 300154Z AUTO 00000KT 10SM SCT045 SCT050 22/19 A2979 RMK AO2
KAQR 300155Z AUTO 00000KT 10SM CLR 27/25 A2989 RMK AO2
KAQV 300156Z AUTO 00000KT 10SM FEW027 FEW040 26/23 A2993 RMK AO2 SLP132 T02610233
KAQW 300152Z AUTO 00000KT 10SM CLR 14/13 A3023 RMK AO2 SLP239 T01440128
KARA 300153Z 17004KT 10SM CLR 25/23 A2997 RMK AO2 SLP147 T02500228
KARB 300153Z AUTO 12006KT 10SM CLR 21/16 A3003 RMK AO2 SLP166 T02060156
KARG 300155Z AUTO 13008KT 9SM FEW043 23/21 A2997 RMK AO1 LTG DSNT E TSE29 P0001
KARM 300155Z AUTO 09004KT 10SM CLR 25/23 A2988 RMK AO2 T02510227
KARR 300152Z 14006KT 6SM HZ CLR 24/21 A2988 RMK AO2 LTG DSNT NW-E SLP113 T02390211
KART 300156Z AUTO 09003KT 10SM CLR 14/12 A3015 RMK AO2 SLP209 T01440117
KARV 300155Z AUTO 14003KT 5SM RA SCT039 BKN045 OVC080 18/17 A2983 RMK AO2 LTG DSNT E SE AND W P0015 T01800170
KARW 300155Z AUTO 00000KT 10SM SCT060 25/23 A3011 RMK AO2
KASD 300153Z AUTO 12006KT 10SM OVC004 25/24 A2996 RMK AO2 SLP147 T02500239
KASE 300153Z 17009KT 10SM CLR 14/07 A3029 RMK AO2 SLP162 T01440067
KASG 300148Z 17004KT 10SM FEW120 24/20 A2996
KASH 300151Z AUTO 00000KT 10SM CLR 16/13 A3027 RMK AO2 T01610127 SLP498
KASJ 300155Z AUTO 00000KT 10SM BKN041 BKN047 22/19 A3019 RMK AO2 T02240189
KASL 300155Z AUTO 13004KT 10SM CLR 28/22 A2994 RMK AO1 T02820218
KASN 300155Z AUTO 00000KT 10SM CLR 26/20 A3005 RMK AO2 T02600200
KAST 300155Z AUTO 23006KT 10SM SCT005 BKN110 16/15 A2998 RMK AO2 CIG 004 RWY 08 SLP150 T01610150
KASW 300155Z AUTO 14006KT 10SM CLR 23/20 A2999 RMK AO2
KASX 300153Z AUTO 00000KT 1/2SM -RA FG FEW010 FEW100 SCT120 19/18 A2978 RMK AO2 RAB45 SLP086 P0001 T01890183
KATL 300152Z 13003KT 10SM BKN250 28/16 A3008 RMK AO2 SLP175 T02830161
KATP 300155Z AUTO 12007KT 8SM FEW027 FEW036 SCT080 28/24 A3000 RMK A01
KATT 300151Z AUTO 00000KT 10SM CLR 26/22 A2989 RMK AO2 PRESRR SLP109 T02560217
KATW 300145Z 16008KT 10SM BKN100 24/21 A2983
KATY 300153Z AUTO 35010KT 10SM FEW023 SCT036 OVC046 21/18 A2983 RMK AO2 SLP093 T02110183
KAUG 300153Z AUTO 22005KT 10SM CLR 13/11 A3025 RMK AO2 SLP244 T01280111
KAUH 300155Z AUTO 35003KT 10SM CLR 20/19 A2987 RMK AO2 T01960191
KAUM 300155Z AUTO 13005KT 10SM RA SCT018 BKN036 OVC070 18/17 A2980 RMK AO2 P0020 LTG DSNT N AND NE
KAUN 300155Z AUTO 00000KT 10SM CLR 29/10 A2989 RMK AO1
KAUO 300155Z 19010KT 10SM SCT075 BKN085 27/17 A3011 RMK AO1
KAUS 300153Z 26004KT 10SM FEW150 FEW200 24/21 A2988 RMK AO2 SLP108 T02390206
KAUW 300154Z AUTO 35004KT 10SM -RA FEW031 SCT045 BKN055 19/18 A2981 RMK AO2 WSHFT 0049 LTG DSNT E AND W RAB29 SLP097 P0004 T01890178 $
KAVC 300155Z AUTO 00000KT 10SM OVC04 24/22 A3023 RMK AO2
KAVK 300150Z AUTO 19006KT 10SM CLR 25/19 A2987 RMK AO2
KAVL 300154Z 00000KT 10SM CLR 23/19 A3021 RMK AO2 SLP203 T02280194
KAVP 300154Z AUTO 00000KT 10SM CLR 18/13 A3022 RMK AO2 SLP227 T01830128 TSNO
KAVX 300151Z AUTO 26006KT 10SM CLR 21/14 A2986 RMK AO2 SLP088 T02110139
KAWG 300155Z AUTO 17006KT 10SM SCT034 BKN045 OVC065 22/21 A2981 RMK AO2
KAWM 300153Z AUTO 00000KT 10SM CLR 27/22 A2994 RMK AO2 SLP134 T02670222 $
KAWO 300155Z AUTO 00000KT 10SM SCT039 BKN046 OVC075 21/13 A2995 RMK AO1
KAXA 300155Z AUTO 30003KT 10SM SCT018 BKN024 OVC110 22/21 A2978 RMK AO2
KAXH 300155Z AUTO 08006KT 10SM SCT010 SCT018 25/24 A2988 RMK AO2 T02480238
KAXN 300153Z AUTO 35004KT 10SM OVC031 21/18 A2981 RMK AO2 SLP092 T02060183
KAXO 292150Z 09008KT 5SM BKN020 OVC050 26/25 A2998 RMK SH MOVD N LAST
KAXS 300155Z AUTO 16007KT 10SM CLR 27/21 A2991 RMK AO2 T02700205
KAXV 300151Z AUTO 12007KT 10SM CLR 23/18 A3004 RMK AO2
KAXX 300155Z AUTO 00000KT 10SM SCT090 13/02 A3032 RMK AO2 T01280024
KAYS 300155Z AUTO 15005KT 10SM CLR 29/25 A3009 RMK AO2 T02910247
KAZC 300155Z AUTO 33004KT 10SM CLR 29/04 A3006 RMK AO2 T02910041
KAZE 300155Z AUTO 15008KT 10SM CLR 29/23 A3008 RMK AO2 LTG DSNT SW T02910229
KAZO 300153Z 15005KT 10SM CLR 23/20 A2998 RMK AO2 SLP147 T02330200
KBAB 300158Z AUTO 14005KT 10SM FEW230 30/14 A2979 RMK AO2 SLP162 T02950136 $
KBAC 300155Z AUTO 01014G21KT 10SM OVC012 15/15 A2990 RMK AO2
KBAD 300200Z AUTO 33005KT 10SM VCTS FEW044 SCT060 24/23 A2994 RMK AO2 LTG DSNT NW TSE0200 $
KBAF 300153Z 18004KT 10SM CLR 17/13 A3024 RMK AO2 SLP240 T01670133
KBAK 300057Z 17005KT 10SM SKC 26/22 A2999
KBAN 300152Z AUTO 26009G18KT CLR 23/M03 A3018 RMK AO2 SLP130 T02331028 $
KBAX 300157Z AUTO 17008KT 10SM CLR 20/12 A3003 RMK AO2 T01950122
KBAZ 300151Z AUTO 05005KT 10SM CLR 27/20 A2984 RMK AO2 SLP096 T02720200
KBBB 300153Z AUTO 00000KT 10SM CLR 19/18 A2979 RMK AO2
KBBD 300155Z AUTO 06005KT 10SM SCT075 BKN085 28/19 A2991 RMK
KBBF 300155Z AUTO VRB04KT 7SM SCT120 28/24 A2984 RMK A01
KBBG 300150Z 18005KT 10SM OVC110 24/19 A2996
KBBP 300155Z AUTO 14004KT 10SM CLR 28/11 A3012 RMK AO2
KBBW 300204Z AUTO VRB05KT 8SM VCTS -RA FEW049 BKN075 BKN100 17/15 A2994 RMK AO2 LTG DSNT SE-SW TSE0158 P0000 T01670150
KBCB 300155Z AUTO 12006KT 10SM CLR 21/20 A3025 RMK AO2 TSNO
KBCE 300153Z AUTO 17007KT 10SM CLR 18/05 A3025 RMK AO2 SLP148 T01780050
KBCK 300155Z AUTO 00000KT 7SM -RA SCT070 BKN100 OVC120 20/20 A2979 RMK AO2 LTG DSNT E THRU W T02040203
KBCT 300153Z 09006KT 10SM FEW030 M/M A3008
KBDE 300153Z AUTO 01011KT 10SM -RA FEW065 OVC090 16/14 A2984 RMK AO2 RAB39 SLP105 P0000 T01560139 TSNO
KBDH 300155Z AUTO 00000KT 10SM SCT017 SCT040 21/20 A2980 RMK AO2
KBDL 300151Z 16008KT 10SM FEW250 18/12 A3024 RMK AO2 SLP240 T01830122
KBDN 300155Z AUTO 32012G19KT 10SM CLR 22/03 A2998 RMK AO2
KBDR 300152Z AUTO 19007KT 10SM CLR 21/13 A3026 RMK AO2 SLP246 T02060133
KBDU 300156Z AUTO 00000KT 10SM SCT120 17/10 A3013 RMK AO2
KBEA 300155Z AUTO 11007KT 10SM CLR 28/21 A2984 RMK AO2 T02800214
KBED 300156Z 15004KT 10SM CLR 14/12 A3025 RMK AO2 SLP256 T01440117
KBEH 300153Z AUTO 13009KT 9SM CLR 23/21 A2993 RMK AO2 SLP130 T02330211
KBFD 300153Z AUTO 14003KT 10SM CLR 13/11 A3019 RMK AO2 SLP219 T01280111
KBFF 300153Z AUTO 10007KT 10SM CLR 19/15 A3003 RMK AO2 SLP138 T01940150 $
KBFI 300153Z 17005KT 10SM SCT047 BKN095 22/13 A2993 RMK AO2 SLP134 T02220128
KBFL 300154Z 33006KT 10SM CLR 36/05 A2980 RMK AO2 SLP082 T03560050
KBFM 300153Z 18004KT 10SM -RA CLR 27/25 A3002 RMK AO2 RAB33 SLP166 P0000 T02670250
KBFW 300154Z AUTO 00000KT 10SM SCT007 16/16 A2978 RMK AO2
KBGD 300151Z AUTO 12008KT 10SM CLR 29/08 A2996 RMK AO2 SLP102 T02890083
KBGE 300155Z AUTO 16005KT 10SM CLR 27/26 A3007 RMK AO2
KBGF 300155Z AUTO 00000KT 10SM CLR 23/19 A3006 RMK
KBGM 300153Z 17004KT 10SM CLR 17/12 A3021 RMK AO2 SLP226 T01670117
KBGR 300153Z 00000KT 10SM FEW250 11/09 A3022 RMK AO2 SLP234 T01110089
KBHB 300155Z 00000KT 10SM CLR 12/11 A3022 RMK AO1
KBHC 300155Z AUTO 16005KT 10SM CLR 28/23 A3009 RMK AO2 LTG DSNT W
KBHK 300151Z AUTO 10004KT 10SM CLR 16/11 A2999 RMK AO2 SLP145 T01610111
KBHM 300153Z 13004KT 10SM FEW200 28/16 A3005 RMK AO2 SLP167 T02830161
KBID 300155Z AUTO 14006KT 10SM CLR 17/12 A3027 RMK AO1
KBIE 300155Z AUTO 00000KT 10SM CLR 21/19 A2982 RMK AO2 LTG DSNT NE T02060193
KBIF 300156Z AUTO 08003KT 10SM CLR 31/05 A3000 RMK AO2 SLP091 T03130048 $
KBIH 300156Z AUTO 15014KT 10SM CLR 33/M05 A2990 RMK AO2 SLP073 T03331050
KBIJ 300155Z AUTO 00000KT 10SM CLR 27/23 RMK AO2
KBIL 300153Z 10008KT 10SM FEW060 FEW200 22/12 A2992 RMK AO2 SLP108 CB DSNT SW T02220122
KBIS 300152Z 04007KT 10SM CLR 18/12 A2996 RMK AO2 SLP141 T01780122
KBIV 300153Z AUTO 15005KT 10SM CLR 24/21 A2993 RMK AO2 SLP133 T02440211
KBIX 300158Z AUTO 12005KT 10SM FEW190 SCT230 26/24 A2998 RMK AO2 SLP155 T02620237 $
KBJC 300154Z 00000KT 25SM BKN100 18/09 A3016
KBJI 300150Z AUTO 33005KT 10SM SCT017 BKN028 OVC060 19/18 A2980 RMK AO2 T01920177
KBJJ 300156Z AUTO 14004KT 10SM CLR 18/14 A3010 RMK AO2 SLP189 T01830139 TSNO
KBKB 300154Z AUTO 00000KT 10SM SCT120 26/24 A2991 RMK AO2 RAE17 SLP154 P0000 T02560239
KBKD 300155Z AUTO 06003KT 7SM BKN080 BKN110 25/20 A2992 RMK AO2 T02540201
KBKE 300153Z AUTO 33019KT 10SM CLR 23/07 A2986 RMK AO2 SLP099 T02330067 TSNO $
KBKF 300158Z 10006KT 10SM SCT120 BKN200 17/09 A3018 RMK AO2A SLP160 T01700092
KBKL 300153Z 15005KT 10SM CLR 23/12 A3006 RMK AO2 SLP175 T02330117
KBKN 300155Z AUTO 12006KT 10SM FEW050 23/20 A2986 RMK AO2
KBKS 300155Z AUTO 11006KT 10SM CLR 25/20 A2982 RMK AO1 T02530202
KBKV 300153Z AUTO 14003KT 10SM CLR 25/24 A3010 RMK AO2 SLP190 T02500244
KBKW 300151Z AUTO 16009KT 10SM CLR 22/18 A3020 RMK AO2 SLP195 T02220178 TSNO
KBLF 300152Z AUTO 16009KT 10SM CLR 23/18 A3024 RMK AO2 SLP205 T02280183
KBLH 300152Z AUTO 14005KT 10SM CLR 41/04 A2966 RMK AO2 SLP034 T04060039
KBLI 300153Z 00000KT 10SM BKN049 OVC060 18/12 A2994 RMK AO2 SLP146 T01830122
KBLM 300155Z AUTO 00000KT 10SM CLR 18/12 A3024 RMK AO1
KBLU 300152Z AUTO 00000KT 10SM CLR 22/05 A3015 RMK AO2 SLP115 T02170050
KBLV 300158Z AUTO VRB05KT 10SM FEW075 SCT150 26/21 A2990 RMK AO2 SLP124 T02570213
KBMG 300153Z 16004KT 10SM CLR 24/20 A2998 RMK AO2 SLP143 T02390200
KBMI 300156Z 18010KT 10SM CLR 24/20 A2991 RMK AO2 T02440200 SLP114
KBML 300152Z AUTO 00000KT 10SM CLR 11/09 A3023 RMK AO2 SLP239 T01060094
KBMQ 300153Z AUTO 12004KT 10SM CLR 26/22 A2992 RMK AO2 SLP114 T02560217
KBMT 300155Z AUTO 11006KT 10SM SCT110 24/23 A2990 RMK AO2 T02410231
KBNA 300153Z 16004KT 10SM FEW200 26/17 A3001 RMK AO2 SLP156 T02610167
KBNL 300155Z AUTO 14007KT 10SM CLR 28/20 A3011 RMK AO2
KBNO 300153Z AUTO 25007KT 3SM HZ FEW046 BKN110 26/02 A2988 RMK AO2 LTG DSNT S SLP090 T02610022
KBNW 300155Z AUTO 00000KT 10SM SCT018 BKN024 OVC048 20/19 A2977 RMK AO2 P0001
KBOI 300153Z 26004KT 10SM CLR 31/05 A2979 RMK AO2 SLP059 T03060050
KBOK 300156Z AUTO 18007KT 8SM CLR 18/14 A2999 RMK AO2 T01770144 SLP154
KBOS 300154Z 14005KT 10SM FEW140 SCT300 17/13 A3027 RMK AO2 SLP249 T01670128
KBOW 300155Z AUTO 35007KT 5SM VCTS RA BKN001 OVC010 22/ A3014 RMK AO2 P0049
KBPC 300155Z AUTO 14006KT 10SM CLR 23/14 A2994 RMK AO2
KBPG 300155Z AUTO 05008KT 10SM CLR 28/20 A2997 RMK AO2 T02750198
KBPI 300153Z AUTO 30006KT 10SM CLR 17/06 A3016 RMK AO2 SLP138 T01720056
KBPK 300153Z AUTO 17005KT 10SM FEW090 BKN120 23/20 A2996 RMK AO2 SLP136 T02280200
KBPT 300153Z 08006KT 9SM -RA FEW013 BKN042 OVC100 25/23 A2991 RMK AO2 SLP128 P0007 T02500233
KBQK 300155Z AUTO 14005KT 10SM CLR 29/23 A3010 RMK AO1 LTG DSNT SE
KBQP 300155Z AUTO 00000KT 10SM CLR 26/21 A2994 RMK AO2 T02610205
KBQX 300155Z AUTO 00000KT 10SM CLR 28/23 A2987 RMK A01
KBRD 300153Z AUTO 00000KT 10SM OVC047 19/18 A2979 RMK AO2 RAE0055 SLP087 P0000 T01940183
KBRL 300153Z AUTO 15007KT 10SM BKN055 BKN070 OVC085 22/21 A2984 RMK AO2 SLP098 T02220211
KBRO 300153Z 09006KT 10SM FEW045 27/26 A2980 RMK AO2 RAB14E33 SLP090 P0000 T02720261
KBTA 300155Z AUTO 19005KT 10SM CLR 20/19 A2979 RMK AO2 T02020187
KBTL 300153Z 15005KT 10SM CLR 24/19 A2999 RMK AO2 SLP150 T02390189
KBTM 300153Z AUTO 30004KT 10SM FEW110 23/03 A2994 RMK AO2 SLP093 T02330028
KBTP 300155Z AUTO 07003KT 10SM CLR 17/12 A3015 RMK AO1
KBTR 300153Z 14005KT 10SM FEW012 26/23 A2996 RMK AO2 SLP143 T02560233
KBTV 300154Z 00000KT 10SM CLR 16/13 A3018 RMK AO2 SLP220 T01610133
KBUF 300154Z 00000KT 10SM FEW160 FEW260 19/13 A3011 RMK AO2 SLP194 T01940133
KBUR 300153Z 18006KT 10SM CLR 28/11 A2980 RMK AO2 SLP077 T02830106
KBUU 300155Z AUTO 17006KT 10SM CLR 24/21 A2987 RMK AO2 T02370210
KBUY 300154Z AUTO 07004KT 10SM OVC019 24/21 A3017 RMK AO2 SLP210 T02440211
KBVE 300151Z AUTO 13004KT 10SM CLR 26/25 A3000 RMK AO2 SLP159 T02610250
KBVI 300047Z 00000KT 10SM CLR 21/12 A3012 RMK LAST
KBVN 300155Z AUTO 00000KT 10SM CLR 19/18 A2986 RMK AO2 LTG DSNT N T01930177
KBVO 300153Z AUTO 17004KT 10SM FEW060 27/20 A2986 RMK AO2 SLP102 T02670200
KBVS 300155Z AUTO 00000KT 10SM SCT025 BKN060 OVC075 20/14 A2996 RMK A01 P000
KBVU 300155Z AUTO 16009KT 10SM CLR 38/M01 A2980 RMK AO2
KBVX 300155Z AUTO 19005KT 8SM FEW042 SCT085 OVC110 22/21 A2999 RMK AO1 LTG DSNT S TSE09B10E28 P0005
KBVY 300153Z AUTO 17004KT 10SM CLR 16/12 A3026 RMK AO2 SLP241 T01560122
KBWD 300155Z AUTO 04004KT 10SM BKN065 27/21 A2991 RMK AO2
KBWG 300153Z AUTO 14003KT 10SM CLR 24/18 A3001 RMK AO2 SLP156 T02440183
KBWI 300154Z 00000KT 10SM FEW050 SCT250 18/14 A3021 RMK AO2 SLP228 T01830139
KBWP 300150Z AUTO 00000KT 10SM SCT033 SCT050 SCT100 20/17 A2980 RMK AO1
KBXA 300155Z AUTO 00000KT 25/23 A2997 RMK AO2 T02500225 PWINO
KBXK 300155Z AUTO 00000KT 4SM CLR 34/14 A2972 RMK AO1
KBYG 300153Z AUTO 14006KT 10SM CLR 19/09 A3004 RMK AO2 SLP128 T01940089
KBYI 300153Z AUTO 30013G20KT 10SM FEW110 26/06 A2990 RMK AO2 PRESFR SLP087 T02560061
KBYS 300155Z AUTO 25011KT 10SM CLR 37/M06 A2983 RMK AO2 SLP042 T03701062 $
KBYY 300155Z AUTO 09003KT 10SM CLR 26/26 A2986 RMK AO2 T02680266
KBZN 300156Z 08004KT 10SM CLR 22/08 A2988 RMK AO2 SLP085 T02220078
KC09 300155Z AUTO 13006KT 10SM CLR 24/23 A2988 RMK AO2 LTG DSNT NW THRU E T02400227
KC29 300155Z AUTO 17007KT 10SM CLR 26/21 A2983 RMK AO1 T02620211
KC35 300155Z AUTO 16004KT 10SM SCT070 SCT080 SCT100 A2980 RMK AO2
KC75 300155Z AUTO 16007KT 10SM CLR 25/21 A2985 RMK AO2 T02500209
KCAD 300154Z AUTO 16008KT 10SM -RA CLR 20/18 A2996 RMK AO2 T02070190
KCAE 300156Z 13005KT 10SM CLR 28/18 A3010 RMK AO2 SLP190 T02780183
KCAG 300153Z AUTO 24003KT 10SM CLR 17/11 A3015 RMK AO2 SLP160 T01720111 $
KCAK 300151Z 13006KT 10SM CLR 22/13 A3010 RMK AO2 SLP187 T02170128
KCAO 300155Z AUTO 11005KT 10SM CLR 22/11 A3009 RMK AO2 SLP133 T02220106
KCAR 300154Z AUTO 00000KT 10SM CLR 12/09 A3018 RMK AO2 SLP223 T01220089
KCAV 300155Z AUTO 00000KT 10SM FEW044 SCT075 OVC090 20/20 A2978 RMK AO2
KCBE 300200Z AUTO 32003KT 10SM CLR 21/10 A3022 RMK AO1
KCBF 300155Z AUTO 00000KT 10SM FEW120 20/20 A2980 RMK AO2
KCBG 300155Z AUTO 00000KT 10SM CLR 22/17 A2976 RMK AO2 LTG DSNT SE
KCBK 300155Z AUTO 00000KT 10SM CLR 21/17 A2998 RMK AO2
KCBM 300158Z AUTO 16004KT 10SM CLR 26/19 A2998 RMK AO2 SLP153 T02560193 $
KCCA 300155Z AUTO 00000KT 6SM BR FEW049 FEW080 23/23 A2998 RMK AO2
KCCO 300155Z AUTO 00000KT 10SM CLR 25/20 A3007 RMK AO2 T02460201
KCCR 300153Z 24007KT 10SM CLR 26/10 A2984 RMK AO2 SLP092 T02610100
KCCU 300156Z AUTO 26011KT 10SM CLR 07/M01 A3057 RMK AO2
KCCY 300155Z AUTO 00000KT 10SM FEW075 OVC110 19/19 A2980 RMK AO2
KCDC 300153Z AUTO 21008KT 10SM CLR 26/M01 A3008 RMK AO2 SLP118 T02611006
KCDD 300151Z AUTO 00000KT 10SM OVC028 16/16 A2982 RMK AO2
KCDH 300155Z AUTO 16003KT 10SM CLR 27/22 A2991 RMK AO2
KCDJ 300152Z AUTO 17004KT 23/21 A2983 RMK AO1 SLP088 P0001 T02330206
KCDN 300155Z AUTO 16003KT 10SM CLR 26/19 A3013 RMK AO2 TSNO
KCDR 300153Z AUTO 12003KT 10SM CLR 19/13 A3000 RMK AO2 SLP146 T01940128
KCDS 300153Z AUTO 17007KT 10SM CLR 25/19 A2992 RMK AO2 SLP108 T02500189
KCDW 300153Z 28003KT 10SM CLR 20/12 A3025 RMK AO2 SLP246 T02000117
KCEC 300156Z AUTO 31005KT 10SM OVC007 17/14 A3000 RMK AO2 SLP158 T01670144
KCEF 300158Z AUTO 17006KT 10SM CLR 17/13 A3024 RMK AO2 SLP246 T01710134 CHINO RWY05
KCEU 300154Z AUTO 05005KT 10SM BKN090 28/19 A3012 RMK AO2 SLP187 T02830194
KCEW 300153Z AUTO 12004KT 10SM CLR 27/24 A3007 RMK AO2 SLP178 T02670239
KCEY 300155Z AUTO 17003KT 10SM CLR 25/19 A2998 RMK AO1
KCEZ 300153Z AUTO 35005KT 10SM CLR 22/04 A3013 RMK AO2 SLP140 T02220044 $
KCFD 300155Z AUTO 09004KT 10SM CLR A2988 RMK AO2
KCFE 300155Z AUTO 00000KT 5SM +RA SCT030 SCT039 OVC100 21/20 A2978 RMK AO2 T02060195
KCFS 300155Z AUTO 15005KT 10SM CLR 20/13 A3002 RMK AO2 T01950131
KCFV 300152Z AUTO 17005KT 10SM CLR 24/21 A2986 RMK AO2 SLP106 T02390206
KCGC 300155Z AUTO 00000KT 10SM CLR 25/24 A3007 RMK AO2 PWINO
KCGE 300159Z AUTO 12004KT 10SM CLR 19/15 A3021 RMK AO1
KCGF 300145Z 14008KT 10SM FEW200 22/14 A3008
KCGI 300153Z AUTO 16006KT 9SM VCTS CLR 24/22 A2994 RMK AO2 LTG DSNT W SLP136 T02390217
KCGS 300155Z AUTO 00000KT 10SM CLR 18/15 A3020 RMK AO1
KCGZ 300155Z AUTO 25003KT 10SM CLR 37/04 A2976 RMK AO1
KCHA 300153Z 00000KT 10SM FEW090 SCT150 BKN250 26/18 A3005 RMK AO2 SLP168 T02610178 $
KCHD 300147Z 24007KT 40SM SKC 39/05 A2972
KCHK 300155Z AUTO 16004KT 10SM CLR 25/21 A2990 RMK AO2
KCHO 300153Z 00000KT 10SM SCT047 20/18 A3019 RMK AO2 SLP218 T02000178
KCHS 300156Z 16003KT 10SM FEW020 27/24 A3012 RMK AO2 SLP200 T02670239 $
KCIC 300155Z AUTO 21006KT 10SM CLR 29/15 A2980 RMK AO1
KCID 300152Z 22004KT 4SM -RA BR OVC065 21/21 A2980 RMK AO2 RAB47 SLP085 P0002 T02060206
KCIN 300155Z AUTO 00000KT 10SM SCT009 OVC014 19/19 A2978 RMK AO2 P0003
KCIR 300155Z AUTO 00000KT 10SM CLR 24/22 A2995 RMK AO2 LTG DSNT SW T02430216
KCIU 300155Z AUTO 13010KT 10SM OVC030 17/16 A2990 RMK AO1
KCJR 300155Z AUTO 00000KT 10SM BKN050 A3020 RMK AO2
KCKB 300153Z 00000KT 10SM CLR 19/16 A3012 RMK AO2 SLP188 T01940156
KCKC 300153Z AUTO 00000KT 10SM BKN004 OVC009 14/13 A2982 RMK AO2
KCKF 300155Z AUTO 24004KT 10SM OVC080 31/22 A3008 RMK AO2 LTG DSNT SE T03050222
KCKI 300155Z AUTO 12003KT 10SM CLR 26/25 A3013 RMK AO2
KCKM 300155Z AUTO 00000KT 10SM CLR 26/24 A2995 RMK AO1
KCKN 300154Z AUTO 01011KT 10SM OVC024 17/14 A2987 RMK AO2
KCKP 300155Z AUTO 00000KT 7SM -RA BKN046 BKN060 OVC120 19/19 A2979 RMK AO2 LTG DSNT SE P0008 T01910191
KCKV 300152Z AUTO 00000KT 10SM CLR 26/18 A2999 RMK AO2 SLP150 T02560178
KCLE 300151Z 13005KT 10SM CLR 21/12 A3008 RMK AO2 SLP184 T02110117
KCLI 300155Z AUTO 18006KT 10SM CLR 24/20 A2981 RMK AO2
KCLL 300153Z AUTO 13012KT 10SM FEW028 27/22 A2988 RMK AO2 SLP113 T02720222
KCLM 300153Z AUTO 00000KT 10SM SCT065 OVC080 17/11 A2997 RMK AO2 SLP147 T01720111 $
KCLS 300155Z AUTO 00000KT 10SM SCT041 22/14 A2996 RMK AO2
KCLT 300152Z 07007KT 10SM SCT065 SCT250 26/21 A3015 RMK AO2 SLP201 T02610211 $
KCMA 300155Z 26006KT 10SM CLR 23/16 A2981 RMK AO2 SLP102 T02280161
KCMD 300155Z AUTO 12003KT 10SM SCT080 27/18 A3006 RMK AO2 T02660179
KCMH 300151Z 11007KT 10SM FEW130 BKN200 26/16 A3006 RMK AO2 SLP171 T02560161
KCMI 300153Z 14006KT 9SM CLR 24/22 A2993 RMK AO2 SLP129 T02390217
KCMR 300155Z AUTO 34003KT 10SM CLR 23/03 A3026 RMK AO1
KCMX 300153Z AUTO 00000KT 1/4SM -RA FG FEW005 BKN120 17/16 A2979 RMK AO2 SLP087 P0001 T01670156
KCMY 300135Z AUTO 00000KT 7SM -RA SCT008 SCT024 BKN050 20/19 A2983 RMK AO2 LTG DSNT SW P0034 T01970188
KCNB 300154Z AUTO 30003KT 5SM BR SCT025 BKN033 OVC039 21/20 A2981 RMK AO2 T02120201
KCNC 300155Z AUTO 17006KT 9SM FEW070 20/20 A2980 RMK AO2
KCNI 300155Z AUTO 00000KT 10SM CLR 24/11 A3009 RMK AO2
KCNK 300155Z AUTO 24003KT 10SM CLR 22/20 A2984 RMK AO2 SLP094 T02220200
KCNM 300153Z AUTO 31006KT 10SM CLR 30/08 A2993 RMK AO2 SLP077 T03000078
KCNO 300153Z 25008KT 10SM FEW150 28/11 A2980 RMK AO2 SLP085 T02830111
KCNU 300152Z AUTO 18005KT 10SM CLR 24/18 A2986 RMK AO2 SLP102 T02440183
KCNW 300152Z 11009KT 10SM SKC 27/21 A2990
KCNY 300153Z AUTO 03003KT 10SM CLR 28/00 A3001 RMK AO2 SLP106 T02780000
KCOD 300155Z 17003KT 10SM CLR 22/08 A2998 RMK AO1
KCOE 300155Z AUTO 24008KT 10SM CLR 24/05 A2980 RMK AO1
KCOF 300158Z AUTO 22003KT 8SM R02/5500FT -RA OVC042 24/22 A3011 RMK AO2 SLP200 P0017 T02350220
KCOM 300155Z AUTO 07003KT 10SM SCT090 27/21 A2993 RMK AO2 T02650207
KCON 300151Z AUTO 00000KT 10SM CLR 14/12 A3026 RMK AO2 SLP245 T01440117
KCOQ 300156Z AUTO 00000KT 1SM BR OVC002 17/16 A2980 RMK AO2
KCOS 300154Z 36012KT 10SM BKN100 BKN140 BKN190 18/08 A3023 RMK AO2 RAE14 SLP165 VIRGA ALQDS P0000 T01780078
KCOT 300153Z AUTO 13012KT 10SM CLR 32/21 A2982 RMK AO2 SLP091 T03170206
KCOU 300154Z 15006KT 10SM CLR 24/23 A2988 RMK AO2 SLPNO T02390228
KCPC 300155Z AUTO 00000KT 10SM CLR 25/22 A3013 RMK AO2 T02520221
KCPK 300155Z AUTO 00000KT 10SM OVC044 22/18 A3020 RMK AO2
KCPR 300153Z 10009KT 10SM CLR 21/06 A3004 RMK AO2 SLP114 T02060061
KCPS 300153Z 18006KT 10SM FEW065 27/20 A2989 RMK AO2 SLP118 T02670200
KCPT 300155Z AUTO 16003KT 10SM CLR 28/22 A2991 RMK AO2
KCPW 300156Z AUTO 23012G17KT 10SM BKN095 08/M01 A3054 RMK AO2
KCQB 300155Z AUTO 19003KT M1/4SM HZ VV000 26/21 A2989 RMK AO2
KCQC 300153Z AUTO 22007KT 10SM CLR 18/06 A3022 RMK AO2 SLP147 T01780061
KCQF 300155Z AUTO 00000KT 10SM CLR 25/23 A3002 RMK AO2
KCQM 300153Z AUTO 00000KT 10SM SCT017 OVC024 17/16 A2981 RMK AO2
KCQT 300147Z AUTO 27005KT 10SM CLR 24/13 A2979 RMK AO2 SLP085 T02440133
KCQW 300155Z AUTO 00000KT 10SM FEW060 25/22 A3013 RMK AO2
KCQX 300152Z AUTO 11003KT 10SM CLR 16/09 A3028 RMK AO2 SLP254 T01560094
KCRE 300153Z AUTO 16007KT 10SM CLR 27/23 A3013 RMK AO2 SLP204 T02720228 TSNO
KCRG 300153Z 12005KT 10SM CLR 27/23 A3008 RMK AO2 SLP186 T02670228
KCRH 292115Z AUTO 12020KT 5SM BR FEW036 FEW048 SCT070 26/24 A2989 RMK A01
KCRP 300151Z 12006KT 10SM FEW018 FEW110 SCT170 BKN250 27/23 A2982 RMK AO2 SLP097 T02720233
KCRQ 300153Z AUTO 26004KT 10SM CLR 21/18 A2981 RMK AO2 SLP091 T02110178
KCRS 300153Z AUTO 16005KT 10SM FEW050 FEW090 BKN110 27/23 A2989 RMK AO2 RAB25E49 SLP118 P0002 T02670228
KCRW 300154Z COR 11004KT 10SM SCT120 23/22 A3008 RMK AO2 SLP178 T02330222 $
KCRX 300155Z AUTO 00000KT 10SM CLR 23/20 A2997 RMK AO2
KCSG 300151Z 23005KT 10SM OVC095 29/21 A3005 RMK AO2 SLP170 T02940211
KCSM 300153Z 17008KT 10SM CLR 26/20 A2993 RMK AO2 SLP111 T02610200 $
KCSQ 300155Z AUTO 27004KT 6SM -RA SCT039 BKN080 OVC095 20/20 A2981 RMK AO2 P0001
KCSV 300153Z AUTO 00000KT 10SM CLR 22/18 A3012 RMK AO2 SLP177 T02220178
KCTB 300156Z AUTO 24003KT 10SM CLR 21/07 A2981 RMK AO2 SLP077 T02110072
KCTJ 300155Z AUTO 00000KT 10SM CLR 22/18 A3009 RMK AO2
KCTY 300153Z AUTO 23004KT 26/22 A3006 RMK AO1 SLP177 P0001 T02560222
KCTZ 300154Z AUTO 00000KT 10SM BKN033 BKN050 26/23 A3015 RMK AO2
KCUB 300153Z AUTO 00000KT 10SM CLR 26/18 A3012 RMK AO2 SLP197 T02610183
KCUH 300155Z AUTO 17003KT CLR 26/20 A2988 RMK AO2 PWINO
KCUL 300155Z AUTO 17004KT 10SM CLR 25/22 A2995 RMK AO2 T02480222
KCUT 300153Z AUTO 00000KT 10SM SCT050 SCT095 16/11 A3011 RMK AO2 SLP142 T01560106
KCVB 300155Z AUTO 13013G20KT 10SM CLR 31/18 A2985 RMK AO2 T03080183
KCVC 300155Z AUTO 00000KT 10SM CLR 25/13 A3007 RMK AO2
KCVG 300152Z 15007KT 10SM FEW070 SCT250 26/19 A3003 RMK AO2 SLP159 T02560194
KCVH 300150Z AUTO 25009KT 10SM CLR 23/16 A2989 RMK AO1
KCVN 300155Z AUTO 03004KT 10SM 24/02 A3006 RMK AO1
KCVO 300155Z AUTO 29011G16KT 10SM FEW120 22/13 A2997 RMK AO1
KCVS 300158Z AUTO 02005KT 10SM CLR 26/04 A3004 RMK AO2 SLP115 T02580038 $
KCVW 300155Z AUTO 13013G19KT 10SM FEW040 SCT055 BKN120 25/23 A2992 RMK A01
KCVX 300154Z AUTO 17005KT 10SM SCT060 BKN070 OVC110 22/18 A2993 RMK AO2 T02170183
KCWA 300150Z 29008KT 10SM VCTS SCT032 BKN038 OVC110 20/18 A2984 RMK LTG DSNT W-NW TS W MOV NE
KCWC 300155Z AUTO 16005KT 10SM CLR 26/20 A2991 RMK AO2 T02560198
KCWF 300050Z 10005KT 10SM -RA SCT010 SCT018 26/23 A2992
KCWI 300155Z AUTO 17009KT 10SM CLR 24/21 A2983 RMK AO1
KCWN 300156Z AUTO 29017G28KT 290V050 10SM BKN110 19/02 A3023 RMK AO2 PK WND 29027/45 LTG DSNT E SLP153 T01850024
KCXO 300153Z 12007KT 10SM CLR 25/22 A2991 RMK AO2 SLP124 T02500217
KCXP 300155Z AUTO 13004KT 10SM CLR 27/00 A3003 RMK AO2
KCXY 300156Z AUTO 18006KT 10SM CLR 19/12 A3020 RMK AO2 SLP226 T01940117
KCYS 300153Z 00000KT 10SM SCT080 BKN095 BKN110 16/10 A3016 RMK AO2 WSHFT 0057 LTG DSNT SE TSB12E31 SLP145 T01560100
KCZT 300155Z AUTO 12009KT 10SM CLR 32/20 A2980 RMK AO2
KCZZ 300152Z AUTO 22010KT 28/11 A2987 RMK AO1 SLP083 T02830111
KD07 300156Z AUTO 02007KT 16/12 A2997 RMK AO1 SLP145 T01610122
KD25 300155Z AUTO 15003KT 10SM -RA SCT085 OVC120 18/18 A2981 RMK AO2 LTG DSNT W P0007 T01760176
KD39 300152Z AUTO 00000KT 10SM SCT042 20/19 A2980 RMK AO2 T01970185
KD50 300155Z AUTO 08005KT 10SM CLR 14/09 A2996 RMK AO2
KD55 300155Z AUTO 02006KT 10SM CLR 13/09 A2995 RMK AO2
KD60 300155Z AUTO 09005KT 10SM CLR 14/10 A3000 RMK AO2
KD95 300154Z AUTO 16003KT 10SM CLR 19/12 A3004 RMK AO2 T01900122
KDAA 300158Z AUTO M 10SM FEW055 18/15 A3021 RMK AO2 SLP233 T01760149 $
KDAB 300153Z 00000KT 10SM FEW100 SCT150 24/22 A3011 RMK AO2 SLP196 FRQ LTGIC DSNT SE CB DSNT SE T02440222 $
KDAG 300201Z AUTO 24011KT 10SM CLR 38/M03 A2978 RMK AO2 WSHFT 0144 T03831033 TSNO
KDAL 300153Z 12004KT 10SM FEW080 BKN170 BKN300 28/21 A2987 RMK AO2 SLP110 T02830211
KDAN 300153Z AUTO 00000KT OVC034 24/21 A3018 RMK AO2 SLP209 T02440211 $
KDAW 300151Z AUTO 00000KT 10SM CLR 14/11 A3026 RMK AO2 SLP243 T01390111
KDAY 300156Z 16007KT 6SM -TSRA BKN050CB BKN060 OVC085 23/21 A3006 RMK AO2 TSB46RAB42 SLP173 FRQ LTGICCG E-SE TS E-SE MOV N P0005 T02330206
KDBN 300155Z AUTO 13003KT 10SM CLR 25/18 A3009 RMK AO2
KDBQ 300153Z AUTO 15007KT 10SM VCTS SCT041 BKN065 24/21 A2979 RMK AO2 SLP081 T02440211
KDCA 300152Z 00000KT 10SM FEW100 SCT250 23/13 A3021 RMK AO2 SLP229 T02280128
KDCU 300153Z AUTO 10004KT 10SM FEW080 26/18 A3002 RMK AO2 SLP157 T02610183
KDCY 300155Z AUTO 17004KT 10SM CLR 24/22 A2995 RMK AO2 T02410219
KDDC 300152Z AUTO 03004KT 10SM CLR 21/12 A2993 RMK AO2 SLP112 T02060122
KDDH 300154Z AUTO 00000KT 10SM SCT047 14/13 A3022 RMK AO2 SLP233 T01440133
KDEC 300154Z 18010KT 10SM CLR 26/21 A2991 RMK AO2 SLP121 T02610206
KDED 300155Z AUTO 19003KT 10SM CLR 24/23 A3011 RMK AO1
KDEH 300155Z AUTO 00000KT 1 1/4SM BR BKN055 OVC075 20/20 A2980 RMK AO2
KDEN 300153Z 12006KT 10SM SCT120 BKN160 BKN200 17/11 A3015 RMK AO2 SLP154 T01670106
KDEQ 300153Z AUTO 00000KT 9SM BKN090 23/22 A2988 RMK AO2 SLP113 T02330222 $
KDET 300153Z 14007KT 10SM SCT120 22/15 A3005 RMK AO2 SLP173 T02170150 $
KDEW 300153Z AUTO 26007KT 10SM CLR 21/04 A2981 RMK AO2 SLP087 T02110044
KDFI 300153Z AUTO 13004KT 10SM CLR 25/18 A3001 RMK AO2 SLP157 T02500183
KDFW 300153Z 12004KT 10SM FEW040 BKN160 BKN250 28/21 A2987 RMK AO2 SLP107 OCNL LTGIC DSNT SW CB DSNT NE SW MOV SE T02830206
KDGW 300153Z AUTO 11008KT 10SM CLR 16/12 A3006 RMK AO2 WSHFT 0045 RAE06 SLP136 P0000 T01610117
KDHN 300153Z AUTO 15005KT 10SM CLR 25/22 A3011 RMK AO2 SLP190 T02500222
KDHT 300153Z AUTO 09005KT 10SM CLR 25/11 A3002 RMK AO2 SLP112 T02500111
KDIJ 300156Z AUTO 00000KT 10SM CLR 19/07 A3010 RMK AO2 T01940072 SLP112
KDIK 300156Z AUTO 04004KT 10SM CLR 16/11 A2997 RMK AO2 SLP142 T01610106
KDKB 300155Z AUTO 15007KT 10SM -TSRA SCT016 BKN024 OVC038 22/19 A2990 RMK AO2 LTG DSNT NW THRU NE T02160187
KDKK 300153Z AUTO 00000KT 10SM CLR 16/14 A3011 RMK AO2 SLP195 T01610139
KDKR 300150Z AUTO 06005KT 10SM CLR 27/23 A2993 RMK AO2
KDLF 300158Z AUTO 08006KT 10SM CLR 33/19 A2983 RMK AO2 SLP086 T03280188 $
KDLH 300202Z 00000KT 2SM BR OVC004 17/16 A2980 RMK AO2 T01670156
KDLL 300155Z AUTO 17007KT 10SM CLR 25/21 A2981 RMK AO2 LTG DSNT W T02500207
KDLN 300153Z AUTO 17015G23KT 10SM SCT110 23/04 A2991 RMK AO2 LTG DSNT E AND SE SLP079 T02330044 $
KDLP 300155Z AUTO 11008KT 10SM OVC004 28/24 A2999 RMK A01
KDLS 300153Z AUTO 31013G24KT 10SM CLR 23/11 A2987 RMK AO2 PK WND 30029/0139 SLP115 T02330106
KDLZ 300155Z AUTO 12004KT 10SM CLR 21/16 A3007 RMK AO2
KDMA 300158Z COR VRB03KT 10SM FEW200 34/03 A2984 RMK AO2A SLP052 WND DATA ESTMD ALSTG/SLP ESTMD $ COR 0201
KDMH 300154Z AUTO 23/14 A3021 RMK AO1 SLP230 T02280139
KDMN 300153Z AUTO 18004KT 10SM CLR 30/06 A2998 RMK AO2 SLP074 T03000061
KDMO 300153Z AUTO 16004KT 10SM CLR 24/20 A2986 RMK AO2 SLP103 T02390200
KDMW 300200Z AUTO 14004KT 10SM CLR 19/13 A3022 RMK AO2
KDNL 300153Z AUTO 11006KT 10SM CLR 29/17 A3009 RMK AO2 SLP184 T02940172
KDNN 300155Z AUTO 00000KT 10SM CLR 23/19 A3006 RMK AO2
KDNS 300155Z AUTO 27005KT 4SM RA SCT006 BKN031 OVC070 19/19 A2978 RMK AO2 P0002
KDNV 300155Z AUTO 18004KT 7SM +RA CLR 22/21 A2991 RMK AO2 T02200205
KDOV 300158Z AUTO 13003KT 10SM CLR 19/16 A3020 RMK AO2 SLP230 T01920159
KDPA 300152Z 17007KT 10SM FEW035 25/21 A2988 RMK AO2 LTG DSNT E AND W AND NW SLP112 T02500206
KDPL 300155Z AUTO 00000KT 10SM CLR 25/23 A3016 RMK AO2 T02500226
KDQH 300155Z AUTO 17004KT 10SM VCTS BKN090 30/22 A3010 RMK AO2 LTG DSNT W
KDRA 300152Z AUTO 22009KT 10SM CLR 35/M04 A2987 RMK AO2 SLP064 T03501039
KDRI 300155Z AUTO 00000KT 7SM CLR 25/23 A2995 RMK AO2 T02450232
KDRM 300155Z AUTO 15007KT 10SM SCT028 17/17 A2993 RMK AO2 T01680165
KDRO 300153Z AUTO 22008KT 10SM CLR 22/03 A3016 RMK AO2 SLP146 T02220028
KDRT 300153Z AUTO 07007KT 10SM CLR 34/18 A2982 RMK AO2 SLP079 T03390183
KDSM 300154Z 23005KT 10SM -RA FEW015 BKN038 OVC060 22/20 A2978 RMK AO2 RAB22 TSB13E42 SLP077 TS MOV NE P0014 T02170200
KDSV 300154Z AUTO 15006KT 10SM CLR 17/13 A3015 RMK AO2 SLP216 T01670133
KDTL 300155Z AUTO 33003KT 10SM CLR 18/17 A2982 RMK AO2
KDTN 300153Z 36003KT 4SM +TSRA BR SCT041 BKN070 OVC100 23/22 A2994 RMK AO2 WSHFT 0113 TSB0055RAB0055 SLP137 P0014 T02330222
KDTO 300153Z 16004KT 10SM CLR 28/21 A2989 RMK AO2 SLP112 T02780211
KDTS 300153Z AUTO 16006KT 10SM SCT017 BKN024 BKN031 29/25 A3005 RMK AO2 SLP175 T02940250 TSNO
KDTW 300153Z 10004KT 10SM SCT140 BKN200 21/16 A3005 RMK AO2 SLP172 T02060156
KDUA 300155Z AUTO 00000KT 10SM CLR 27/20 A2990 RMK AO2
KDUB 300155Z AUTO 25016KT 10SM SCT095 18/01 A3014 RMK AO2
KDUG 300156Z AUTO 31006KT 10SM CLR 26/11 A2999 RMK AO2 SLP093 T02560111
KDUH 300155Z AUTO 11004KT 10SM CLR 22/17 A3003 RMK AO2
KDUJ 300153Z AUTO 12006KT 10SM CLR 17/12 A3018 RMK AO2 SLP214 T01670117
KDUX 300155Z AUTO 08003KT 10SM CLR 24/08 A3000 RMK AO2 T02440078
KDVK 300155Z AUTO 00000KT 10SM CLR 23/20 A3007 RMK AO2
KDVL 300155Z AUTO 36005KT 10SM CLR 14/09 A2993 RMK AO1
KDVN 300152Z AUTO 19009KT 9SM CLR 24/21 A2982 RMK AO2 RAE21 SLP092 P0001 T02390211
KDVO 300155Z AUTO 03011KT 10SM CLR 22/12 A2986 RMK AO2
KDVP 300154Z AUTO 00000KT 10SM CLR 19/18 A2982 RMK AO2 LTG DSNT W T01850183
KDVT 300153Z 25007KT 10SM CLR 38/03 A2973 RMK AO2 SLP038 T03830028
KDWH 300153Z AUTO 09004KT 10SM CLR 26/22 A2989 RMK AO2 SLP120 T02610217 TSNO
KDWX 300155Z AUTO 00000KT 10SM CLR 19/09 A3019 RMK AO2 T01860091
KDXR 300153Z 18005KT 10SM CLR 18/12 A3026 RMK AO2 SLP245 T01780122
KDXX 300154Z AUTO 01003KT 10SM SCT031 SCT045 23/21 A2979 RMK AO2
KDYA 300155Z AUTO 00000KT 10SM CLR 26/20 A2999 RMK AO2 T02570201
KDYB 300215Z AUTO 00000KT 10SM CLR 24/24 A3013 RMK AO1
KDYL 300154Z AUTO 00000KT 10SM CLR 17/14 A3023 RMK AO2 SLP235 T01720139
KDYR 300155Z 14004KT 10SM CLR 26/17 A2997 RMK AO1
KDYS 300158Z AUTO 04003KT 10SM BKN120 25/21 A2993 RMK AO2 SLP095 T02540214 $
KDYT 300154Z AUTO 04005KT 10SM OVC004 17/16 A2979 RMK AO2
KDZB 300155Z AUTO 13004KT 10SM CLR 24/22 A2989 RMK AO2 T02440220
KE11 300155Z AUTO 09005KT 10SM CLR 28/14 A2998 RMK AO2 T02750141
KE16 300155Z AUTO 33010G15KT 10SM CLR 25/14 A2990 RMK AO2
KE38 300155Z AUTO 03005KT 10SM CLR 25/08 A3009 RMK AO2 LTG DSNT E AND SW T02540075
KE80 300155Z AUTO 12004KT 10SM CLR 24/05 A3007 RMK AO2 T02440046
KEAR 300155Z AUTO 35005KT 10SM CLR 24/18 A2990 RMK AO1
KEAT 300155Z AUTO 29012KT 10SM CLR 23/06 A2985 RMK AO2 SLP101 T02330056
KEAU 300156Z AUTO 19006KT 7SM RA OVC100 20/19 A2979 RMK AO2 LTG DSNT NE-SE TSE03B22E37B38E53 SLP084 P0029 T02000194
KEBG 300155Z AUTO 00000KT 10SM CLR 25/23 A2981 RMK AO2 T02510225
KEBS 300155Z AUTO 15005KT 10SM SCT018 BKN060 OVC070 20/20 A2977 RMK AO2
KECG 300154Z 09006KT 10SM BKN031 BKN050 23/18 A3019 RMK AO2 SLP222 T02330183
KECP 300153Z 13004KT 10SM CLR 28/24 A3005 RMK AO2 SLP187 T02780239
KECS 300155Z AUTO 02003KT 10SM CLR 21/06 A3002 RMK AO2
KECU 300150Z AUTO 00000KT 10SM CLR 29/18 A2995 RMK AO2
KEDC 300155Z AUTO 05003KT 10SM FEW070 25/23 A2990 RMK AO2
KEDE 300155Z AUTO 08007KT 10SM OVC046 23/20 A3018 RMK AO2 T02330197
KEDJ 300150Z AUTO 13008KT 10SM CLR 23/17 A3003 RMK A01 P000
KEDU 300155Z AUTO 17003KT 10SM CLR 29/16 A2979 RMK AO1
KEDW 300158Z 26014KT 60SM SCT320 35/02 A2982 RMK AO2A PK WND 24027/08 SLP073 T03460023
KEED 300156Z AUTO 00000KT 10SM CLR 41/M01 A2969 RMK AO2 SLP018 T04111006
KEEN 300155Z AUTO 00000KT 8SM CLR 14/09 A3024 RMK AO1
KEEO 300153Z AUTO 06003KT 10SM CLR 18/09 A3018 RMK AO2 SLP155 T01780094
KEET 300153Z AUTO 12003KT 10SM CLR 29/18 A3004 RMK AO2 SLP163 T02890178
KEFD 300150Z 09005KT 10SM FEW025 SCT050 BKN150 25/25 A2990
KEFK 300155Z AUTO 22004KT 10SM CLR 13/12 A3021 RMK AO2 T01250118
KEFT 300155Z AUTO 15010KT 10SM CLR 24/21 A2984 RMK AO2 LTG DSNT SE
KEGE 300155Z AUTO 07006KT 10SM FEW100 18/11 A3021 RMK AO1
KEGI 300158Z AUTO 11005KT 10SM SCT100 27/25 A3006 RMK AO2 SLP180 T02690250 $
KEGV 300154Z AUTO 17005KT 5SM RA SCT050 OVC070 17/17 A2984 RMK AO2 P0009
KEHA 300148Z AUTO 02006KT 24/08 RMK AO1 PK WND 08 000 T02440084
KEHC 300155Z AUTO 13021KT 10SM FEW016 27/24 A2990 RMK A01
KEHO 300155Z AUTO 08005KT 10SM SCT095 25/21 A3015 RMK AO2 T02490213
KEHR 300155Z AUTO 14005KT 10SM CLR 24/18 A2997 RMK AO1
KEHY 300155Z AUTO 03005KT 10SM CLR 16/04 A3016 RMK AO2
KEIK 300155Z AUTO 12005KT 10SM CLR 18/09 A3012 RMK AO2 T01770093
KEIR 300155Z AUTO 21008KT 10SM 27/24 A2997 RMK A01
KEKM 292350Z 12004KT 7SM CLR 24/23 A2996 RMK AO2
KEKN 300151Z AUTO 00000KT 10SM CLR 18/17 A3018 RMK AO2 SLP216 T01830167 TSNO
KEKO 300156Z AUTO 26009KT 10SM CLR 28/M02 A2996 RMK AO2 SLP095 T02781017
KEKQ 300156Z AUTO 00000KT 10SM CLR 22/21 A3008 RMK AO2 T02160205 SLP181
KELD 300153Z AUTO 15006KT 10SM CLR 27/22 A2993 RMK AO2 SLP132 T02720222
KELM 300153Z AUTO 00000KT 10SM CLR 15/13 A3018 RMK AO2 SLP218 T01500133
KELN 300153Z AUTO 30022G27KT 10SM CLR 20/08 A2990 RMK AO2 PK WND 30032/0127 SLP119 T02000083
KELO 300152Z AUTO 00000KT 10SM OVC015 16/15 A2981 RMK AO2
KELP 300151Z 15004KT 10SM FEW100 31/07 A2996 RMK AO2 SLP068 T03060067
KELY 300153Z AUTO 16007KT 10SM CLR 24/M01 A3009 RMK AO2 SLP102 T02391006
KELZ 300156Z AUTO 16008KT 10SM CLR 17/11 A3020 RMK AO2 SLP224 T01670106
KEMK 300155Z AUTO 14016KT 10SM CLR 28/25 A2988 RMK A01
KEMM 300155Z AUTO 28004KT 10SM CLR 17/03 A3020 RMK AO2
KEMP 300153Z AUTO 20009KT 10SM CLR 25/18 A2985 RMK AO2 SLP098 T02500178
KEMT 300145Z 20008KT 10SM CLR 28/15 A2980
KEMV 300155Z AUTO 09006KT 10SM BKN043 22/19 A3020 RMK AO2
KEND 300158Z AUTO 12004KT 10SM CLR 25/23 A2986 RMK AO2 SLP102 T02480229 $
KENL 300155Z AUTO 19010KT 10SM BKN110 26/19 A2993 RMK AO2
KENV 300155Z 00000KT 10SM CLR 29/03 A2992 RMK AO1
KENW 300153Z 17009KT 8SM CLR 24/22 A2988 RMK AO2 SLP115 T02440222
KEOE 300155Z AUTO 12003KT 10SM CLR 28/11 A3014 RMK AO2
KEOK 300155Z AUTO 17006G12KT 10SM FEW060 FEW110 23/22 A2983 RMK AO2
KEPH 300153Z AUTO 31012KT 10SM CLR 23/05 A2981 RMK AO2 SLP089 T02330050
KEQY 300153Z AUTO 07003KT 10SM FEW060 26/22 A3014 RMK AO2 SLP202 T02560222
KERI 300151Z 15004KT 10SM CLR 19/13 A3009 RMK AO2 SLP188 T01940133
KERV 300155Z AUTO 11009KT 10SM CLR 28/21 A2990 RMK AO2 T02760206
KERY 300154Z AUTO 19007KT 160V230 10SM OVC022 18/18 A2986 RMK AO2 T01840179
KESC 300155Z 21004KT 6SM CLR 20/18 A2983 RMK AO1 LTG DSNT NW
KESF 300153Z AUTO 00000KT 10SM FEW110 27/24 A2994 RMK AO2 SLP137 T02670239
KESN 292350Z 00000KT 10SM SCK 23/15 A3022
KEST 300152Z AUTO 20006KT 9SM BKN110 19/19 A2977 RMK AO2 SLP076 T01940189
KETB 300155Z AUTO 15003KT 7SM CLR 23/20 A2986 RMK AO2
KETC 300155Z AUTO 08004KT 10SM OVC032 23/20 A3018 RMK AO2 T02320195
KETH 300156Z AUTO 00000KT 10SM SCT034 BKN050 19/18 A2981 RMK AO2
KEUF 300158Z AUTO 17004KT 10SM FEW075 OVC100 27/21 A3005 RMK AO2 SLP172 T02720206
KEUG 300154Z 34009KT 10SM FEW055 SCT120 BKN200 24/12 A2995 RMK AO2 SLP141 T02440117
KEUL 300155Z AUTO 36006KT 10SM CLR 28/08 A2978 RMK AO1
KEVB 292347Z 22006KT 10SM FEW060 24/22 A3007
KEVM 300152Z AUTO 00000KT 5SM BR SCT005 BKN011 BKN026 17/16 A2981 RMK AO2
KEVV 300154Z 15005KT 10SM CLR 27/19 A2997 RMK AO2 SLP143 T02720194 $
KEVW 300153Z AUTO 27008KT 10SM CLR 19/04 A3019 RMK AO2 SLP141 T01940044
KEWB 300153Z 00000KT 10SM CLR 13/12 A3026 RMK AO2 SLP247 T01280117
KEWK 300155Z AUTO 20007KT 10SM CLR 23/17 A2990 RMK AO1
KEWN 300154Z 09004KT 10SM CLR 26/22 A3017 RMK AO2 SLP216 T02560222
KEWR 300151Z 16004KT 10SM BKN250 21/13 A3024 RMK AO2 SLP239 T02110128
KEXX 300155Z AUTO 00000KT 10SM CLR 23/22 A3016 RMK AO2 T02250223
KEYE 300153Z AUTO VRB04KT 10SM CLR 27/19 A2997 RMK AO2 SLP141 T02670194
KEYF 300155Z AUTO 00000KT 10SM CLR 25/20 A3014 RMK AO2 T02500200
KEYW 300153Z AUTO 10012KT 10SM CLR 31/24 A3005 RMK AO2 SLP176 T03060244
KEZF 300155Z AUTO 00000KT 10SM SCT055 22/16 A3020 RMK AO2 T02160160
KEZM 300155Z AUTO 12008KT 10SM OVC090 26/21 A3010 RMK AO2 LTG DSNT S T02640211
KEZS 300155Z AUTO 00000KT 10SM CLR 26/21 A2981 RMK AO2 LTG DSNT NE T02560208
KF05 300155Z AUTO 15005KT 10SM CLR 27/22 A2991 RMK AO1 T02670215
KF44 300155Z AUTO 00000KT 10SM BKN100 24/21 A2990 RMK AO2
KF46 300155Z AUTO 00000KT 10SM CLR 25/23 A2987 RMK AO2 T02500232
KF70 300155Z AUTO 20008KT 10SM CLR 27/14 A2984 RMK AO1
KFAF 300158Z AUTO 11003KT 10SM BKN044 22/15 A3019 RMK AO2 SLP226 T02230150 $
KFAM 300155Z AUTO 20007KT 10SM FEW050 SCT060 SCT075 22/19 A2996 RMK AO1
KFAR 300153Z 34020KT 10SM OVC013 18/14 A2983 RMK AO2 SLP102 T01830144
KFAT 300153Z 31011KT 10SM SCT150 BKN200 36/06 A2980 RMK AO2 SLP086 MTNS OBSC HZ DSNT N-E-SE T03560061
KFAY 300153Z AUTO 10007KT 10SM FEW025 SCT029 SCT042 27/24 A3014 RMK AO2 SLP198 T02670239
KFBG 300158Z 08006KT 10SM FEW060 26/23 A3014 RMK AO2A SLP207 T02590234 $
KFBL 300154Z AUTO 00000KT 7SM VCTS SCT015 BKN080 BKN100 24/20 A2977 RMK AO2 LTG DSNT NE
KFBR 300155Z AUTO 20012G16KT CLR 19/04 A3022 RMK AO2 T01940044 PWINO
KFCI 300155Z AUTO 14007KT 10SM SCT040 OVC050 24/13 A3021 RMK AO1
KFCM 300201Z 00000KT 10SM SCT028 BKN043 OVC120 21/21 A2975 RMK AO2 RAE0156 P0000
KFCS 300158Z AUTO 04007KT 10SM BKN110 17/10 A3020 RMK AO2 SLP187 T01700100
KFDK 300200Z AUTO 00000KT 10SM SCT047 17/15 A3023 RMK AO2
KFDR 300153Z AUTO 17008KT 10SM CLR 26/23 A2987 RMK AO2 SLP098 T02560228
KFDW 300155Z AUTO 12003KT 10SM CLR 26/16 A3011 RMK AO1
KFDY 300153Z AUTO 13007KT 10SM CLR 23/17 A3003 RMK AO2 SLP160 T02330172
KFEP 300155Z AUTO 15009KT 10SM CLR 24/21 A2986 RMK AO2 T02400209
KFET 300155Z AUTO 23003KT 10SM CLR 21/19 A2981 RMK AO2 T02120192
KFEW 300156Z AUTO 20004KT 10SM BKN095 BKN230 14/11 A3013 RMK AO2 LTG DSNT SE SLP144 T01380113
KFFA 300155Z AUTO 08005KT 10SM SCT036 BKN050 24/18 A3017 RMK AO2 T02390181
KFFC 300153Z AUTO 00000KT 10SM CLR 22/19 A3008 RMK AO2 SLP179 T02220194
KFFL 300155Z AUTO 19005KT 10SM FEW005 SCT020 BKN240 22/21 A2982 RMK AO2
KFFM 300154Z AUTO 34003KT 10SM SCT100 19/18 A2980 RMK AO2
KFFO 300158Z 13005KT 7SM -TSRA FEW025 BKN050 OVC090 24/21 A3005 RMK AO2A LTG DSNT S-NW SLP174 P0006 T02460210
KFFT 300153Z AUTO 00000KT 10SM CLR 23/19 A3003 RMK AO2 SLP161 T02330194
KFFX 300154Z AUTO 12007KT 5SM -RA SCT025 BKN080 OVC090 21/21 A2993 RMK AO2 T02130205
KFFZ 300147Z 27006KT 40SM SKC 38/05 A2973
KFGN 300154Z AUTO 35011KT 10SM SCT016 OVC070 17/14 A2986 RMK AO2
KFGX 300155Z AUTO 13003KT 10SM CLR 24/21 A3006 RMK AO2 T02440212
KFHB 300155Z AUTO 14011G15KT 10SM CLR 27/23 A3008 RMK AO1 LTG DSNT SE
KFHR 300153Z AUTO VRB04KT 10SM FEW047 17/12 A2996 RMK AO2 SLP145 T01720117
KFHU 300155Z 00000KT 10SM FEW095 28/09 A3004 RMK SLP103
KFIG 300154Z AUTO 01004KT 10SM CLR 15/12 A3020 RMK AO2 SLP225 T01500122
KFIT 300152Z AUTO 00000KT 10SM CLR 17/12 A3027 RMK AO2 SLP250 T01720122
KFKA 300156Z AUTO 00000KT 4SM VCTSRA SCT029 BKN040 OVC080 19/19 A2981 RMK AO2 LTG DSNT N P0010 T01870188
KFKL 300155Z 12003KT 10SM CLR 17/12 A3016 RMK AO1
KFKN 300155Z AUTO 09003KT 10SM OVC043 23/17 A3020 RMK AO1
KFKS 300152Z AUTO 17010G15KT 10SM BKN110 24/20 A2988 RMK AO2 T02380196
KFLD 300153Z AUTO 16007KT 10SM CLR 24/21 A2984 RMK AO2 SLP100 T02390211
KFLG 300157Z 00000KT 10SM CLR 19/06 A3024 RMK AO2 SLP157 T01940056
KFLL 300153Z 11009KT 10SM FEW024 30/24 A3007 RMK AO2 SLP181 T03000244
KFLO 300153Z AUTO 16004KT 10SM CLR 26/22 A3012 RMK AO2 SLP198 T02610217
KFLP 300155Z AUTO 00000KT 10SM SCT120 23/19 A2996 RMK AO1
KFLY 300156Z AUTO 28005KT 10SM SCT110 14/11 A3028 RMK AO2 LTG DSNT SE T01350107
KFME 300200Z AUTO 00000KT 10SM CLR 15/13 A3023 RMK AO1
KFMH 300155Z AUTO 09007KT 10SM CLR 15/12 A3027 RMK AO2
KFMM 300155Z AUTO 30008KT 10SM BKN090 OVC110 18/10 A3010 RMK AO2 T01820096 PWINO
KFMN 300153Z 26009KT 10SM CLR 25/03 A3007 RMK AO2 SLP132 T02500033
KFMY 300153Z 06007KT 10SM CLR 23/21 A3007 RMK AO2 SLP184 T02330211
KFNB 300153Z AUTO 33004KT 10SM FEW047 SCT055 BKN100 24/22 A2979 RMK AO2 LTG DSNT NE AND E RAB44E53 SLP081 P0000 T02390217
KFNL 300155Z AUTO 19007KT 10SM CLR 17/10 A3012 RMK AO1 LTG DSNT NE
KFNT 300153Z 16007KT 10SM FEW120 22/13 A3002 RMK AO2 SLP164 T02220128
KFOA 300155Z AUTO 17005KT 10SM CLR 23/20 A2994 RMK AO2 T02290203
KFOD 300155Z AUTO 00000KT 10SM SCT020 BKN031 OVC095 20/19 A2978 RMK AO1
KFOE 300153Z 14003KT 10SM BKN065 BKN080 23/21 A2982 RMK AO2 SLP088 T02280206
KFOK 300153Z 00000KT 10SM CLR 14/10 A3028 RMK AO2 SLP252 T01390100
KFOT 300155Z AUTO 30011G15KT 10SM CLR 17/14 A3001 RMK AO1
KFOZ 300152Z AUTO 00000KT 10SM BKN017 BKN023 BKN032 18/17 A2981 RMK AO2
KFPK 300155Z AUTO 13004KT 10SM CLR 23/19 A2996 RMK AO2 T02320187
KFPR 300153Z AUTO 32008KT 10SM SCT065 OVC095 28/24 A3011 RMK AO2 LTG DSNT W SLP197 T02780244
KFQD 300155Z AUTO 00000KT 10SM CLR 25/21 A3016 RMK AO2 T02500206
KFRG 300153Z 12004KT 10SM CLR 18/13 A3025 RMK AO2 SLP242 T01830128
KFRI 300158Z AUTO 21005KT 10SM CLR 26/17 A2982 RMK AO2 SLP088 T02580166
KFRM 300155Z 31006KT 10SM OVC110 19/18 A2977 RMK AO1 LTG DSNT SE
KFSD 300156Z 00000KT 10SM SCT050 SCT070 BKN100 OVC220 19/19 A2982 RMK AO2 SLP091 OCNL LTGIC DSNT W CB DSNT SW-NW T01940189 $
KFSE 300155Z AUTO 36010G15KT 10SM OVC010 17/16 A2983 RMK AO2
KFSI 300158Z AUTO 20006KT 10SM CLR 26/21 A2988 RMK AO2 SLP110 T02620211
KFSM 300153Z 10004KT 10SM CLR 24/22 A2990 RMK AO2 SLP120 T02440217
KFSO 300155Z AUTO 00000KT 10SM CLR 15/14 A3017 RMK AO2 T01450138
KFST 300153Z AUTO 07007KT 10SM FEW120 30/12 A2993 RMK AO2 SLP085 T03000122
KFSW 300155Z AUTO 17006KT 10SM SCT060 SCT080 23/22 A2984 RMK AO2
KFTG 300048Z 01004KT 10SM SCT085 BKN110 20/09 A3016
KFTK 300158Z AUTO 17005KT 10SM CLR 25/18 A3001 RMK AO2 SLP158 T02510184 $
KFTN 300255Z AUTO 10010G18KT 10SM CLR 33/19 A2982 RMK AO1
KFTW 300153Z 12005KT 10SM CLR 30/21 A2988 RMK AO2 SLP109 T03000206
KFTY 300153Z 00000KT 10SM CLR 23/19 A3007 RMK AO2 SLP173 T02330189
KFUL 300153Z 19004KT 10SM CLR 27/14 A2978 RMK AO2 SLP083 T02720144
KFVE 300153Z AUTO 17005KT 10SM CLR 13/08 A3017 RMK AO2 SLP218 T01330078
KFVX 300155Z AUTO 00000KT 10SM OVC047 23/20 A3017 RMK AO2
KFWA 300154Z 13008KT 10SM SCT120 BKN250 23/19 A3000 RMK AO2 SLP153 T02330194
KFWB 300155Z AUTO 21003KT 10SM FEW120 23/19 A2995 RMK AO2
KFWC 300155Z AUTO 00000KT 10SM CLR 26/22 A2994 RMK AO2
KFWN 300153Z AUTO 00000KT 10SM CLR 17/13 A3024 RMK AO1 SLP237 T01670133
KFWS 300155Z AUTO 00000KT 10SM CLR 27/21 A2990 RMK AO2 T02670210
KFWZ 300155Z AUTO 10SM OVC017 17/00 A3019 RMK AO2
KFXE 300153Z 10008KT 10SM FEW024 30/26 A3007 RMK AO2 SLP186 T03000256
KFXY 300155Z AUTO 22003KT 10SM RA SCT055 BKN070 OVC085 18/18 A2979 RMK AO2 P0015
KFYG 300155Z AUTO 00000KT 10SM FEW048 SCT050 BKN090 24/22 A2988 RMK AO2
KFYJ 300155Z AUTO 09003KT 10SM SCT045 21/16 A3021 RMK AO2 T02060157
KFYM 300155Z AUTO 11004KT 10SM CLR 23/17 A3004 RMK
KFYV 300153Z 00000KT 10SM CLR 22/21 A2994 RMK AO2 SLP124 T02220206
KFZG 300155Z AUTO 20006KT 10SM TS OVC080 30/20 A3010 RMK AO2 LTG DSNT SE T03020195
KFZY 300154Z AUTO 00000KT 10SM CLR 15/13 A3016 RMK AO2 SLP212 T01500128
KGAD 300155Z 00000KT 10SM CLR 24/16 A3004 RMK AO1
KGAF 300155Z AUTO 36010KT 10SM SCT050 15/13 A2990 RMK AO2
KGAG 300153Z AUTO 18004KT 10SM CLR 22/17 A2992 RMK AO2 SLP109 T02170172
KGAI 300155Z AUTO 11003KT 10SM CLR 17/12 A3025 RMK AO1
KGBD 300155Z AUTO 29005KT 10SM SCT070 24/17 A2988 RMK AO1
KGBG 300155Z AUTO 16007KT 10SM SCT055 SCT095 21/20 A2986 RMK AO2 P0001 T02110202
KGBK 300155Z AUTO 10007G12KT 050V120 10SM FEW040 SCT055 BKN075 27/24 A2993 RMK A01
KGCC 300153Z AUTO 10005KT 10SM CLR 18/10 A3001 RMK AO2 SLP129 T01830100
KGCD 300155Z AUTO 33010G15KT 10SM CLR 26/02 A2990 RMK AO2 T02580024
KGCK 300154Z AUTO 03003KT 10SM CLR 24/11 A2996 RMK AO2 SLP116 T02440111
KGCM 300155Z AUTO 17006KT 10SM CLR 25/20 A2991 RMK AO2
KGCN 300154Z 00000KT 10SM CLR 22/03 A3019 RMK AO2 SLP179 T02220028 $
KGDB 300154Z AUTO 26003KT 10SM SCT022 SCT035 SCT055 19/19 A2980 RMK AO2 T01930193
KGDJ 300155Z AUTO 12009KT 10SM CLR 30/20 A2990 RMK AO2 T02970204
KGDP 300151Z AUTO 06009KT 10SM CLR 24/07 A3012 RMK AO2 SLP121 T02390072
KGDV 300155Z AUTO 07005KT 10SM CLR 18/11 A2997 RMK AO1
KGED 300154Z AUTO 10005KT 10SM CLR 18/16 A3022 RMK AO2 SLP232 T01830156
KGEG 300153Z 24014KT 10SM SCT120 OVC180 24/07 A2982 RMK AO2 SLP086 T02390072
KGEU 300155Z 21007KT 20SM FEW200 39/04 A2972
KGEV 300155Z AUTO 00000KT 5SM BR OVC005 20/19 A3027 RMK AO2 T02020192
KGEY 300153Z AUTO 16003KT 10SM CLR 25/08 A2990 RMK AO2 SLP093 T02500083
KGEZ 300153Z AUTO 15006KT 9SM CLR 26/22 A2998 RMK AO2 SLP146 T02560217
KGFA 300156Z AUTO 16003KT 10SM CLR 24/05 A2981 RMK AO2 SLP085 T02410047
KGFK 300153Z 35014KT 10SM OVC043 17/14 A2988 RMK AO2 SLP117 T01670139
KGFL 300153Z AUTO 00000KT 10SM CLR 14/13 A3020 RMK AO2 SLP227 T01390128
KGGE 300155Z AUTO 12007KT 10SM CLR 26/25 A3014 RMK AO2
KGGG 300153Z 16010KT 10SM CLR 26/21 A2991 RMK AO2 SLP120 T02610211
KGGI 300155Z AUTO 18004KT 7SM SCT055 OVC075 20/19 A2980 RMK AO2 P0001 T02020191
KGGP 300155Z AUTO 20004KT 10SM SCT019 SCT036 SCT049 25/20 A2997 RMK AO2
KGGW 300153Z AUTO 13006KT 10SM CLR 18/12 A2990 RMK AO2 SLP126 T01780117
KGHB 300200Z AUTO 12019KT 5SM BR SCT036 BKN055 OVC080 26/25 A2994 RMK A01 P0004
KGHG 300150Z AUTO 12003KT 10SM CLR 17/13 A3028 RMK AO2
KGHW 300153Z AUTO 00000KT 10SM SCT034 19/18 A2981 RMK AO2
KGIC 300155Z AUTO 36009KT 10SM CLR 24/01 A2990 RMK AO1 T02440011
KGIF 300153Z AUTO 18008KT 1/2SM +RA FG FEW005 OVC011 23/22 A3018 RMK AO2 SLP216 P0111 T02280222 TSNO
KGJT 300153Z 00000KT 10SM CLR 23/09 A3006 RMK AO2 SLP120 T02280094
KGKJ 300153Z AUTO 00000KT 10SM CLR 19/12 A3013 RMK AO2 SLP197 T01940117 TSNO
KGKY 300153Z AUTO 00000KT 10SM CLR 28/21 A2988 RMK AO2 SLP110 T02830206
KGLD 300153Z AUTO 00000KT 10SM SCT090 20/13 A3001 RMK AO2 SLP128 T02000133
KGLE 300155Z AUTO 00000KT 10SM OVC080 26/23 A2992 RMK AO2 T02600228
KGLH 300153Z AUTO 19004KT 10SM CLR 27/22 A2993 RMK AO2 SLP140 T02720217
KGLR 300153Z AUTO 18008KT 10SM CLR 19/16 A2995 RMK AO2 SLP142 T01940161
KGLS 300152Z AUTO 08007KT 10SM -RA FEW019 BKN033 OVC047 26/24 A2988 RMK AO2 SLP118 P0001 T02610244
KGLW 300155Z AUTO 00000KT 10SM CLR 23/18 A3002 RMK AO2 T02290181
KGLY 300155Z AUTO 00000KT 10SM CLR 25/20 A2985 RMK AO2
KGMJ 300155Z AUTO 16006KT 10SM CLR 26/21 A2990 RMK AO2
KGMU 300153Z 07007KT 10SM CLR 27/21 A3014 RMK AO2 SLP193 T02720211
KGNA 300156Z AUTO 00000KT 16/14 A2978 RMK AO1 SLP081 T01560144
KGNC 300155Z AUTO 11006KT 10SM CLR 28/14 A3000 RMK AO2 T02770141
KGNF 300155Z AUTO 00000KT 10SM CLR 24/21 A2996 RMK AO2
KGNR 300156Z AUTO 00000KT 12/07 A3021 RMK AO1 SLP234 T01220072
KGNV 300153Z 11005KT 10SM CLR 23/22 A3007 RMK AO2 RAE17 SLP180 P0000 T02280217
KGOK 300153Z AUTO 17006KT 10SM FEW100 25/19 A2988 RMK AO2 SLP109 T02500194
KGON 300156Z 16009KT 10SM CLR 18/15 A3026 RMK AO2 SLP246 T01830150
KGOO 300200Z AUTO 00000KT 10SM CLR 25/09 A3000 RMK AO1
KGOP 300155Z AUTO 13003KT 10SM VCTS CLR 28/20 A2993 RMK AO2 LTG DSNT NW-NE
KGOV 300155Z AUTO 16008KT 10SM CLR 21/18 A2997 RMK AO2 T02060176
KGPH 300155Z AUTO 25006G23KT 7SM +TSRA SCT014 BKN055 OVC065 23/19 A2984 RMK AO2 LTG DSNT ALQS
KGPI 300155Z 28005KT 10SM CLR 23/07 A2977 RMK AO2 SLP072 T02330072
KGPM 300155Z AUTO 00000KT 10SM CLR 29/19 A2989 RMK AO2 T02860190
KGPT 300153Z 12006KT 10SM CLR 26/24 A2998 RMK AO2 SLP151 T02560239 $
KGPZ 300155Z AUTO 00000KT 8SM OVC017 18/17 A2981 RMK AO1
KGRB 300153Z 18007KT 7SM CLR 23/22 A2982 RMK AO2 SLP095 T02280217
KGRD 300156Z AUTO 12004KT 10SM CLR 28/14 A3011 RMK AO2 SLP189 T02780139
KGRF 300158Z AUTO 24007KT 10SM CLR 22/13 A2995 RMK AO2 SLP145 T02180130 PWINO $
KGRI 300153Z AUTO 34004KT 10SM CLR 21/19 A2988 RMK AO2 SLP108 T02060189
KGRK 300156Z 12011KT 7SM FEW060 SCT120 BKN250 27/21 A2991 RMK SLP123
KGRR 300153Z 15007KT 9SM BKN120 BKN140 23/23 A2996 RMK AO2 SLP140 T02280228
KGRY 300155Z AUTO 14009KT 10SM FEW023 FEW100 27/24 A2999 RMK A01
KGSB 300158Z AUTO 09004KT 10SM CLR 24/24 A3014 RMK AO2 SLP209 T02420238 $
KGSH 300153Z AUTO 14007KT 10SM CLR 24/21 A2998 RMK AO2 SLP146 T02440206
KGSO 300154Z 07005KT 9SM SCT060 BKN250 23/21 A3018 RMK AO2 SLP209 T02280211
KGSP 300153Z 06006KT 10SM CLR 27/22 A3012 RMK AO2 SLP186 T02670217
KGTB 300158Z AUTO 14004KT 10SM CLR 15/14 A3017 RMK AO2 SLP216 T01480137
KGTF 300153Z 17003KT 10SM CLR 24/06 A2981 RMK AO2 SLP072 T02440056
KGTR 300155Z 16005KT 10SM CLR 27/18 A2998 RMK AO1
KGTU 300153Z 09004KT 10SM CLR 27/22 A2992
KGUC 300155Z AUTO 02006KT 10SM BKN100 17/06 A3028 RMK AO1 WSHFT 47 P0003
KGUL 300155Z AUTO 10SM CLR 28/23 A2990 RMK A01
KGUP 300153Z AUTO 04009KT 10SM CLR 24/00 A3016 RMK AO2 SLP082 T02390000
KGUR 300155Z AUTO 12003KT 10SM CLR 22/14 A3004 RMK AO2 T02150140 PWINO
KGUS 300158Z 13008KT 10SM VCTS FEW045 SCT065 BKN220 25/24 A2997 RMK AO2A LTG DSNT NW SLP146 T02500236
KGUY 300153Z AUTO 02003KT 10SM CLR 27/08 A2995 RMK AO2 SLP097 T02720083
KGVL 300153Z AUTO 08003KT 10SM CLR 26/13 A3012 RMK AO2 SLP181 T02610128
KGVT 300155Z AUTO 00000KT 10SM CLR 27/22 A2989 RMK AO2
KGVX 300155Z AUTO 12010KT 10SM FEW036 FEW048 BKN120 27/23 A2988 RMK A01
KGWB 300155Z AUTO 11003KT 10SM CLR 23/18 A3001 RMK AO2
KGWO 300153Z AUTO 00000KT 10SM CLR 25/22 A2995 RMK AO2 SLP139 T02500222 TSNO
KGWR 300155Z AUTO 34015G19KT 10SM OVC010 18/17 A2987 RMK A01 P000
KGWW 300155Z AUTO 00000KT 10SM BKN018 24/22 A3016 RMK AO2 T02360216
KGXA 300155Z AUTO 29010KT 10SM CLR 32/00 A2989 RMK AO2 SLP073 T03240003
KGXF 292255Z 33004KT 10SM CLR 42/03 A2973 RMK SLP045 LAST
KGXY 300155Z AUTO 16013G16KT 10SM CLR 16/09 A3008 RMK AO1 LTG DSNT N P0004
KGYB 300155Z AUTO 13004KT 10SM CLR 27/21 A2992 RMK AO2 T02690213
KGYH 300155Z AUTO 08008KT 10SM CLR 27/22 A3013 RMK AO2
KGYI 300155Z AUTO 16004KT 10SM CLR 28/20 A2990 RMK AO2 T02760202
KGYL 300153Z AUTO 00000KT 7SM -RA OVC016 21/19 A2977 RMK AO2 T02050190
KGYR 300147Z 25006KT 10SM FEW200 38/07 A2972
KGYY 300145Z 15006KT 10SM BKN150 23/21 A2991 RMK LGT DSNT SE
KGZH 300153Z AUTO 19006KT 10SM BKN050 BKN065 OVC085 28/24 A3004 RMK AO2 SLP169 T02780239
KGZL 300155Z AUTO 13004KT 10SM BKN045 25/20 A2990 RMK AO2
KH21 300155Z AUTO 15008KT 10SM CLR 23/20 A2991 RMK AO2
KHAE 300135Z AUTO 15004KT 10SM CLR 23/21 A2986 RMK AO2 P0005
KHAF 300155Z AUTO 32007KT 5SM BR OVC008 17/15 A2992 RMK AO2
KHAI 300155Z AUTO 15005KT 10SM CLR 24/20 A2998 RMK AO2 T02370201
KHAO 300153Z AUTO 00000KT 6SM BR CLR 23/22 A3003 RMK AO2 LTG DSNT NE RAE01 SLP163 P0000 T02280222
KHBG 300153Z AUTO 00000KT 10SM CLR 24/23 A3000 RMK AO2 SLP155 T02440228
KHBI 300155Z AUTO 06004KT 10SM SCT060 SCT070 SCT090 24/22 A3018 RMK AO2 T02430220
KHBR 300153Z AUTO 18007KT 10SM CLR 24/20 A2990 RMK AO2 SLP109 T02440200
KHBV 300150Z AUTO 10012G16KT 10SM CLR 28/22 A2985 RMK AO2 T02810224
KHCD 300153Z AUTO 28004KT 2SM +RA BKN010 OVC016 20/19 A2979 RMK AO2 P0020 T02000194
KHCO 300153Z AUTO 36009KT 10SM CLR 16/13 A2989 RMK AO2
KHDC 300155Z AUTO 00000KT 10SM BKN005 BKN012 BKN017 25/23 A2998 RMK AO2
KHDE 300155Z AUTO 00000KT 10SM CLR 22/18 A2990 RMK AO2 T02170182
KHDN 300155Z AUTO 18004KT 10SM CLR 19/07 A3018 RMK AO1
KHDO 300151Z AUTO 12012G24KT 10SM CLR 32/20 A2986 RMK AO2 SLPNO T03170200
KHEF 300155Z 00000KT 10SM CLR 20/16 A3020 RMK AO1
KHEI 300153Z AUTO 04006KT 10SM CLR 15/11 A2999 RMK AO2 SLP148 T01500111
KHEQ 300155Z AUTO 04006KT 10SM CLR 21/15 A3003 RMK AO2
KHEY 300153Z AUTO 14005KT 10SM OVC110 26/22 A3007 RMK AO2 SLP069 T02610222
KHEZ 300155Z AUTO 16006KT 10SM CLR 26/23 A2996 RMK AO1
KHFD 300153Z AUTO 17005KT 10SM CLR 18/12 A3025 RMK AO2 SLP243 T01830122
KHFF 300156Z AUTO 08005KT 12SM SCT060 27/22 A3016 RMK AO2 SLP212 T02650224
KHFJ 300155Z AUTO 17007KT 10SM CLR 23/20 A2992 RMK AO2
KHGR 300153Z AUTO 10006KT 10SM CLR 19/13 A3020 RMK AO2 SLP234 T01940128
KHHF 300155Z AUTO 10004KT 10SM CLR 26/15 A2992 RMK AO2 T02550151
KHHG 300155Z AUTO 15007KT 10SM CLR 24/20 A2999 RMK AO2 LTG DSNT W T02400201
KHHR 300153Z 25009KT 10SM CLR 23/16 A2980 RMK AO2 SLP091 T02280161
KHHW 300155Z AUTO 16003KT 10SM CLR 28/21 A2988 RMK AO2 T02770210
KHIB 300205Z AUTO 00000KT 10SM FEW005 SCT013 OVC023 18/17 A2981 RMK AO2 T01830167
KHIE 300152Z AUTO 00000KT 10SM SCT048 15/13 A3022 RMK AO2 SLP236 T01500128
KHIF 300158Z AUTO 15009KT 10SM SCT230 26/08 A3000 RMK AO2 RAB0112E0133 SLP105 P0000 T02580075
KHII 300155Z AUTO 00000KT 10SM CLR 41/00 A2968 RMK AO2
KHIO 300153Z 04005KT 10SM CLR 23/13 A2994 RMK AO2 SLP137 T02280133
KHJH 300155Z AUTO 00000KT 10SM SCT050 22/19 A2985 RMK AO2 T02160185
KHJO 300153Z AUTO 31007KT 10SM CLR 35/04 A2979 RMK AO2 SLP087 T03500039 $
KHKA 300153Z AUTO 18003KT 10SM TS BKN085 28/23 A2996 RMK AO2 LTG DSNT W-N TSB47 SLP142 T02830233
KHKS 300153Z 15008KT 10SM CLR 27/21 A2998 RMK AO2 SLP142 T02720211
KHKY 300153Z AUTO 10005KT 10SM CLR 25/21 A3017 RMK AO2 SLP193 T02500211
KHLC 300153Z AUTO 08003KT 10SM CLR 23/16 A2990 RMK AO2 SLP107 T02280156
KHLG 300153Z AUTO 10007KT 10SM CLR 19/13 A3011 RMK AO2 SLP195 T01890128
KHLN 300153Z 00000KT 10SM CLR 26/07 A2983 RMK AO2 SLP087 T02610067
KHLR 300156Z 12007KT 10SM CLR 28/19 A2991 RMK AO2 SLPNO T02830194
KHLX 300155Z AUTO 00000KT 7SM BKN010 BKN017 19/19 A3025 RMK AO2 T01930187
KHMN 300158Z AUTO 27004KT 10SM CLR 29/07 A2997 RMK AO2 SLP081 T02920069 $
KHND 300156Z AUTO 13008G16KT 10SM CLR 38/01 A2981 RMK AO2 TSNO T03770011 SLP065
KHNR 300155Z AUTO 00000KT 10SM FEW070 SCT085 BKN110 20/20 A2983 RMK AO2
KHNZ 300155Z AUTO 00000KT 10SM OVC040 24/21 A3019 RMK AO2 T02370206
KHOB 300155Z AUTO 00000KT 10SM SCT110 27/13 A3000 RMK AO2
KHOE 300155Z AUTO 15004KT 10SM SCT027 OVC095 28/24 A3009 RMK AO2 LTG DSNT NW
KHON 300155Z AUTO 34013KT 10SM FEW035 22/17 A2984 RMK AO2 SLP097 T02170172
KHOP 300158Z AUTO 17003KT 10SM CLR 27/18 A3000 RMK AO2 SLP155 T02700177
KHOT 300153Z AUTO 36004KT VCTS -RA FEW032 BKN075 OVC090 23/22 A2995 RMK AO2 LTG DSNT N AND NE RAB27 TSB27E46 SLP133 P0004 T02330222
KHOU 300153Z 10004KT 10SM FEW013 SCT150 BKN250 26/23 A2987 RMK AO2 SLP120 T02560228
KHPN 300156Z 15003KT 10SM CLR 17/12 A3024 RMK AO2 SLP238 T01670122
KHQI 300155Z AUTO 12016KT 1/4SM FZFG A2991 RMK A01
KHQM 300153Z AUTO 21007KT 7SM CLR 18/16 A2998 RMK AO2 SLP154 T01780161
KHQU 300155Z AUTO 00000KT 10SM CLR 25/20 A3012 RMK AO1 T02470200
KHQZ 300050Z 00000KT 10SM CLR 27/22 A2987
KHRI 300153Z AUTO 24011KT 10SM CLR 26/08 A2981 RMK AO2 SLP090 T02610083
KHRJ 300155Z AUTO 07004KT 10SM CLR 26/22 A3015 RMK AO2 T02550218
KHRL 300152Z 04003KT 10SM BKN075 25/24 A2980 RMK AO2 TSE0053RAE19 SLP090 T02500244 $
KHRO 300153Z AUTO 13006KT 10SM OVC100 22/21 A2997 RMK AO2 SLP133 T02220211
KHRT 300058Z AUTO 00000KT 10SM SCT100 28/21 A3000 RMK AO2 RAB0028E0037 SLP161 P0000 T02790211 $
KHRX 300155Z AUTO 06007KT 10SM CLR 24/08 A3002 RMK AO2 T02430083
KHSA 300050Z 00000KT 7SM -RA SCT013 A2997
KHSB 300155Z AUTO 17004KT 10SM BKN110 26/21 A2996 RMK AO2 T02570213
KHSE 300151Z AUTO 10008KT 10SM FEW023 SCT037 SCT046 25/24 A3016 RMK AO2 SLP211 T02500239 TSNO
KHSI 300153Z AUTO 00000KT 10SM CLR 22/18 A2987 RMK AO2 SLP103 T02220178
KHSP 300155Z AUTO 17007KT 10SM SCT008 16/16 A3031 RMK AO2 T01600160
KHST 300158Z AUTO 08005KT 10SM CLR 29/25 A3007 RMK AO2 SLP186 T02910252
KHSV 300153Z 11005KT 10SM FEW250 27/19 A3002 RMK AO2 SLP156 T02670194
KHTL 300153Z AUTO 15009KT 10SM FEW029 19/16 A2998 RMK AO2 SLP150 T01940161
KHTO 292155Z VRB04KT 10SM SKC 21/13 A3022
KHTS 300151Z AUTO 00000KT 10SM FEW080 24/22 A3006 RMK AO2 SLP172 T02440217 TSNO
KHUF 300153Z 17004KT 9SM CLR 23/21 A2995 RMK AO2 SLP136 T02330211
KHUL 300153Z AUTO 20003KT 10SM CLR 11/08 A3019 RMK AO2 SLP225 T01060078
KHUM 300155Z AUTO 00000KT 7SM CLR 24/23 A2996 RMK AO2 LTG DSNT SW P0016 T02400226
KHUT 300152Z 14005KT 10SM CLR 23/19 A2986 RMK AO2 SLP093 T02280194
KHVN 300153Z AUTO 18008KT 10SM CLR 20/13 A3026 RMK AO2 SLP248 T02000133
KHVR 300153Z AUTO 13007KT 10SM CLR 22/10 A2980 RMK AO2 SLP083 T02220100 $
KHVS 300155Z AUTO 14004KT 10SM CLR 27/10 A3014 RMK AO2
KHWD 300154Z 28005KT 10SM CLR 20/17 A2990 RMK AO2 SLP132 T02000167 $
KHWO 300153Z AUTO 10006KT 10SM CLR 29/25 A3008 RMK AO2 SLP187 T02940250
KHWV 300156Z AUTO 00000KT 10SM CLR 17/12 A3026 RMK AO2 SLP246 T01670117 TSNO
KHWY 300155Z AUTO 00000KT 10SM BKN050 18/18 A3020 RMK AO2 T01770175
KHXD 300155Z AUTO 15003KT 10SM CLR 27/23 A3012 RMK AO2 P0000
KHYA 300156Z AUTO 00000KT 10SM CLR 13/11 A3026 RMK AO2 SLP246 T01330111
KHYI 300155Z 01003KT 10SM CLR 24/18 A2988 RMK AO1
KHYR 300153Z AUTO 19004KT 5SM RA BR OVC110 19/19 A2980 RMK AO2 LTG DSNT E SLP089 P0012 T01890189
KHYS 300155Z 33003KT 10SM CLR 24/13 A2989 RMK AO1
KHYW 300155Z AUTO 00000KT 7SM CLR 24/24 A3013 RMK AO2
KHYX 300155Z AUTO 15005KT 10SM CLR 20/13 A3000 RMK AO2
KHZE 300155Z AUTO 00000KT 10SM CLR 15/11 A2997 RMK AO2
KHZL 300155Z AUTO 00000KT 10SM CLR 14/12 A3026 RMK AO2
KHZR 300155Z AUTO 15004KT 10SM CLR 25/23 A2996 RMK AO2 T02510227
KHZX 300147Z AUTO 00000KT 10SM SCT021 OVC041 18/18 A2979 RMK AO2
KHZY 300153Z AUTO 13005KT 10SM CLR 17/14 A3010 RMK AO2 SLP190 T01720139
KI16 300155Z AUTO 7SM OVC075 23/23 A3021 RMK AO2 T02320230
KI35 300155Z AUTO 10SM BKN080 23/21 A3012 RMK AO1
KI39 300155Z AUTO 13003KT 10SM CLR 24/20 A3006 RMK AO2
KI69 300154Z AUTO 00000KT CLR 25/22 A3004 RMK AO1 PWINO
KI75 300155Z AUTO 19003KT 10SM -RA SCT015 BKN085 OVC110 20/18 A2980 RMK AO2 P0004 T02030181
KIAB 300158Z AUTO 16006KT 10SM CLR 23/22 A2987 RMK AO2 SLP107 T02300217
KIAD 300152Z 13005KT 10SM FEW250 19/13 A3020 RMK AO2 SLP226 T01940128
KIAG 300153Z 09004KT 10SM FEW100 FEW150 SCT250 17/13 A3010 RMK AO2 SLP193 T01720133
KIAH 300153Z 11008KT 10SM FEW025 SCT040 BKN150 BKN200 25/22 A2989
KIBM 300155Z AUTO 11005KT 10SM SCT100 18/12 A3008 RMK AO2 T01810119
KICL 300155Z AUTO 30009G16KT 4SM -DZ FEW019 BKN036 BKN065 21/19 A2983 RMK AO2 P0007
KICR 300153Z AUTO 33010KT 10SM SCT120 21/13 A2992 RMK AO2 SLP123 T02060133
KICT 300153Z 19007KT 10SM FEW050 FEW250 23/20 A2986 RMK AO2 SLP099 CB DSNT SE-S MOVG E T02280200 $
KIDA 300153Z 21008KT 10SM FU CLR 23/09 A2996 RMK AO2 SLP111 T02330089
KIDI 300155Z AUTO 12006KT 10SM CLR 19/13 A3019 RMK A01
KIDP 300155Z AUTO 15005KT 10SM SCT075 24/18 A2987 RMK AO2
KIEN 300152Z AUTO 00000KT 10SM CLR 17/13 A3000 RMK AO2 SLP144 T01720133
KIER 300155Z AUTO 15005KT 10SM SCT075 BKN085 BKN120 25/24 A2994 RMK AO2 T02530239
KIFA 300155Z AUTO 00000KT 7SM SCT070 OVC095 21/20 A2979 RMK AO2 T02070197
KIFP 300155Z AUTO 00000KT 10SM CLR 40/02 A2968 RMK AO2 PWINO
KIGM 300151Z AUTO 23007KT 10SM CLR 32/02 A2992 RMK AO2 SLP063 T03170017
KIGQ 292035Z AUTO 29013KT 4SM +TSRA BKN026 BKN038 OVC075 25/22 A2993 RMK AO2 LTG DSNT SW THRU N P0002 T02450220
KIGX 300156Z AUTO 07003KT 10SM CLR 24/22 A3017 RMK AO2 SLP211 T02390217 TSNO
KIIB 300155Z AUTO 23003KT 7SM RA SCT030 BKN055 OVC085 20/19 A2980 RMK AO2 P0001
KIIY 300155Z AUTO 15004KT 10SM CLR 28/18 A3008 RMK AO2
KIJD 300152Z AUTO 00000KT 10SM CLR 17/12 A3027 RMK AO2 SLP250 T01670122
KIJX 300155Z AUTO 00000KT 7SM -RA SCT065 SCT075 BKN090 23/22 A2988 RMK AO2 P0001 T02280220
KIKK 300155Z AUTO 14006KT 10SM CLR 22/21 A2991 RMK AO2 LTG DSNT E T02230208
KIKT 300155Z AUTO 10003KT 10SM BKN030 BKN037 BKN044 27/25 A3002 RMK A01
KIKV 300155Z AUTO 19007KT 3SM -RA SCT026 BKN045 OVC085 21/20 A2978 RMK AO2
KIKW 300154Z AUTO 15006KT 10SM CLR 22/14 A2998 RMK AO2 T02170137
KILE 300155Z AUTO 12006KT 10SM CLR 27/18 A2991 RMK AO1 LTG DSNT N
KILG 300151Z 13007KT 10SM CLR 21/16 A3022 RMK AO2 SLP234 T02060156
KILM 300153Z AUTO 17003KT 10SM CLR 25/22 A3014 RMK AO2 SLP205 T02500217
KILN 300154Z AUTO 13006KT 10SM FEW070 SCT100 BKN120 24/18 A3005 RMK AO2 LTG DSNT NW SLP169 T02390178
KIML 300153Z AUTO 02006KT 10SM CLR 21/15 A2999 RMK AO2 SLP134 T02060150
KIMM 300155Z AUTO 01005KT 10SM CLR 24/ A3010 RMK A01 P000
KIMT 300204Z AUTO 19005KT 2SM RA BR FEW014 BKN045 OVC100 20/19 A2983 RMK AO2 P0004 T02000189 TSNO
KIND 300054Z 16008KT 10SM FEW040 SCT130 BKN200 27/21 A2996 RMK AO2 SLP139 T02670206
KINF 300155Z AUTO 00000KT 10SM -RA SCT003 BKN019 25/23 A3010 RMK AO2 P0001
KINJ 300155Z AUTO 11006KT 10SM CLR 26/21 A2990 RMK AO2 T02590214
KINK 300153Z AUTO 09008KT 10SM CLR 32/14 A2991 RMK AO2 SLP076 T03220139
KINL 300205Z AUTO 36005KT 10SM BKN008 OVC021 18/17 A2981 RMK AO2 CIG 006V011 T01780167
KINS 300158Z AUTO 11011KT 10SM CLR 36/M03 A2987 RMK AO2 SLP066 T03551032 VISNO RWY08 $
KINT 300154Z 06004KT 10SM CLR 23/20 A3019 RMK AO2 SLP215 T02330200
KINW 300156Z AUTO 27006KT 10SM CLR 26/06 A3007 RMK AO2 SLP121 T02560056
KIOB 300155Z AUTO 18003KT 10SM CLR 25/22 A3008 RMK AO2
KIOW 300152Z AUTO 16004KT 10SM FEW042 SCT048 OVC065 22/21 A2980 RMK AO2 SLP086 T02220211
KIPJ 300155Z AUTO 00000KT 7SM SCT070 23/22 A3015 RMK AO2 T02330215
KIPL 300153Z AUTO 07004KT 10SM CLR 42/02 A2961 RMK AO2 SLP027 T04220022
KIPN 300155Z AUTO 14023KT 2 1/2SM HZ 26/23 A3003 RMK A01 VIS 1/2V5
KIPT 300154Z 00000KT 10SM CLR 16/13 A3019 RMK AO2 SLP221 T01610128
KIRK 300155Z AUTO 17004KT 10SM CLR 22/20 A2984 RMK AO2 SLP101 T02170200
KIRS 300154Z AUTO 14006KT 10SM CLR 23/20 A2998 RMK AO2
KISM 300150Z 00000KT 10SM BKN040 24/23 A3015 RMK LAST
KISN 300152Z AUTO 12003KT 10SM BKN055 18/09 A2995 RMK AO2 SLP141 T01830094
KISO 300056Z AUTO 08005KT 10SM BKN018 26/22 A3015 RMK AO2
KISP 300156Z 12003KT 10SM BKN270 19/13 A3024 RMK AO2 SLP239 T01890128
KISQ 300155Z AUTO 13003KT 10SM OVC016 18/18 A2985 RMK AO2 T01830178
KISW 300154Z AUTO 27014G19KT 10SM VCTS SCT038 BKN048 24/21 A2983 RMK AO2 LTG DSNT N AND NW SLP095 T02440211
KITH 300156Z 13003KT 10SM CLR 16/13 A3020 RMK AO2 T01550127 SLP223
KITR 300153Z AUTO 00000KT 10SM CLR 21/12 A3004 RMK AO2 SLP129 T02060117
KIWA 300155Z 23007KT 20SM FEW250 38/03 A2975
KIWI 300153Z AUTO 00000KT 10SM CLR 11/09 A3027 RMK AO2 SLP249 T01110094
KIXA 300155Z AUTO 12003KT 10SM SCT055 22/20 A3018 RMK AO2
KIXD 300153Z 00000KT 10SM SCT060 BKN080 OVC100 25/18 A2983 RMK AO2 LTG DSNT N AND NE SLP090 T02500178
KIYA 300155Z AUTO 13003KT 10SM RA SCT100 SCT120 24/23 A2996 RMK AO2 LTG DSNT SE AND S T02400229
KIZA 300155Z AUTO 27009KT 10SM CLR 21/13 A2986 RMK AO2
KIZG 300154Z AUTO 17005KT 10SM CLR 14/12 A3026 RMK AO2 SLP247 T01440122
KJAC 300155Z 00000KT 10SM CLR 21/04 A3010
KJAN 300154Z 15008KT 10SM FEW090 SCT250 27/22 A2997 RMK AO2 SLP144 T02670217
KJAS 300155Z AUTO 11004KT 10SM CLR 24/22 A2994 RMK AO2 T02420215
KJAX 300156Z 10005KT 10SM SCT250 26/25 A3007 RMK AO2 SLP184 T02610250
KJBR 300153Z AUTO 01004KT 10SM -RA FEW050 SCT110 23/22 A2997 RMK AO2 LTG DSNT N-E TSE49 SLP145 T02330222 PNO $
KJCT 300151Z AUTO 28003KT 10SM FEW075 BKN110 27/19 A2990 RMK AO2 SLP086 T02670189
KJDD 300155Z AUTO 16006KT 10SM BKN090 27/23 A2992 RMK AO2
KJDN 300148Z AUTO 11005KT 20/12 A2991 RMK AO1 SLP124 T02000122
KJEF 300153Z 16003KT 10SM CLR 24/21 A2987 RMK AO2 SLP100 T02440211
KJER 300153Z AUTO 10009KT 10SM FEW120 24/08 A2990 RMK AO2 WSHFT 0101 LTG DSNT NW RAB16E27 SLP091 P0000 T02390078
KJES 300155Z AUTO 00000KT 10SM 27/25 A3010 RMK AO2
KJFK 300151Z 13004KT 10SM BKN250 20/12 A3025 RMK AO2 SLP242 T02000122
KJFX 300155Z AUTO 00000KT 10SM CLR 23/21 A3001 RMK A02 P-128
KJFZ 300155Z AUTO 00000KT 10SM SCT050 BKN070 OVC120 25/20 A3021 RMK AO2 T02520197
KJGG 300155Z AUTO 12004KT 10SM OVC044 24/18 A3021 RMK AO1
KJHW 300155Z AUTO 16004KT 10SM CLR 17/11 A3016 RMK AO1
KJKA 300155Z AUTO 20009KT 10SM SCT120 26/24 A3002 RMK AO2 T02580235
KJKJ 300154Z AUTO 35013G19KT 10SM OVC011 18/18 A2984 RMK AO2
KJKL 300153Z AUTO 00000KT 10SM CLR 24/21 A3009 RMK AO2 SLP176 T02440206
KJLN 300153Z 18008KT 10SM CLR 26/17 A2989 RMK AO2 SLP110 T02610172
KJMR 300153Z AUTO 00000KT 10SM SCT041 SCT050 18/18 A2979 RMK AO2
KJMS 300156Z AUTO 36009KT 10SM OVC027 16/12 A2992 RMK AO2 SLP132 T01610122
KJNX 300155Z AUTO 00000KT 10SM CLR 24/22 A3016 RMK AO2
KJOT 300155Z AUTO 14006KT 10SM CLR 24/21 A2989 RMK AO2 LTG DSNT E AND NW T02400209
KJQF 300155Z 00000KT 10SM CLR 24/22 A3019
KJSO 300155Z AUTO 14005KT 10SM CLR 23/21 A2994 RMK AO2 T02410218
KJST 300154Z AUTO 14008G15KT 10SM CLR 17/11 A3020 RMK AO2 SLP220 T01720111
KJSV 300155Z AUTO 09004KT 10SM CLR 25/21 A2990 RMK AO2
KJTC 300155Z AUTO 30004KT 10SM -RA CLR 19/07 A3024 RMK AO2
KJVL 300145Z 16010KT 10SM CLR 26/21 A2985 RMK LAST
KJVW 300155Z AUTO 10SM CLR 27/24 A2997 RMK AO2
KJWG 300155Z AUTO 16004KT 10SM CLR 25/21 A2990 RMK AO2 T02530210
KJWY 300155Z AUTO 13003KT 10SM CLR 27/20 A2989 RMK AO2 T02660201
KJXI 300155Z AUTO 00000KT 10SM FEW006 SCT075 BKN120 23/22 A2992 RMK AO2 P0006
KJXN 300156Z 13010KT 10SM CLR 22/17 A3001 RMK AO2 SLP160 T02170172
KJYG 300155Z AUTO 00000KT 10SM SCT120 20/18 A2978 RMK AO2
KJYL 300155Z AUTO 00000KT 10SM CLR 25/22 A3011 RMK AO2 T02500217
KJYM 300155Z AUTO 14005KT 10SM CLR 23/19 A3002 RMK AO2 T02280193
KJYO 300155Z AUTO 00000KT 10SM CLR 21/14 A3022 RMK AO2
KJYR 300155Z AUTO 30003KT 10SM CLR 19/ A2986 RMK AO2
KJZI 300215Z AUTO 00000KT 10SM SCT017 26/25 A3012 RMK A02 P000
KKLS 300155Z AUTO 31003KT 10SM OVC055 21/12 A3000 RMK AO1
KL18 300155Z AUTO 22005KT 10SM CLR 23/16 A2983 RMK AO2
KL35 300155Z AUTO 26007KT 10SM CLR 21/02 A3022 RMK AO2
KL38 300155Z AUTO 00000KT 10SM CLR 25/25 A2995 RMK AO2 LTG DSNT SW T02510250
KLAA 300153Z AUTO 10006KT 10SM CLR 22/12 A2999 RMK AO2 SLP116 T02170122
KLAF 300154Z AUTO 10005KT 9SM FEW100 22/21 A2994 RMK AO2 SLP134 T02170206
KLAL 300150Z 17011KT 10SM SCT024 23/22 A3013 RMK LAST
KLAM 300155Z AUTO 00000KT 10SM CLR 22/00 A3023 RMK AO2 T02151002
KLAN 300153Z 15009KT 10SM FEW095 23/17 A3000 RMK AO2 SLP154 T02280172
KLAR 300153Z AUTO 10007KT 10SM BKN085 BKN110 14/09 A3020 RMK AO2 LTG DSNT S AND SW SLP148 T01440094
KLAS 300156Z 13007KT 10SM SCT250 38/00 A2974 RMK AO2 SLP041 T03780000
KLAW 300153Z AUTO 18004KT 10SM CLR 26/21 A2989 RMK AO2 SLP111 T02560211
KLAX 300153Z COR 24008KT 10SM FEW015 SCT200 22/16 A2981 RMK AO2 SLP091 T02170161
KLBB 300153Z 14007KT 10SM FEW070 26/17 A2998 RMK AO2 SLP105 T02610167
KLBE 300150Z 00000KT 15SM SCT200 21/13 A3014 RMK LAST
KLBF 300153Z AUTO 32005KT 10SM CLR 18/16 A2996 RMK AO2 LTG DSNT E SLP128 T01780156
KLBL 300155Z AUTO 10005KT 10SM CLR 26/10 A2998 RMK AO1
KLBT 300154Z AUTO 00000KT 10SM CLR 26/20 A3013 RMK AO2 SLP200 T02560200
KLBX 300153Z AUTO 00000KT 10SM SCT024 26/24 A2987 RMK AO2 SLP116 T02560239
KLCG 300155Z AUTO 33006KT 10SM CLR 19/18 A2983 RMK AO2 LTG DSNT W T01920184
KLCH 300153Z 14009KT 10SM -RA FEW010 FEW036 24/23 A2993 RMK AO2 SLP142 P0008 T02440233
KLCI 300155Z AUTO 28003KT 10SM CLR 17/12 A3024 RMK AO1
KLCK 300155Z AUTO 11005KT 10SM CLR 24/15 A3006 RMK AO2 T02400151
KLCQ 300155Z AUTO 20006KT 10SM CLR 22/22 A3007 RMK AO2 P0002
KLDJ 300155Z AUTO 19004KT 10SM CLR 23/14 A3026 RMK AO2 T02270135
KLDM 300155Z AUTO 15008KT 10SM SCT090 BKN120 24/22 A2990 RMK AO2 T02360215
KLEB 300153Z AUTO 00000KT 10SM CLR 14/12 A3021 RMK AO2 SLP227 T01390117
KLEE 300153Z AUTO 13003KT 10SM CLR 25/24 A3010 RMK AO2 SLP193 P0001 T02500239
KLEW 300155Z AUTO 17004KT 10SM CLR 13/10 A3025 RMK AO1
KLEX 300154Z 17003KT 10SM CLR 26/22 A3005 RMK AO2 SLP165 T02560217
KLFI 300158Z AUTO VRB03KT 10SM OVC042 24/17 A3020 RMK AO2 SLP233 T02370165 $
KLFK 300153Z AUTO 11007KT 10SM CLR 26/22 A2992 RMK AO2 SLP127 T02610222
KLFT 300153Z AUTO 16004KT 10SM CLR 26/23 A2996 RMK AO2 SLP144 T02560233
KLGA 300151Z 16007KT 10SM BKN250 21/12 A3024 RMK AO2 SLP238 T02110117 $
KLGB 300153Z 31009KT 10SM CLR 24/16 A2979 RMK AO2 SLP087 T02440156
KLGC 300155Z AUTO 00000KT 10SM CLR 25/21 A3006 RMK AO2 T02450205
KLGD 300155Z AUTO 31016KT 10SM CLR 24/04 A2988 RMK AO1
KLGU 300151Z AUTO 09006KT 10SM CLR 25/12 A2997 RMK AO2 SLP103 T02500122
KLHB 300155Z AUTO 00000KT 10SM 24/23 A2989 RMK AO2 T02410230
KLHM 300155Z AUTO 00000KT 10SM CLR 30/11 A2980 RMK AO1
KLHQ 300153Z AUTO 12003KT 10SM CLR 22/17 A3007 RMK AO2 SLP178 T02220172
KLHW 292358Z AUTO 12006KT 10SM BKN080 BKN090 29/22 A3005 RMK AO2 SLP179 T02860221 10350 20286 52008
KLHX 300153Z AUTO 36018G23KT 10SM FEW070 FEW090 BKN110 22/10 A3007 RMK AO2 PK WND 36033/0134 WSHFT 0124 LTG DSNT N SLP135 T02220100
KLHZ 300155Z AUTO 10003KT 10SM OVC085 22/21 A3018 RMK AO2
KLIC 300155Z AUTO 29007KT 10SM FEW060 SCT085 SCT110 18/09 A3016 RMK AO2 LTG DSNT SE AND S RAB13E24 SLP155 P0000 T01830094
KLIT 300153Z COR 01006KT 10SM BKN040 BKN100 OVC250 26/21 A2995 RMK AO2 SLP141 OCNL DSNT LTGIC W CB DSNT W-N MOV NE T02610211 $
KLJF 300153Z AUTO 00000KT 7SM -RA SCT018 SCT041 OVC110 22/22 A2979 RMK AO2
KLKR 300155Z AUTO 06006KT 10SM CLR 26/24 A3013 RMK AO2
KLKU 300155Z AUTO 09004KT 10SM OVC055 22/17 A3019 RMK AO2
KLKV 300155Z AUTO 27015KT 10SM CLR 26/03 A2998 RMK AO1
KLLJ 300155Z AUTO 26009KT 10SM CLR 26/01 A2991 RMK AO2 SLP068 T02560006
KLLQ 300153Z AUTO 13003KT 9SM CLR 27/23 A2993 RMK AO2 SLP133 T02720233
KLMO 300154Z AUTO 26005KT 10SM SCT110 18/12 A3013 RMK AO2 T01770116
KLMT 300153Z 30012KT 10SM FU SCT055 24/03 A2999 RMK AO2 SLP120 T02390033
KLNC 300155Z AUTO 00000KT 10SM CLR 24/22 A2989 RMK AO2 T02380220
KLND 300153Z AUTO 24008KT 10SM OVC110 23/08 A3000 RMK AO2 SLP097 T02280078 TSNO
KLNK 300154Z 00000KT 10SM FEW034 SCT110 21/19 A2983 RMK AO2 LTG DSNT SE SLP091 T02110189
KLNL 300155Z AUTO 17003KT 5SM RA SCT037 BKN055 OVC080 18/17 A2984 RMK AO2 LTG DSNT SE THRU W P0009 T01800172
KLNP 300155Z AUTO 21004KT 7SM -RA SCT019 BKN033 OVC060 21/21 A3023 RMK AO2 LTG DSNT SW P0010
KLNR 300203Z AUTO 15008KT 3SM -TSRA FEW022 SCT039 BKN080 24/20 A2980 RMK AO2 LTG DSNT W P0000 T02440200
KLNS 300153Z 13003KT 10SM CLR 17/12 A3021 RMK AO2 SLP229 T01670122
KLOL 300153Z AUTO 28014KT 10SM CLR 30/03 A2993 RMK AO2 SLP097 T03000033
KLOM 300155Z AUTO 14004KT 10SM CLR 20/15 A3023 RMK AO1
KLOR 300153Z AUTO 17004KT 10SM BKN095 BKN110 27/22 A3005 RMK AO2 SLP173 T02670222 TSNO $
KLOT 300155Z AUTO 15009KT 10SM CLR 23/20 A2989 RMK AO2 LTG DSNT E AND NW T02340203
KLOU 300153Z 00000KT 10SM CLR 27/17 A3001 RMK AO2 SLP157 T02720172
KLOZ 300153Z AUTO 00000KT 10SM CLR 26/22 A3008 RMK AO2 SLP173 T02560222
KLPC 300155Z AUTO 28008KT 10SM OVC010 18/14 A2989 RMK AO1
KLPR 300153Z AUTO 17005KT 10SM CLR 22/13 A3007 RMK AO2 SLP180 T02170133 TSNO
KLQK 300155Z AUTO 10SM SCT085 25/26 A3012 RMK AO2 T02540255
KLRD 300156Z 09013KT 10SM CLR 32/23 A2984 RMK AO2 T03160227 SLP092
KLRF 300159Z AUTO 02002KT 10SM FEW015 SCT150 24/22 A2996 RMK AO2 LTG DSNT N RAB0146
KLRJ 300155Z AUTO 00000KT 9SM CLR 20/20 A2981 RMK AO2
KLRO 300155Z AUTO 00000KT 8SM CLR 25/24 A3012 RMK AO2
KLRU 300155Z AUTO 13004KT 10SM CLR 30/04 A3001 RMK AO2 T02960040 PWINO
KLSB 300155Z AUTO 26006KT 10SM CLR 29/05 A2998 RMK AO2
KLSE 300153Z AUTO 00000KT 10SM -RA FEW042 SCT050 BKN120 22/20 A2979 RMK AO2 LTG DSNT NE-SE RAB26 SLP080 P0005 T02220200
KLSF 300158Z AUTO 19005KT 10SM SCT075 OVC095 29/21 A3004 RMK AO2 SLP173 T02900209
KLSV 300158Z AUTO 11006KT 10SM CLR 38/00 A2975 RMK AO2 SLP048 T03810004 $
KLTS 300158Z AUTO 14006KT 10SM CLR 25/22 A2989 RMK AO2 RAB0113E0146 SLP109 P0000 T02470221 $
KLUA 300155Z AUTO 00000KT 10SM OVC046 21/17 A3020 RMK AO2
KLUD 300155Z AUTO 00000KT 10SM SCT100 26/21 A2991 RMK AO2 T02590214
KLUF 300158Z AUTO 22008KT 10SM CLR 39/06 A2970 RMK AO2 SLP042 T03880061 VISNO RWY03 CHINO RWY03 $
KLUK 300153Z 00000KT 10SM CLR 24/22 A3003 RMK AO2 SLP164 T02390217
KLUM 300155Z AUTO 12005KT 7SM DZ SCT070 SCT085 OVC110 20/20 A2977 RMK AO2 LTG DSNT ALQS P0009 T01980195
KLUX 300155Z AUTO 08004KT 10SM CLR 26/17 A3013 RMK AO2
KLVJ 300153Z AUTO 10007KT 10SM CLR 25/23 A2989 RMK AO2 SLP120 T02500233
KLVK 300153Z AUTO 28006KT 10SM CLR 25/12 A2987 RMK AO2 SLP110 T02500117 TSNO
KLVM 300153Z AUTO 11009KT 10SM SCT120 24/07 A2990 RMK AO2 SLP084 T02390072
KLVN 300151Z AUTO 34004KT 10SM SCT025 BKN040 BKN110 22/18 A2975 RMK AO2 LTG DSNT NE AND SE
KLVS 300153Z AUTO 17007KT 10SM FEW100 18/06 A3021 RMK AO2 SLP134 T01830056
KLWA 300155Z AUTO 14006KT 10SM CLR 24/22 A2993 RMK AO2 T02370218
KLWB 300155Z AUTO 00000KT 10SM CLR 22/17 A3022 RMK AO2 T02160168
KLWC 300152Z AUTO 06003KT 10SM SCT065 BKN100 23/20 A2981 RMK AO2 LTG DSNT E RAE21 TSE22 SLP088 P0014 T02280200
KLWD 300153Z AUTO 18004KT 10SM SCT120 22/20 A2981 RMK AO2 LTG DSNT N SLP085 T02170200
KLWM 300154Z 19003KT 10SM CLR 15/12 A3028 RMK AO2 SLP254 T01500122
KLWS 300156Z 30013G26KT 10SM CLR 28/02 A2977 RMK AO2 PK WND 30026/0151 SLP072 T02830022
KLWT 300154Z AUTO 12008KT 10SM CLR 21/11 A2989 RMK AO2 SLP093 T02110111
KLWV 300153Z AUTO 20005KT 8SM CLR 24/22 A2995 RMK AO2 SLP137 T02390222
KLXL 300157Z AUTO 00000KT 10SM OVC047 20/18 A2979 RMK AO2
KLXN 300155Z AUTO 31004KT 10SM CLR 21/19 A2992 RMK AO2 LTG DSNT N T02080185
KLXT 300153Z AUTO 22004KT 10SM FEW060 26/19 A2985 RMK AO2 LTG DSNT W-N PRESRR SLP099 T02560194
KLXV 300153Z AUTO 06005KT 10SM CLR 08/04 A3043 RMK AO2 SLP179 T00780039
KLXY 300155Z AUTO 00000KT 10SM CLR 26/22 A2990 RMK AO2 T02550222
KLYH 300154Z 18004KT 10SM OVC040 23/20 A3021 RMK AO2 SLP222 T02280200
KLYV 300154Z AUTO 31005KT 10SM CLR 20/18 A2981 RMK AO2 LTG DSNT NW
KLZU 300045Z 00000KT 10SM CLR 27/13 A3006 RMK JW
KLZZ 300155Z AUTO 11007KT 10SM CLR 27/22 A2991 RMK AO2 T02730218
KM19 300156Z AUTO 28003KT 10SM BKN075 OVC090 23/22 A2998 RMK AO2 T02330222 LTG DSNT W TSE02RAE16 P0000 SLP147
KM25 300155Z AUTO 17003KT 10SM CLR 26/18 A2998 RMK AO2
KM30 300155Z AUTO 00000KT 10SM SCT120 27/21 A2995 RMK AO2 T02650207
KM63 300156Z AUTO 24005KT 5SM CLR 30/05 A2999 RMK AO2 LTG DSNT S SLP084 T03020048
KMAE 300153Z AUTO 31006KT 10SM CLR 33/08 A2980 RMK AO2 SLP090 T03330078
KMAF 300153Z 11008KT 10SM CLR 29/17 A2995 RMK AO2 SLP093 T02940172
KMAI 300153Z AUTO 17006KT 10SM FEW075 SCT110 25/25 A3006 RMK AO2 SLP177 T02500250
KMAN 300155Z AUTO 32003KT 10SM CLR 29/07 A2976 RMK AO1
KMAO 300155Z AUTO 16005KT 10SM CLR 25/22 A3013 RMK AO2
KMBG 300152Z AUTO 02009KT 10SM CLR 17/14 A2991 RMK AO2 SLP125 T01720144
KMBL 300155Z AUTO 14004KT 10SM FEW038 FEW050 22/19 A2990 RMK AO1
KMBS 300153Z 16009KT 10SM CLR 22/13 A3000 RMK AO2 SLP157 T02170128
KMCB 300153Z AUTO 14007KT 10SM CLR 24/22 A2997 RMK AO2 SLP143 T02440217
KMCD 300159Z AUTO 17008KT 10SM OVC029 20/18 A2991 RMK AO2 T01960182
KMCE 300153Z AUTO 35009KT 10SM CLR 32/12 A2980 RMK AO2 SLP092 T03170122
KMCF 300158Z AUTO 12010KT 10SM OVC140 27/24 A3008 RMK AO2 DZB0100E0110 SLP189 P0000 T02670239
KMCI 300153Z 18007KT 10SM FEW024 BKN065 BKN080 21/19 A2983 RMK AO2 PK WND 22043/0054 WSHFT 0053 RAE26 SLP092 CONS LTGCGICCC DSNT NE-SE CB DSNT NE-SE P0042 T02060194
KMCJ 300155Z AUTO 09006KT 10SM FEW043 25/22 A2985 RMK AO1
KMCK 300153Z AUTO 03004KT 10SM SCT090 22/17 A2992 RMK AO2 SLP115 T02220167
KMCN 300153Z AUTO 00000KT 10SM CLR 25/19 A3006 RMK AO2 SLP173 T02500189 TSNO
KMCO 300153Z 15009KT 10SM FEW050 BKN150 BKN250 24/23 A3013 RMK AO2 RAE03 SLP201 P0000 T02390228
KMCW 300153Z AUTO 00000KT 9SM BKN014 BKN065 OVC110 20/19 A2980 RMK AO2 LTG DSNT W-N RAE18B35E52 TSE00 SLP078 P0001 T02000194
KMCX 300155Z AUTO 00000KT 10SM SCT110 21/20 A2994 RMK AO2 P0034 T02130201
KMDD 300200Z AUTO 12009KT 10SM CLR 29/17 A2996 RMK AO2 T02930170
KMDH 300152Z AUTO 19006KT 10SM CLR 25/19 A2994 RMK AO2 SLP133 T02500194
KMDJ 300155Z AUTO 10009KT 10SM CLR 27/24 A3002 RMK A01
KMDQ 300155Z AUTO 00000KT 10SM CLR 22/18 A3003 RMK AO2
KMDS 300150Z AUTO 28003KT 10SM CLR 19/19 A2983 RMK AO2
KMDT 300156Z 15003KT 10SM FEW250 19/14 A3020 RMK AO2 SLP225 T01890139
KMDW 300151Z 17007KT 10SM FEW050 FEW070 SCT150 BKN200 27/21 A2989 RMK AO2 SLP111 FRQ LTGICCC DSNT W-NW CB DSNT W-NW T02670211
KMDZ 300155Z AUTO 15005KT 10SM SCT042 SCT050 OVC110 18/17 A2983 RMK AO2 LTG DSNT W P0002 T01750172
KMEB 300152Z AUTO 11003KT 10SM BKN055 BKN070 27/20 A3014 RMK AO2 SLP204 T02720200 TSNO
KMEH 300156Z AUTO 00000KT 10SM BKN110 21/05 A2996 RMK AO2 SLP137 T02060050
KMEI 300158Z 18007KT 10SM CLR 27/22 A2999 RMK AO2 SLP153 T02720217
KMEM 300154Z 23004KT 10SM FEW100 BKN150 BKN250 28/21 A2996 RMK AO2 SLP140 T02830206 $
KMER 300145Z 32010KT 10SM SCT100 30/13 A2981
KMEZ 300155Z AUTO 00000KT 10SM CLR 25/23 A2994 RMK AO2
KMFD 300152Z 15005KT 10SM CLR 21/15 A3009 RMK AO2 SLP183 T02060150
KMFE 300153Z AUTO 00000KT 10SM CLR 25/23 A2981 RMK AO2 RAE18 SLP092 P0000 T02500228 TSNO
KMFI 300154Z AUTO 00000KT 4SM VCTS RA BR SCT029 OVC075 19/18 A2983 RMK AO2 LTG DSNT NE-S TSE04B23E38B39E54 SLP098 P0038 T01940183
KMFR 300153Z 01016KT 10SM CLR 29/08 A2989 RMK AO2 SLP110 T02940083
KMFV 300155Z AUTO 00000KT 10SM CLR 17/14 A3022 RMK AO2
KMGC 300155Z AUTO 21018G26KT 170V230 5SM +RA SCT019 SCT033 BKN039 23/22 A2996 RMK AO2
KMGE 300158Z 09002KT 10SM SCT250 26/17 A3009 RMK AO2A SLP179 T02570173 $
KMGG 300154Z AUTO 00000KT 5SM BR SCT042 BKN085 OVC110 21/21 A2978 RMK AO2 P0001 T02100206
KMGJ 300154Z AUTO 00000KT 10SM CLR 16/12 A3023 RMK AO2 SLP236 T01610122 TSNO $
KMGM 300153Z 13009KT 10SM BKN070 OVC090 29/21 A3003 RMK AO2 PRESRR SLP167 T02890211
KMGN 300154Z AUTO 21004KT 10SM BKN070 OVC080 21/17 A2992 RMK AO2 T02130173
KMGR 300155Z AUTO 00000KT 10SM BKN080 BKN100 27/25 A3009 RMK AO2 LTG DSNT NE
KMGW 300153Z 00000KT 10SM CLR 21/16 A3014 RMK AO2 SLP199 T02060156
KMGY 300153Z AUTO 10007KT 10SM FEW050 23/20 A3003 RMK AO2 LTG DSNT N AND NE RAB03E25 TSE43 SLP163 P0009 T02280200
KMHE 300153Z AUTO 33004KT 10SM CLR 19/18 A2983 RMK AO2 RAE01 SLP097 P0000 T01940183
KMHK 300152Z AUTO 27004KT 10SM CLR 24/18 A2982 RMK AO2 SLP089 T02440183
KMHR 300145Z 21004KT 10SM BKN150 31/13 A2981
KMHS 300156Z AUTO 00000KT 2SM HZ BKN040 BKN050 OVC110 24/08 A2995 RMK AO2 SLP135 T02390078
KMHT 300153Z 17004KT 10SM FEW250 17/12 A3025 RMK AO2 SLP254 T01670122
KMHV 300155Z AUTO 29023G30KT 10SM CLR 31/03 A2988 RMK AO1
KMIA 300153Z 10010KT 10SM FEW023 FEW028 30/24 A3007 RMK AO2 SLP184 T03000244
KMIB 300158Z AUTO 09003KT 10SM CLR 17/11 A2995 RMK AO2 SLP146 T01660109 $
KMIC 300205Z 05003KT 5SM BR FEW006 BKN026 OVC047 22/20 A2975 RMK AO2 T02220200
KMIE 300153Z AUTO 15008KT 10SM CLR 26/19 A2999 RMK AO2 SLP147 T02560189
KMIS 300155Z AUTO VRB04G10KT 10SM CLR 29/24 A3000 RMK A01
KMIV 300154Z AUTO 00000KT 10SM CLR 16/14 A3023 RMK AO2 SLP236 T01560139
KMIW 300153Z AUTO 16003KT 8SM OVC060 21/20 A2979 RMK AO2 SLP081 T02060200
KMJQ 300154Z AUTO 02003KT 7SM SCT120 20/18 A2979 RMK AO2
KMJX 300155Z AUTO 00000KT 10SM CLR 14/13 A3024 RMK AO1
KMKC 300154Z 31006KT 10SM -TSRA SCT035 BKN070 OVC110 23/19 A2983 RMK AO2 PK WND 28035/0108 WSHFT 0106 LTG DSNT NE AND SW RAB10 TSB15 SLP094 P0046 T02280189
KMKE 300152Z 18013KT 8SM CLR 24/22 A2987 RMK AO2 SLP111 T02440217
KMKG 300155Z 14007KT 7SM SCT100 23/21 A2991 RMK AO2 RAB03E18 SLP128 P0002 T02280211 $
KMKJ 300155Z AUTO 06004KT 10SM OVC120 A3025 RMK AO2
KMKL 300153Z AUTO 16003KT 10SM CLR 27/18 A2997 RMK AO2 SLP144 T02670183
KMKN 300155Z AUTO 09006KT 10SM 26/21 A2992 RMK AO2 T02600212
KMKO 300153Z AUTO 14006KT 10SM CLR 24/22 A2989 RMK AO2 SLP115 T02440222
KMKS 300155Z AUTO 00000KT 10SM 27/26 A3012 RMK AO2
KMKT 300155Z AUTO 30006KT 10SM FEW010 SCT016 BKN028 21/18 A2977 RMK AO1
KMKY 300155Z AUTO 04008KT 10SM FEW046 24/23 A3007 RMK AO1
KMLB 300153Z 14003KT 10SM -RA SCT110 25/23 A3012 RMK AO2 SLP197 T02500228 PNO $
KMLC 300153Z AUTO 20003KT 10SM CLR 27/22 A2990 RMK AO2 SLP114 T02670217
KMLE 300155Z AUTO 00000KT 10SM CLR 21/19 A2979 RMK AO2 T02060188
KMLF 300152Z AUTO 18003KT 10SM CLR 29/02 A2999 RMK AO2 SLP096 T02940017
KMLI 300152Z 19012KT 10SM CLR 23/19 A2982 RMK AO2 RAE13 SLP093 P0002 T02280189
KMLJ 300155Z AUTO 00000KT 10SM CLR 26/21 A3007 RMK AO2
KMLP 300153Z AUTO VRB05KT 10SM FEW110 15/M01 A3000 RMK AO2 SLP075 T01501006
KMLS 300153Z AUTO 07004KT 10SM CLR 19/11 A2994 RMK AO2 SLP127 T01940106
KMLT 300153Z AUTO 00000KT 10SM CLR 13/09 A3022 RMK AO2 SLP238 T01330089
KMLU 300153Z 17005KT 10SM CLR 28/23 A2994 RMK AO2 SLP136 T02780228
KMMH 300155Z AUTO 30006G15KT 10SM CLR 26/M05 A3019 RMK AO1
KMMI 300155Z AUTO 00000KT 10SM CLR 22/21 A3008 RMK
KMMK 300153Z AUTO 00000KT 10SM CLR 16/12 A3026 RMK AO2 SLP245 T01560117 TSNO
KMML 300155Z AUTO 00000KT 7SM CLR 19/18 A2978 RMK AO1
KMMT 300158Z AUTO 12005KT 10SM CLR 25/22 A3012 RMK AO2 SLP200 T02510215 $
KMMU 300145Z 00000KT 10SM SKC 15/13 A3025
KMMV 300153Z AUTO 23006KT 10SM CLR 23/13 A2994 RMK AO2 SLP137 T02330133
KMNE 300156Z AUTO 18004KT 10SM CLR 29/22 A2995 RMK AO2 LTG DSNT W
KMNH 300153Z AUTO 20005KT 10SM CLR 13/07 A3025 RMK AO2
KMNI 300155Z AUTO 00000KT 10SM CLR 26/25 A3012 RMK AO2
KMNM 300155Z AUTO 20006KT 8SM FEW100 22/19 A2982 RMK AO1 LTG DSNT NW
KMNN 300153Z AUTO 13006KT 10SM CLR 22/16 A3006 RMK AO2 SLP176 T02220161 TSNO
KMOB 300156Z 16007KT 10SM -RA FEW060 SCT200 26/24 A3003 RMK AO2 RAB00E39B55 SLP164 P0000 T02560239
KMOD 300153Z 33009KT 10SM CLR 30/14 A2981 RMK AO2 SLP093 T03000139
KMOP 300158Z AUTO 13005KT 10SM CLR 21/18 A2997 RMK AO2 T02120175
KMOT 300154Z AUTO 00000KT 10SM CLR 14/11 A2996 RMK AO2 SLP145 T01390106
KMOX 300147Z AUTO 01003KT 10SM CLR 19/19 A2979 RMK AO2
KMPO 300153Z AUTO 00000KT 10SM CLR 13/11 A3025 RMK AO2 SLP243 T01280111 TSNO
KMPV 300151Z AUTO 00000KT 10SM CLR 13/11 A3025 RMK AO2 SLP247 T01280111
KMPZ 300155Z AUTO 15005KT 7SM SCT044 BKN050 BKN070 22/21 A2982 RMK AO2 T02210213
KMQB 300155Z AUTO 14005KT 10SM BKN046 BKN060 BKN080 21/21 A2988 RMK AO2 T02080208
KMQE 300154Z AUTO 15007KT 14/12 A3026 RMK AO1 SLP258 T01440117
KMQI 300155Z AUTO 07008G14KT 10SM BKN033 24/19 A3018 RMK AO2 T02370185
KMQJ 300155Z AUTO 16003KT 10SM CLR 24/24 A2999 RMK AO1
KMQS 300155Z AUTO 00000KT 10SM CLR 17/14 A3023 RMK AO2
KMQY 300156Z 00000KT 10SM CLR 23/18 A3002 RMK AO2 T02330183 SLP171
KMRB 300153Z 10003KT 10SM CLR 19/13 A3020 RMK AO2 SLP223 T01940133
KMRC 300155Z AUTO 00000KT 24/23 A3001 RMK
KMRF 300155Z AUTO 03009KT 10SM CLR 25/06 A3008 RMK AO1
KMRH 300158Z AUTO 06003KT 10SM CLR 26/24 A3015 RMK AO2 SLP209 T02560239 TSNO
KMRJ 300155Z AUTO 14004KT 10SM SCT020 SCT026 SCT033 23/21 A2982 RMK AO2 P0006
KMRN 300155Z AUTO 05003KT 10SM CLR 24/21 A3021 RMK AO2 T02350212
KMRT 300154Z AUTO 00000KT 10SM CLR 22/16 A3006 RMK AO2 T02230156
KMRY 300154Z 27004KT 10SM CLR 17/15 A2991 RMK AO2 SLP141 T01720150
KMSL 300153Z AUTO 00000KT 10SM CLR 23/19 A3002 RMK AO2 SLP157 T02330189
KMSN 300153Z 17011KT 10SM FEW150 SCT220 BKN250 26/21 A2983 RMK AO2 SLP095 T02610211
KMSO 300153Z 31007KT 10SM CLR 26/02 A2981 RMK AO2 SLP077 T02610022
KMSP 300153Z VRB06KT 8SM FEW013 SCT060 BKN110 OVC140 21/21 A2976 RMK AO2 LTG DSNT E RAE0057 SLP073 P0000 T02110206
KMSS 300153Z AUTO 00000KT 10SM CLR 16/15 A3016 RMK AO2 SLP215 T01560150
KMSV 300155Z AUTO 11003KT 10SM CLR 15/12 A3025 RMK AO1
KMSY 300153Z 17009KT 10SM SCT012 BKN130 OVC250 26/24 A2997 RMK AO2 PRESRR SLP151 T02610239
KMTC 300158Z AUTO 14007KT 10SM CLR 20/15 A3005 RMK AO2 SLP177 T02020153 $
KMTH 300153Z AUTO 09007G14KT 10SM CLR 30/25 A3005 RMK AO2 SLP176 T03000250
KMTJ 300153Z AUTO 00000KT 10SM CLR 22/10 A3015 RMK AO2 SLP142 T02220100
KMTN 300145Z 11010KT 10SM SCT200 22/16 A3012 RMK LAST
KMTO 300153Z AUTO 16005KT 10SM CLR 24/19 A2992 RMK AO2 SLP127 T02440194
KMTP 300154Z AUTO 00000KT 18/14 A3028 RMK AO1 SLP254 T01780139
KMTV 300155Z AUTO 00000KT 7SM OVC031 22/22 A3022 RMK AO2 T02220220
KMTW 300156Z AUTO 18014G19KT 7SM BKN110 22/21 A2985 RMK AO2 SLP122 T02170206
KMUI 300158Z AUTO 03001KT 10SM CLR 15/15 A3021 RMK AO2 SLP232 T01480146 $
KMUO 300158Z AUTO 13007G21KT 100V160 9SM -RA FEW043 BKN120 BKN140 29/08 A2981 RMK AO2 RAB0136DZB0125E0136 SLP071 P0000 T02870078
KMUT 300155Z AUTO 16007G12KT 10SM BKN075 OVC090 24/21 A2981 RMK AO2
KMVE 300154Z AUTO 04005KT 10SM SCT022 SCT030 BKN040 21/21 A2980 RMK AO2
KMVL 300154Z AUTO 00000KT 10SM CLR 13/12 A3022 RMK AO2 SLP234 T01330117
KMVN 300155Z AUTO 17004KT 10SM OVC110 26/19 A2995 RMK AO1
KMVY 300153Z 13004KT 10SM CLR 14/12 A3027 RMK AO2 SLP250 T01390122
KMWA 300155Z AUTO 17006KT 10SM SCT110 27/20 A2995 RMK AO2
KMWC 300045Z 15008KT 10SM SKC 24/20 A2987
KMWH 300152Z 32013KT 10SM CLR 24/06 A2982 RMK AO2 SLP093 T02390056
KMWK 300155Z AUTO 05003KT 10SM CLR 24/21 A3021 RMK AO2 T02350210
KMWL 300153Z AUTO 05005KT 10SM CLR 27/21 A2989 RMK AO2 SLP107 T02720211
KMWM 300153Z AUTO 00000KT 10SM CLR 19/18 A2978 RMK AO2
KMWN 300158Z 20011KT 1/16SM FG BKN000 BKN180 07/07 RMK FG BKN000 BKN000 V SCT
KMWO 300155Z AUTO 00000KT 10SM CLR 24/21 A3004 RMK AO2 T02360205
KMWS 300145Z 05501G01KT 27/02 RMK SNOW DEPTH M
KMWT 300153Z AUTO 00000KT 10SM FEW070 24/22 A2993 RMK AO2 SLP122 T02390222
KMXF 300158Z AUTO 06002KT 10SM SCT075 BKN090 29/21 A3002 RMK AO2 SLP167 T02900213
KMXO 300155Z AUTO 00000KT 10SM CLR 21/20 A2979 RMK AO2
KMYF 300153Z 29006KT 10SM CLR 23/17 A2982 RMK AO2 SLP094 T02280172
KMYL 300151Z AUTO 16004KT 10SM FEW110 22/04 A2993 RMK AO2 SLP100 T02170044
KMYP 300140Z AUTO 04016KT 10SM BKN050 BKN060 OVC095 06/00 A3066 RMK AO2 LTG DSNT NW
KMYR 300150Z 15008KT 10SM CLR 27/23 A3013
KMYV 300153Z AUTO 15004KT 10SM CLR 29/16 A2980 RMK AO2 SLP093 T02890161
KMYZ 300155Z AUTO 00000KT 10SM CLR 23/20 A2982 RMK AO2
KMZG 300155Z AUTO 10010KT 10SM BKN120 28/25 A2984 RMK A01
KMZH 300154Z AUTO 03003KT 10SM SCT019 OVC026 18/17 A2977 RMK AO2
KMZZ 300155Z AUTO 14006KT 10SM CLR 24/20 A3000 RMK AO2 T02350195
KN03 300155Z AUTO 00000KT 10SM CLR 13/13 A3021 RMK AO2
KN38 300155Z AUTO 16007KT 10SM CLR 15/11 A3022 RMK AO2
KN60 300152Z AUTO 05003KT 16/12 A2996 RMK AO1 SLP146 T01560117
KNAK 300154Z AUTO 12013KT 10SM CLR 23/17 A3020 RMK AO2 SLP229 T02280167
KNBC 300156Z AUTO 00000KT 10SM CLR 26/22 A3011 RMK AO2 SLP198 T02610222
KNBG 300155Z 15012KT 7SM -RA FEW015 BKN100 OVC250 25/22 A2996 RMK AO2 RAB54 SLP146 P0000 T02500217 $
KNBT 300156Z AUTO 00000KT 8SM CLR 27/25 A3015 RMK AO2 SLP213 T02670250 PNO
KNCA 300156Z AUTO 09006KT 10SM CLR 26/23 A3015 RMK AO2 SLP211 T02560228
KNDZ 300156Z COR 13004KT 7SM SCT010 SCT080 OVC130 25/23 A3005 RMK AO2 SLP160 T1 SET T02500228 $
KNEW 300153Z AUTO 15012KT 10SM BKN110 26/21 A2997 RMK AO2 SLP142 T02560211 TSNO
KNFE 300156Z AUTO 00000KT 10SM FEW037 BKN046 23/18 A3020 RMK AO2 SLP227 T02280178
KNFG 300154Z AUTO 21006KT 5SM HZ CLR 22/18 A2981 RMK AO2 SLP092 T02220178
KNFL 300156Z COR 28009KT 10SM BKN120 BKN220 31/M03 A2994 RMK AO2 SLP111 T03061033
KNFW 300152Z 19005KT 10SM FEW050 BKN150 BKN250 31/19 A2993 RMK AO2 SLP117 T03060189 VISNO N $
KNGP 300156Z AUTO 11008KT 10SM FEW120 28/25 A2982 RMK AO2 SLP098 T02830250
KNGU 300159Z 11005KT 10SM SCT050 SCT250 22/16 A3021 RMK AO2 SLP231 T02220161 $
KNHK 300152Z 13011KT 10SM SCT028 BKN250 23/17 A3020 RMK AO2 SLP227 T02280172 $
KNID 300156Z AUTO 21012KT 10SM CLR 37/01 A2979 RMK AO2 SLP066 T03720006 $
KNIP 300153Z 15005KT 10SM FEW020 FEW035 SCT250 30/24 A3009 RMK AO2 SLP183 T03000239 $
KNJK 300156Z AUTO 08004KT 10SM CLR 41/08 A2961 RMK AO2 SLP043 T04060083 $
KNKT 300154Z 08004KT 10SM CLR 25/23 A3016 RMK AO2 SLP210 T02500228
KNKX 300155Z 29008KT 10SM FEW012 22/17 A2982 RMK AO2 SLP092 T02170167
KNLC 300156Z AUTO 01009KT 10SM CLR 34/06 A2979 RMK AO2 SLP086 T03390056
KNMM 300156Z AUTO 00000KT 10SM CLR 28/21 A2999 RMK AO2 SLP161 T02780206 PWINO $
KNOG 300156Z AUTO 13007KT 10SM CLR 28/23 A2985 RMK AO2 SLP087 T02830233 $
KNPA 300156Z 20008KT 10SM FEW060 BKN100 OVC250 27/25 A3002 RMK AO2 SLP167 T2 SET T02670250
KNQA 300150Z 00000KT 10SM SCT150 BKN250 28/22 A2996
KNQI 300156Z 12005KT 10SM BKN110 27/25 A2982 RMK AO2 SLP095 T02720250 $
KNQX 300153Z 11013KT 10SM FEW025 30/25 A3005 RMK AO2 SLP173 T03000250 $
KNRB 300152Z AUTO 14008KT 10SM CLR 27/23 A3009 RMK AO2 SLP189 T02670233 $
KNRS 300156Z AUTO 29009KT 10SM CLR 22/18 A2983 RMK AO2 SLP099 T02170183
KNSE 300156Z 13005KT 10SM FEW030 SCT070 BKN100 OVC250 25/23 A3005 RMK AO2 SLP159 T2 SET T02500233 $
KNSI 300157Z AUTO 29019KT 8SM BKN003 A2984 RMK AO2 PK WND 29028/0109 SLPNO $
KNTD 300156Z 29008KT 10SM FEW015 FEW250 22/17 A2982 RMK AO2 SLP098 T02170167 $
KNTU 300156Z 12005KT 10SM SCT039 21/17 A3019 RMK AO2 SLP225 T02110172
KNUC 292256Z 28015KT 10SM OVC011 21/16 A2987 RMK SLP115 LAST T02110161
KNUI 300153Z AUTO 10005KT 10SM CLR 22/16 A3020 RMK AO2 SLP226 T02170161
KNUQ 300156Z 33005KT 10SM CLR 21/15 A2990 RMK AO2 SLP128 T02060150
KNUW 300156Z 31003KT 10SM SCT040 BKN080 BKN120 BKN250 17/13 A2996 RMK AO2 SLP148 T01670128 $
KNXF 300156Z AUTO 18003KT 6SM HZ FEW009 22/18 A2980 RMK AO2 SLP176 T02220183 $
KNXP 300156Z AUTO 24011KT 10SM CLR 38/01 A2985 RMK AO2 SLP066 T03780006
KNY0 300155Z AUTO 10004KT 10SM CLR 16/11 A3021 RMK AO2 T01610110
KNYC 300151Z AUTO VRB03KT 10SM CLR 21/12 A3027 RMK AO2 SLP241 T02060117 $
KNYG 300156Z AUTO 17005KT 10SM CLR 22/14 A3021 RMK AO2 SLP231 T02220144 $
KNYL 300157Z 26006KT 10SM CLR 42/03 A2964 RMK AO2 SLP033 T04170033
KNZY 300152Z 31009KT 10SM FEW012 22/18 A2981 RMK AO2 SLP094 T02220178 $
KO22 300155Z AUTO 00000KT 10SM CLR 29/08 A2992 RMK AO1
KO54 300155Z AUTO 25009G16KT 10SM CLR 29/M01 A2991 RMK AO1
KO86 300155Z AUTO 10SM CLR 31/00 A2987 RMK AO1
KOAJ 300155Z AUTO 07005KT 10SM FEW110 24/22 A3016 RMK AO1
KOAK 300153Z 28007KT 10SM FEW010 SCT080 BKN160 BKN200 19/14 A2990 RMK AO2 SLP123 T01940144 $
KOBE 300155Z AUTO 23/22 RMK AO2 LTG DSNT N AND NE
KOCF 300155Z AUTO 00000KT 9SM SCT018 BKN025 OVC031 24/22 A3009 RMK AO1 TSE0056
KOCH 300155Z AUTO 21003KT 10SM CLR 26/22 A2993 RMK AO1
KOCQ 300155Z AUTO 17006KT 7SM CLR 22/22 A2981 RMK AO1 T02230218
KOCW 300155Z AUTO 06004KT 10SM SCT090 23/20 A3018 RMK AO2 P0011 T02270200
KODO 300153Z AUTO 11009KT 10SM CLR 29/17 A2996 RMK AO2 SLP095 T02940167
KODX 300153Z AUTO 29005KT 10SM -RA FEW070 SCT090 BKN120 21/15 A2989 RMK AO2 LTG DSNT S AND SW RAB37 PRESRR SLP115 P0000 T02060150
KOEB 300155Z AUTO 14005KT 10SM CLR 24/19 A2999 RMK AO2 T02420194
KOEO 300155Z AUTO 00000KT 10SM -RA OVC023 20/20 A2980 RMK AO2 P0001 T02030203
KOFF 300158Z AUTO 28002KT 10SM FEW100 21/21 A2979 RMK AO2 SLP085 T02120212
KOFK 300156Z AUTO 29005KT 10SM CLR 21/19 A2983 RMK AO2 SLP093 T02060189
KOFP 300154Z AUTO 09003KT 10SM FEW050 22/16 A3021 RMK AO2 SLP228 T02220156
KOGA 300155Z AUTO 02008KT 10SM CLR 19/13 A3000 RMK AO2 T01940131
KOGB 300153Z AUTO 18005KT 10SM FEW075 BKN090 27/19 A3012 RMK AO2 SLP195 T02670194
KOGD 300153Z 17005KT 10SM CLR 27/06 A2996 RMK AO2 SLP090 T02720061
KOJA 300155Z AUTO 20007KT 10SM CLR A2990 RMK AO2
KOJC 300153Z 27007KT 190V320 10SM VCTS BKN060 BKN075 26/18 A2984 RMK AO2 LTG DSNT N AND NE SLP092 T02560178
KOKB 300152Z AUTO 21004KT 9SM CLR 23/18 A2980 RMK AO2 SLP091 T02280183
KOKC 300152Z 18005KT 10SM FEW075 SCT250 24/19 A2989 RMK AO2 SLP110 T02390189 $
KOKK 300155Z AUTO 12006KT 10SM FEW070 24/21 A2998 RMK AO1 LTG DSNT NW
KOKM 300155Z AUTO 15003KT 10SM CLR 25/22 A2988 RMK AO2 T02500222
KOKV 300155Z AUTO 00000KT 10SM CLR 17/15 A3020 RMK AO2
KOKZ 300155Z AUTO 12003KT 10SM CLR 28/17 A3009 RMK AO2 T02750172
KOLE 300155Z AUTO 00000KT 10SM CLR 15/13 A3018 RMK AO2
KOLF 300153Z AUTO 14003KT 10SM CLR 20/09 A2992 RMK AO2 SLP130 T02000094
KOLM 300154Z 27004KT 10SM FEW040 SCT060 21/12 A2996 RMK AO2 SLP144 T02110122
KOLS 300154Z AUTO 25003KT 10SM BKN100 29/11 A2996 RMK AO2 SLP080 T02890111
KOLU 300155Z AUTO 26005KT 10SM CLR 20/18 A2984 RMK AO1
KOLV 300155Z AUTO 00000KT 8SM CLR 27/22 A2996 RMK A01 P000
KOLY 300155Z AUTO 00000KT 10SM CLR 24/21 A2995 RMK AO2
KOLZ 300155Z AUTO 00000KT 6SM BR BKN065 OVC100 20/20 A2980 RMK AO2
KOMA 300152Z 00000KT 10SM FEW032 BKN110 BKN250 22/19 A2980 RMK AO2 SLP082 T02170194 $
KOMH 300155Z AUTO 00000KT 10SM OVC050 18/17 A3021 RMK AO2
KOMK 300153Z AUTO 34010KT 10SM CLR 23/08 A2979 RMK AO2 SLP083 T02330078
KOMN 292250Z 13004KT 7SM BKN040 23/22 A3006 RMK LAST
KONA 300156Z AUTO 22006KT 7SM VCTSRA SCT026 BKN045 OVC060 21/19 A2981 RMK AO2 P0001 LTG DSNT W THRU E
KONL 300155Z AUTO 03011KT 10SM VCTS SCT047 BKN055 OVC120 20/18 A2991 RMK AO2 LTG DSNT N THRU SE T02030181
KONM 300155Z AUTO 22004KT 10SM CLR 25/10 A3004 RMK AO2 T02470099
KONO 300153Z AUTO 00000KT 10SM CLR 28/12 A2976 RMK AO2 SLP062 T02780117
KONP 300155Z AUTO 00000KT 1/2SM FG OVC003 15/15 A3001 RMK AO2
KONT 300153Z 26009KT 10SM CLR 31/10 A2980 RMK AO2 SLP071 T03110100
KONX 300150Z AUTO 08003KT 10SM OVC034 24/17 A3020 RMK AO2 T02400169
KONZ 300154Z AUTO 11005KT 10SM CLR 21/17 A3003 RMK AO2
KOOA 300155Z AUTO 19004KT 5SM BR SCT019 SCT038 SCT047 21/20 A2981 RMK AO2 P0001 T02050200
KOPF 300153Z AUTO 09007KT 10SM CLR 29/24 A3008 RMK AO2 SLP185 T02940244
KOPL 300155Z AUTO 14003KT 10SM CLR 25/23 A2995 RMK AO2 LTG DSNT SE T02460228
KOPM 300155Z AUTO 07012KT 10SM FEW020 28/24 A2981 RMK A01
KOPN 300155Z AUTO 12005KT 10SM CLR 28/17 A3009 RMK AO2
KOQT 300153Z AUTO 00000KT 10SM CLR 24/21 A3008 RMK AO2 SLP171 T02440206
KOQU 300150Z 15004KT 15SM FEW025 18/14 A3027
KORB 300152Z AUTO 00000KT 10SM OVC027 17/16 A2978 RMK AO2
KORC 300155Z AUTO 27003KT 5SM BR CLR 20/18 A2981 RMK AO2
KORD 300151Z 16013KT 10SM -TSRA SCT030CB SCT180 BKN220 BKN250 26/21 A2988 RMK AO2 RAB49 TSB49 SLP114 OCNL LTGIC VC S-SW TS VC S-SW MOV NE P0000 T02610206
KORE 300152Z AUTO 00000KT 10SM CLR 14/13 A3025 RMK AO2 SLP243 T01440133
KORF 300151Z AUTO 13004KT 10SM SCT042 23/16 A3020 RMK AO2 SLP225 T02280156 TSNO
KORG 300155Z AUTO 10003KT 10SM DZ BKN010 BKN014 OVC020 25/25 A2993 RMK AO2 P0002 T02470247
KORH 300154Z AUTO 19007KT 10SM CLR 16/12 A3028 RMK AO2 SLP251 T01610122
KORL 300153Z 15006KT 10SM FEW110 24/23 A3012 RMK AO2 SLP200 T02440228
KORS 300155Z AUTO 19009KT 10SM FEW050 BKN075 18/13 A2992 RMK AO2
KOSA 300155Z AUTO 16003KT 10SM CLR 24/23 A2992 RMK AO1 T02350225
KOSC 300154Z AUTO 17006KT 10SM CLR 20/13 A2998 RMK AO2 T01980141
KOSH 300153Z 18008KT 8SM CLR 24/22 A2982 RMK AO2 SLP087 T02390217
KOSU 300153Z 11006KT 10SM CLR 24/17 A3006 RMK AO2 SLP172 T02390167
KOTG 300155Z AUTO 31005KT 10SM SCT120 19/18 A2980 RMK AO1
KOTH 300155Z 33006KT 10SM CLR 18/16 A3001 RMK AO1
KOTM 300153Z AUTO 17005KT 6SM BR FEW008 21/21 A2980 RMK AO2 SLP086 T02110206
KOUN 300155Z AUTO 18005KT 10SM CLR 24/19 A2990 RMK AO2
KOVE 300153Z AUTO 20004KT 10SM CLR 31/12 A2981 RMK AO2 SLP095 T03110122
KOVL 300153Z AUTO 00000KT 10SM SCT039 BKN046 BKN050 19/17 A2978 RMK AO2
KOVS 300153Z AUTO 18006KT 10SM -RA FEW045 SCT080 BKN100 26/18 A2978 RMK AO2 LTG DSNT E RAB46 SLP082 P0000 T02560183
KOWA 300155Z AUTO 19003KT 7SM SCT070 BKN090 22/20 A2977 RMK AO2 LTG DSNT NE AND E
KOWD 300153Z 00000KT 10SM CLR 13/11 A3027 RMK AO2 SLP249 T01280106
KOWP 300155Z AUTO 19004KT 10SM CLR 28/19 A2988 RMK AO2 T02820188
KOXB 300153Z AUTO 11006KT 10SM CLR 22/16 A3021 RMK AO2 SLP231 T02170156 TSNO
KOXC 300155Z 18006KT 10SM CLR 16/12 A3028 RMK AO1
KOXI 300155Z AUTO 20018G29KT 2 1/2SM SCT019 SCT028 BKN060 24/20 A2998 RMK AO1 T02360204
KOXR 300151Z 28014KT 8SM CLR 19/16 A2980 RMK AO2 SLP091 T01940161
KOXV 300155Z AUTO 20006KT 10SM CLR 20/19 A2978 RMK AO2
KOZA 300155Z AUTO 16004KT 10SM TS CLR 26/18 A2996 RMK AO2 LTG DSNT SE
KOZR 300158Z AUTO 13005KT 10SM BKN080 27/23 A3007 RMK AO2 SLP182 T02660226 $
KOZW 300155Z AUTO 13008KT 10SM CLR 21/16 A3003 RMK AO2 T02050158
KP28 300156Z AUTO 12005KT 26/19 A2986 RMK AO1 SLP098 T02560189
KP53 300156Z AUTO 18007KT 21/19 A2981 RMK AO1 SLP095 T02060189
KP58 300151Z AUTO VRB04KT 21/13 A3000 RMK AO1 SLP154 T02060128
KP59 300151Z AUTO 25005KT 17/16 A2977 RMK AO1 SLP077 P0001 T01720161
KP60 300156Z AUTO 00000KT 12/07 A3021 RMK AO1 SLP173 T01220072
KP68 300153Z AUTO 23005KT 26/M01 A3005 RMK AO1 SLP095 T02611006
KP69 300152Z AUTO VRB03KT 23/12 A2975 RMK AO1 SLP063 T02280122
KP92 300153Z AUTO 00000KT 27/24 A2995 RMK AO1 SLP140 T02670244
KPAE 300153Z 36004KT 10SM FEW033 BKN070 BKN110 19/13 A2995 RMK AO2 SLP141 T01890128
KPAH 300153Z 00000KT 10SM CLR 27/20 A2995 RMK AO2 SLP137 T02670200
KPAM 300158Z AUTO 14006KT 10SM FEW110 27/25 A3007 RMK AO2 SLP186 T02700245 $
KPAN 300155Z AUTO 00000KT 10SM CLR 28/03 A3008 RMK AO2
KPAO 300147Z 34010KT 30SM BKN120 21/17 A2990
KPBF 300153Z AUTO 00000KT 10SM CLR 26/23 A2993 RMK AO2 RAE16 SLP132 P0000 T02560228
KPBG 300153Z AUTO 00000KT 10SM CLR 13/13 A3017 RMK AO2 SLP217 T01330128
KPBH 300155Z AUTO 00000KT 10SM BKN007 BKN046 BKN120 18/17 A2980 RMK AO2 LTG DSNT N S AND NW P0001 T01750173
KPBI 300153Z 10007KT 10SM SCT024 SCT250 29/24 A3008 RMK AO2 SLP185 T02940244
KPCM 300155Z AUTO 11010KT 10SM SCT034 25/22 A3012 RMK AO2
KPCW 300153Z AUTO 12005KT 10SM CLR 21/18 A3004 RMK AO2 T02050183 $
KPCZ 300155Z AUTO 16003KT 10SM CLR 25/22 A2982 RMK AO2 T02460215
KPDC 300155Z AUTO 26003KT 10SM CLR 24/18 A2978 RMK AO2 T02410181
KPDK 300153Z 00000KT 10SM CLR 26/16 A3008 RMK AO2 SLP168 T02560161
KPDT 300153Z 27017KT 10SM CLR 24/07 A2985 RMK AO2 SLP094 T02440072
KPDX 300153Z 36004KT 10SM FEW070 SCT190 BKN260 23/13 A2994 RMK AO2 SLP138 T02330128
KPEA 300155Z AUTO 16003KT 7SM CLR 20/20 A2981 RMK AO2 T02000196
KPEO 300153Z AUTO 00000KT 10SM CLR 17/12 A3016 RMK AO2 SLP212 T01720122
KPEQ 300155Z AUTO 06008KT 10SM CLR 31/13 A2989 RMK AO2 T03140130
KPEX 300154Z AUTO 00000KT 10SM RA BKN019 BKN027 19/19 A2979 RMK AO2 T01880189
KPEZ 300155Z AUTO 11005KT 10SM CLR 30/20 A2983 RMK AO2 T02970198
KPGA 300153Z AUTO 00000KT 10SM CLR 30/00 A3000 RMK AO2 SLP091 T03000000
KPGD 300153Z AUTO 04005KT 10SM 23/21 A3010 RMK AO2 SLP193 P0007 T02330211 $
KPGV 300150Z AUTO 08004KT 10SM CLR 23/20 A3018 RMK AO2
KPHD 300153Z AUTO 12004KT 10SM CLR 17/16 A3010 RMK AO2 SLP190 T01720156
KPHF 300154Z 10003KT 10SM FEW041 23/17 A3020 RMK AO2 SLP226 T02280167
KPHL 300154Z 15005KT 10SM FEW040 SCT250 20/14 A3023 RMK AO2 SLP237 T02000144
KPHN 300156Z AUTO 15004KT 10SM SCT120 18/14 A3005 RMK AO2
KPHP 300155Z AUTO 01007KT 10SM CLR 19/14 A2994 RMK AO2 SLP129 T01890139
KPHT 300155Z AUTO 16006KT 10SM CLR 23/18 A2999 RMK
KPHX 300151Z 22007KT 10SM CLR 39/04 A2970 RMK AO2 SLP034 T03940044
KPIA 300203Z 22008KT 7SM -RA FEW039 SCT055 BKN075 22/20 A2990 RMK AO2 LTG DSNT SE AND W P0002 T02220200
KPIB 300155Z AUTO 18003KT 8SM CLR 23/21 A3001 RMK AO1
KPIE 300153Z 10006KT 10SM CLR 28/24 A3007 RMK AO2 SLP182 T02780244
KPIH 300153Z 21009KT 9SM FEW110 26/06 A2995 RMK AO2 SLP101 T02560056
KPIL 300153Z AUTO 09009KT 9SM CLR 28/25 A2980 RMK AO2 SLP092 T02780250
KPIR 300153Z AUTO 36007KT 10SM CLR 19/15 A2990 RMK AO2 SLP118 T01890150
KPIT 300151Z 00000KT 10SM FEW250 20/13 A3012 RMK AO2 SLP204 T02000128
KPKB 300153Z 00000KT 10SM CLR 21/18 A3011 RMK AO2 SLP191 T02060183
KPKD 300153Z AUTO 00000KT 10SM CLR 19/18 A2980 RMK AO2 SLP089 T01890178 TSNO
KPKV 300155Z AUTO 11008KT 10SM CLR 27/24 A2984 RMK AO2 T02710239
KPLN 300154Z AUTO 00000KT 10SM SCT070 19/18 A2992 RMK AO2 LTG DSNT W SLP131 T01940178
KPMD 300153Z AUTO 26013KT 10SM CLR 33/M02 A2988 RMK AO2 SLP090 T03281022 TSNO
KPMP 300153Z AUTO 10006KT 10SM CLR 31/24 A3008 RMK AO2 SLP186 T03060239 $
KPMV 300155Z AUTO 21003KT 10SM OVC100 21/19 A2981 RMK AO2 LTG DSNT E T02100193
KPNA 300155Z AUTO 31005KT 10SM CLR 16/05 A3017 RMK AO2
KPNC 300153Z AUTO 07005KT 5SM RA BR SCT041 BKN050 OVC100 23/21 A2987 RMK AO2 SLP103 P0025 T02280206
KPNE 300154Z 00000KT 10SM CLR 20/13 A3025 RMK AO2 SLP242 T02000133
KPNM 300154Z AUTO 33003KT 7SM CLR 21/19 A2978 RMK AO2
KPNS 300153Z 08004KT 10SM SCT090 BKN110 24/23 A3003 RMK AO2 SLP169 T02440233
KPNT 300155Z AUTO 14003KT 4SM BR CLR 24/24 A2989 RMK AO2 LTG DSNT E
KPOB 300158Z AUTO 06005KT 10SM CLR 26/23 A3014 RMK AO2 SLP207 T02620233
KPOC 300147Z 26009KT 10SM CLR 28/15 A2984
KPOE 300155Z AUTO 11005KT 10SM SCT110 24/24 A2993 RMK AO2 SLP135 T02440239
KPOF 300200Z AUTO 20006KT 7SM VCTS -RA SCT024 SCT032 BKN060 23/20 A3000 RMK AO2 LTG DSNT ALQDS TSE0154 P0001 T02280200 $
KPOU 300153Z 00000KT 10SM CLR 18/13 A3022 RMK AO2 SLP231 T01830133
KPOV 300159Z AUTO 00000KT 10SM 17/16 A3011 RMK AO2 T01700155
KPPA 300155Z AUTO 12006KT 10SM CLR 24/11 A2999 RMK AO2 T02350112
KPPF 300152Z AUTO 17007KT 10SM CLR 26/19 A2987 RMK AO2 SLP106 T02610189
KPPO 300155Z AUTO 25011G14KT 10SM -TSRA SCT040 SCT050 SCT075 23/22 A2996 RMK AO2 LTG DSNT ALQS T02300219
KPPQ 300155Z AUTO 16003KT 7SM SCT060 SCT070 23/21 A2988 RMK AO2 P0001 T02300212
KPQI 300155Z AUTO 00000KT 10SM CLR 11/08 A3018 RMK AO1
KPQL 300153Z AUTO 12005KT 10SM CLR 26/24 A3000 RMK AO2 SLP160 T02560244 TSNO
KPQN 300154Z AUTO 00000KT 5SM BR SCT034 19/18 A2982 RMK AO2 LTG DSNT W
KPRB 300153Z AUTO 28014G22KT 10SM CLR 31/06 A2984 RMK AO2 SLP095 T03110061
KPRC 300153Z 16003KT 10SM CLR 27/06 A3006 RMK AO2 SLP105 T02670061
KPRG 300155Z AUTO 14003KT 7SM CLR 22/21 A2995 RMK AO2 T02170210
KPRN 300156Z AUTO 17008KT 10SM FEW042 BKN060 OVC075 28/22 A3005 RMK AO2 SLP169 T02830217
KPRO 300155Z AUTO 25010KT 2SM RA SCT005 BKN015 OVC028 20/19 A2978 RMK AO2 P0019 T01980191
KPRS 300155Z AUTO 10SM CLR 34/11 A2987 RMK AO2 T03370114
KPRX 300155Z 15005KT 10SM CLR 26/18 A2990 RMK AO1
KPSC 300153Z 33016KT 10SM CLR 25/10 A2980 RMK AO2 SLP089 T02500100
KPSF 300154Z AUTO 00000KT 10SM CLR 14/12 A3024 RMK AO2 SLP223 T01390122
KPSK 300155Z AUTO 00000KT 10SM SCT110 21/20 A3024 RMK AO2 T02090199
KPSM 300158Z 20003KT 10SM FEW140 BKN250 14/12 A3025 RMK AO2A SLP247 T01430118
KPSN 300155Z AUTO 11005KT 10SM CLR 26/22 A2990 RMK AO2 T02600228
KPSO 300155Z AUTO 34003KT 10SM SCT100 20/01 A3024 RMK AO2 T01980006
KPSP 300153Z 32016G20KT 10SM CLR 41/06 A2967 RMK AO2 SLP042 T04110056
KPSX 300053Z AUTO 11008KT 10SM CLR 28/23 A2984 RMK AO2 SLP104 T02780233
KPTB 300155Z AUTO 00000KT 10SM OVC032 23/17 A3020 RMK AO2 T02310173
KPTK 300153Z 12009KT 10SM FEW150 SCT250 21/12 A3003 RMK AO2 SLP165 T02110117
KPTN 300155Z AUTO 15003KT 24/23 A2998 RMK AO1
KPTS 300155Z AUTO 21006KT 10SM CLR 27/20 A2987 RMK AO2 T02730196
KPTT 300155Z AUTO 20003KT 10SM CLR 24/13 A2990 RMK AO2
KPTV 300155Z AUTO 33006KT 10SM CLR 35/09 A2981 RMK AO1
KPTW 300154Z AUTO 00000KT 10SM CLR 18/12 A3024 RMK AO2 SLP236 T01830122
KPUB 300153Z 06022G29KT 10SM -RA SCT050 SCT070 BKN085 20/09 A3012 RMK AO2 PK WND 04034/0141 RAB33 SLP152 P0000 T02000094
KPUC 300153Z AUTO 04011KT 10SM CLR 22/04 A3013 RMK AO2 SLP138 T02220039
KPUJ 300155Z AUTO 00000KT 10SM CLR 25/18 A3009 RMK AO2
KPUW 300153Z AUTO 30006KT 10SM CLR 23/04 A2987 RMK AO2 SLP105 T02330039
KPVB 300155Z AUTO 09005KT 10SM SCT042 SCT048 SCT060 22/21 A2981 RMK AO1 T02230210
KPVC 300155Z 12003KT 10SM CLR 14/11 A3027 RMK AO1 P0002
KPVD 300151Z 12004KT 10SM FEW010 SCT250 17/12 A3027 RMK AO2 SLP250 T01670122
KPVE 300155Z AUTO 00000KT 10SM CLR 23/19 A2999 RMK
KPVF 300155Z AUTO 00000KT 10SM CLR 27/09 A2998 RMK AO1
KPVJ 300155Z AUTO 00000KT 10SM CLR 25/20 A2990 RMK AO2 T02480195
KPVU 300159Z 00000KT 15SM FEW070 SCT150 25/11 A3001
KPVW 300155Z AUTO 14007KT 10SM CLR 24/17 A2999 RMK AO2 T02420172
KPWA 300153Z 19009KT 10SM CLR 26/19 A2989 RMK AO2 SLP107 T02560189
KPWC 300153Z AUTO 00000KT 7SM SCT024 BKN029 BKN035 19/19 A2983 RMK AO2
KPWG 300155Z AUTO 15005KT 10SM CLR 27/20 A2992 RMK AO1
KPWK 300152Z 15008KT 10SM CLR 27/22 A2989 RMK AO2 LTG DSNT S SLP117 T02670217
KPWM 300151Z 23003KT 10SM CLR 14/09 A3026 RMK AO2 SLP246 T01390094
KPWT 300155Z AUTO 20010KT 10SM FEW090 21/13 A2997 RMK AO1
KPYM 300152Z AUTO 00000KT 10SM CLR 13/10 A3028 RMK AO2 SLP252 T01280100
KPYX 300155Z AUTO 09005KT 10SM CLR 22/15 A2996 RMK AO2 T02240153
KPZQ 300156Z AUTO 18015G20KT 10SM CLR 20/18 A2993 RMK AO2
KQA4 300155Z 09002KT 9999 FEW150 20/M05 A2987 RMK SLP049 WND DATA ESTMD ALSTG/SLP ESTMD Q1011
KQAR 300155Z AUTO 15002KT 8000 CLR 21/M04 A2992 RMK AO2 SLP075 T02131044
KQAY 300155Z AUTO 00000KT 2000 BR BKN004 BKN006 30/28 A2963 RMK AO2 SLP031 T02970276 $
KQBF 300123Z AUTO VRB02KT 9999 CLR 29/23 A2988 RMK AO2 SLP098
KQBL 300156Z AUTO VRB03KT 10SM CLR 28/25 A3006 RMK AO2 LTG DSNT NE SLP186 T02820247
KQCC 300155Z AUTO VRB02KT 10SM BKN150 25/15 A2993 RMK AO2 SLP088 T02500153
KQCL 300155Z AUTO 00000KT 9999 CLR 22/14 RMK AO2 SLPNO T02210136 $
KQEA 300055Z AUTO 23006KT 9999 CLR 30/21 A2987 RMK AO2 SLP112 T02990211
KQEI 300200Z AUTO 31008KT 9999 CLR 24/14 A3006 RMK A02 TSNO
KQEL 300200Z AUTO 22003KT 9999 FEW030 25/16 A3007 RMK A02 TSNO
KQEN 300200Z AUTO 10007KT 9999 BKN017 17/12 A3010 RMK A02 TSNO
KQEP 300200Z AUTO 9999 CLR / / RMK A02 TSNO
KQEQ 300200Z AUTO 30003KT 9999 CLR 25/17 A2987 RMK A02 TSNO
KQER 300200Z AUTO 02003KT / /CLR 23/14 A3001 RMK A02 TSNO
KQES 300200Z AUTO 08003KT 9999 CLR 26/18 A3003 RMK A02 TSNO
KQEV 300200Z AUTO 13004KT 9999 CLR 25/15 A3001 RMK A02 TSNO
KQEW 300200Z AUTO 04002KT 9999 FEW029 SCT037 23/15 A3002 RMK A02 TSNO
KQEX 300200Z AUTO 32002KT 9999 CLR 24/15 A3005 RMK A02 TSNO
KQEY 300200Z AUTO 15004G10KT 9999 FEW032 24/14 A3003 RMK A02 TSNO
KQFB 300200Z AUTO 35006G10KT 9999 BKN033 25/15 A3006 RMK A02 TSNO
KQFG 300155Z AUTO 04003KT 9999 CLR 27/14 A2987 RMK AO2 SLP071 T02680136
KQFQ 300055Z AUTO 16005G12KT 10SM CLR 26/18 A2999 RMK AO2 SLP152 T02550176 $
KQFT 300200Z AUTO 32005KT 9999 CLR 25/15 A3000 RMK A02 TSNO
KQFU 300200Z AUTO 06001KT 2000 // CLR 26/14 A3002 RMK A02 TSNO
KQFV 300200Z AUTO 17006KT 9999 CLR 25/14 A3003 RMK A02 TSNO
KQFW 300200Z AUTO 02002KT 9999 CLR 24/13 A3003 RMK A02 TSNO
KQFX 300200Z AUTO 29003KT 9999 CLR 26/15 A3002 RMK A02 TSNO
KQGV 300155Z 12009KT 4000 BR CLR 29/27 A2964 RMK SLPNO QNH1004MB PA +725
KQGX 300058Z COR 06006KT 9999 FEW120 31/15 A2964 RMK AO2A SLPNO $ COR 0125
KQHY 300156Z AUTO 16005KT 10SM CLR 28/25 A3007 RMK AO2 LTG DSNT NE SLP189 T02830251
KQIR 300158Z AUTO 18007KT 9999 CLR 31/23 A2960 RMK AO2 SLP024 T03130233 $
KQL5 300155Z 24002KT 5000 HZ CLR 24/18 A2983 RMK SLP067 T02420177
KQLQ 300055Z 00000KT 9999 SCT120 14/05 A3021 RMK AO2A SLP153 WND DATA ESTMD ALTSG/SLP DATA ESTMD T01400047 402650125
KQND 300155Z AUTO VRB02KT 10SM BKN160 24/20 A2974 RMK AO2 SLP052 T02390202 $
KQQY 300155Z AUTO 25001KT 9999 FEW170 24/21 A3004 RMK AO2 SLP157 T02400209 $
KQRH 292355Z AUTO 15002KT 9999 FEW100 SCT190 33/27 A2965 RMK AO2 SLP038 T03290268 10357 20334 404050328 56003
KQSA 300158Z 22003KT 9000 HZ FEW180 18/11 A3000 RMK AO2A SLP068 T01760109 $
KQSN 300155Z 12002KT 9999 CLR 19/09 A3013 RMK AO2A SLP101 WND DATA ESTMD ALSTG/SLP ESTMD T01870086 $
KQTH 300155Z AUTO 16008KT 060V170 9999 CLR 23/19 A2979 RMK AO2 SLP063 T02270192 $
KQTZ 300155Z 03005KT 9999 CLR 30/06 A2961 RMK SLP025 WND DATA ESTMD ALSTG/SLP ESTMD
KQUD 300132Z AUTO 00000KT 7SM CLR 19/17 A3019 RMK AO2 LTG DSNT SE SLP181
KQVF 300155Z AUTO 00000KT 9999 FEW018 SCT031 BKN046 24/22 A2999 RMK AO2 SLP155 T02420219
KQWM 300155Z 17008KT 3600 BR CLR 30/26 A2964 RMK SLP026 QNH1003
KRAC 300153Z AUTO 18012G20KT 8SM CLR 24/22 A2989 RMK AO2 SLP117 T02390217
KRAL 300153Z 26008KT 10SM CLR 31/08 A2980 RMK AO2 SLP073 T03060083
KRAP 300152Z 04005KT 10SM CLR 17/12 A3000 RMK AO2 SLP139 T01720117
KRAS 300155Z AUTO 12007KT 10SM CLR 28/24 A2983 RMK AO2 T02750235
KRBD 300153Z VRB03KT 10SM CLR 28/21 A2988 RMK AO2 SLP109 T02830211
KRBG 300153Z AUTO 31008KT 10SM CLR 26/07 A2994 RMK AO2 SLP134 T02610072
KRBL 300154Z AUTO 20009KT 10SM CLR 32/08 A2979 RMK AO2 SLP085 T03170083
KRBO 300155Z AUTO 12005KT 10SM SCT100 28/23 A2983 RMK AO2 T02820233
KRBW 300155Z AUTO 11003KT 10SM BKN075 26/20 A3013 RMK AO2
KRCA 300158Z AUTO 06005KT 10SM CLR 21/12 A3000 RMK AO2 SLP141 T02070117 $
KRCE 300155Z AUTO 17007KT CLR 24/20 A2991 RMK AO2
KRCM 300135Z AUTO 15004KT 10SM CLR 23/20 A2983 RMK AO2 LTG DSNT NW
KRCR 300155Z AUTO 13007KT 10SM VCTS CLR 26/22 A2997 RMK AO2 LTG DSNT SW THRU NW
KRCX 300155Z AUTO 01004KT 10SM RA SCT004 BKN017 OVC060 19/18 A2983 RMK AO2 LTG DSNT NE AND S P0001 T01900183
KRCZ 300155Z AUTO 08005KT 10SM SCT050 BKN055 27/23 A3013 RMK AO2 T02700225
KRDD 300153Z 19009KT 10SM CLR 32/08 A2978 RMK AO2 SLP079 T03220078
KRDG 300154Z AUTO 00000KT 10SM CLR 18/14 A3020 RMK AO2 SLP231 T01830139
KRDK 300155Z AUTO 18003KT 10SM FEW090 BKN120 OVC140 21/20 A2980 RMK AO2 PWINO
KRDM 300156Z 31015G21KT 10SM FEW100 22/05 A2995 RMK AO2 SLP125 T02220050
KRDR 300201Z AUTO 36012KT 300V020 10SM FEW011 OVC038 16/16 A2990 RMK AO2
KRDU 300151Z 08004KT 10SM FEW035 SCT250 24/21 A3017 RMK AO2 SLP210 T02390211
KREO 300152Z AUTO 36011KT 29/03 A2986 RMK AO1 WSHFT 0115 SLP072 T02890028
KRFD 300154Z COR 16012KT 10SM FEW043 FEW100 OVC140 22/18 A2987 RMK AO2 PK WND 17037/0119 RAB19E40 TSB01E52 SLP110 FRQ LTGICCC DSNT E-SE CB DSNT E-SE P0002 T02220183 $
KRFI 300155Z AUTO 10SM SCT050 SCT055 BKN120 25/19 A2994 RMK AO2 T02510189
KRGK 300155Z AUTO 13006KT 10SM -RA BKN021 22/20 A2976 RMK AO2 P0001 LTG DSNT N SE AND S
KRHI 300203Z AUTO 16003KT 9SM -RA BKN100 BKN120 18/17 A2984 RMK AO2 LTG DSNT NE AND E P0001 T01780172
KRHP 300155Z AUTO 00000KT 10SM SCT085 19/19 A3014 RMK AO2 T01940185
KRHV 300147Z 28008KT 10SM BKN100 25/16 A2991
KRIC 300154Z 12007KT 10SM OVC044 23/16 A3020 RMK AO2 SLP228 T02280161
KRIL 300153Z AUTO 00000KT 10SM CLR 23/09 A3011 RMK AO2 SLP139 T02330089
KRIV 300158Z AUTO 29009KT 10SM CLR 31/06 A2984 RMK AO2 SLP091 T03140058
KRIW 300153Z AUTO 07004KT 10SM CLR 22/05 A3001 RMK AO2 SLP102 T02220050
KRKD 300155Z AUTO 27003KT 10SM CLR 10/07 A3024 RMK AO1
KRKP 300153Z AUTO 11008KT 10SM CLR 28/24 A2983 RMK AO2 SLP103 T02830239
KRKR 300155Z AUTO 00000KT 10SM CLR A2990 RMK AO2
KRKS 300154Z AUTO 23018KT 10SM FEW110 19/04 A3016 RMK AO2 SLP142 T01940039
KRME 300153Z AUTO 12004KT 10SM CLR 16/13 A3019 RMK AO2 SLP222 T01610133
KRMG 300153Z AUTO 02003KT 10SM CLR 24/18 A3004 RMK AO2 SLP163 T02440178
KRMN 300155Z AUTO 00000KT 10SM CLR 19/18 A3025 RMK AO2 T01860177
KRMY 300153Z AUTO 14005KT 10SM CLR 23/19 A2999 RMK AO2 T02260186
KRNC 300155Z AUTO 00000KT 10SM CLR 22/21 A3006 RMK
KRND 300158Z AUTO 12007KT 10SM CLR 30/19 A2985 RMK AO2 SLP099 T02960192
KRNH 300150Z AUTO 00000KT 10SM -RA OVC010 19/19 A2979 RMK AO2 P0001 T01910186
KRNM 300153Z 29006KT 10SM CLR 26/16 A2984 RMK AO2 SLP091 T02610156
KRNO 300155Z 29014KT 10SM SCT160 BKN190 BKN250 28/M01 A3001 RMK AO2 SLP109 ACSL ALQDS T02831006
KRNP 300154Z AUTO 14007KT 10SM SCT110 22/17 A3000 RMK AO2 T02150165
KRNT 300153Z 16009KT 10SM FEW047 FEW100 22/14 A2993 RMK AO2 SLP140 T02220139
KRNV 300155Z AUTO 00000KT 10SM CLR 27/24 A2994 RMK AO2 T02700239
KROA 300154Z 13006KT 10SM OVC031 24/19 A3021 RMK AO2 SLP220 T02390189
KROC 300154Z 13005KT 10SM CLR 18/13 A3013 RMK AO2 SLP204 T01830128
KROG 300157Z AUTO 15007KT 10SM CLR 24/19 A2995 RMK AO2 SLP129 T02390189
KROS 300155Z AUTO 00000KT 10SM SCT023 BKN037 BKN100 20/19 A2977 RMK AO2 LTG DSNT S T02000188
KROW 300151Z 17003KT 10SM CLR 29/09 A2998 RMK AO2 SLP085 T02890089
KROX 300154Z AUTO 35008KT 10SM SCT050 15/12 A2987 RMK AO2
KRPD 300155Z AUTO 05003KT 10SM -DZ SCT050 SCT070 BKN120 18/17 A2979 RMK AO2 LTG DSNT E THRU SW T01790170
KRPH 300155Z AUTO 00000KT 10SM OVC080 27/22 A2990 RMK AO2 T02650222
KRPJ 300155Z AUTO 14004KT 10SM CLR 21/19 A2987 RMK AO2 LTG DSNT NE AND E P0005 T02070187
KRQB 300154Z AUTO 15006KT 10SM BKN090 21/20 A2996 RMK AO2 T02110200
KRQE 300153Z AUTO 03008KT 10SM CLR 24/00 A3018 RMK AO2 SLP118 T02390000 TSNO $
KRQO 300155Z AUTO 17007KT 10SM CLR 23/18 A2990 RMK AO2
KRRL 300155Z AUTO 09004KT 7SM -RA BKN110 19/19 A2982 RMK AO2 LTG DSNT NE AND SE P0001 T01880188
KRRT 300154Z AUTO 34007KT 10SM BKN050 OVC060 16/13 A2987 RMK AO2
KRSL 300153Z AUTO 28003KT 10SM CLR 26/14 A2986 RMK AO2 SLP097 T02560144
KRSN 300155Z AUTO 17005KT 10SM CLR 27/23 A2997 RMK AO2 T02680233
KRST 300159Z 20007G17KT 2SM +RA BR FEW009 BKN033 OVC055 19/18 A2983 RMK AO2 TWR VIS 3 LTG DSNT N-E P0002 T01890178
KRSV 300155Z AUTO 18004KT 10SM CLR 24/23 A2995 RMK AO2 T02400226
KRSW 300153Z AUTO 04007KT 10SM CLR 24/21 A3008 RMK AO2 SLP182 T02440206
KRTN 300153Z AUTO 01008KT 10SM FEW110 21/02 A3016 RMK AO2 SLP141 T02110022
KRTS 300155Z AUTO 30013G19KT 10SM CLR 25/00 A3006 RMK AO2
KRUE 300153Z AUTO 13003KT 10SM SCT070 BKN085 23/22 A2995 RMK AO2 LTG DSNT SE AND S SLP135 T02330222
KRUG 300155Z AUTO 01003KT 10SM CLR 13/10 A2996 RMK AO2
KRUQ 300155Z AUTO 00000KT 10SM CLR 23/21 A3016 RMK AO2 T02300213
KRUT 300155Z 14005KT 10SM CLR 16/14 A3022 RMK AO1
KRVS 300153Z 18008KT 10SM FEW120 28/21 A2988 RMK AO2 SLP119 T02780211
KRWF 300153Z AUTO 00000KT 10SM BKN110 19/18 A2978 RMK AO2 RAE0055 SLP078 P0000 T01890183
KRWI 300153Z AUTO VRB03KT 10SM OVC027 24/20 A3017 RMK AO2 SLP215 T02390200
KRWL 300153Z AUTO 00000KT 10SM CLR 18/03 A3014 RMK AO2 SLP125 T01780033
KRWV 300155Z AUTO 00000KT 10SM CLR 23/23 A2992 RMK AO2
KRXE 300153Z AUTO 00000KT 10SM FEW100 23/06 A2997 RMK AO2 SLP112 T02280061
KRYN 300153Z 32006KT 10SM CLR 34/06 A2985
KRYT 300153Z AUTO 00000KT 10SM CLR A3022 RMK AO2 SLPNO $
KRYV 300155Z AUTO 17005KT 10SM CLR 24/22 A2984 RMK AO2 T02390221
KRYW 300155Z AUTO 09006KT 10SM CLR 26/21 A2993 RMK AO2 T02600206
KRYY 300147Z 00000KT 10SM SKC 26/16 A3009
KRZL 300155Z AUTO 10004KT 7SM VCTS SCT095 22/21 A2995 RMK AO2 LTG DSNT NE AND E
KRZN 300150Z AUTO 00000KT 10SM DZ SCT012 OVC017 20/19 A2978 RMK AO2 P0001 T01970192
KRZR 300155Z AUTO 00000KT 10SM CLR 22/18 A3007 RMK
KS25 300155Z AUTO 12004KT 10SM CLR 16/10 A2995 RMK AO2
KSAA 300155Z AUTO 24006KT 10SM BKN100 BKN120 18/07 A3019 RMK AO2
KSAC 300153Z AUTO 20008KT 10SM CLR 28/14 A2981 RMK AO2 SLP092 T02780144 TSNO
KSAD 300151Z AUTO 24004KT 10SM CLR 33/04 A2987 RMK AO2 SLP061 T03280044
KSAF 300153Z 15003KT 10SM CLR 22/02 A3015 RMK AO2 SLP120 T02220022
KSAN 300151Z 32009KT 10SM FEW012 23/17 A2983 RMK AO2 SLP100 T02280172 $
KSAR 300155Z AUTO 16008KT 10SM OVC100 26/20 A2993 RMK AO2 T02550201
KSAT 300151Z 11010KT 10SM SCT160 BKN250 31/19 A2985 RMK AO2 SLP087 T03060194
KSAV 300153Z 10004KT 10SM CLR 27/23 A3011 RMK AO2 SLP195 T02670228
KSAW 300145Z 19008KT 2 1/2SM -RA OVC003 19/19 A2982 RMK LTG DSNT SE AND SW
KSAZ 300153Z AUTO 00000KT 10SM SCT024 SCT029 BKN049 19/18 A2980 RMK AO2
KSBA 300153Z 13004KT 10SM CLR 21/16 A2978 RMK AO2 SLP085 T02060161
KSBD 300147Z 23009KT 10SM SKC 33/05 A2981
KSBM 300153Z AUTO 18012G20KT 7SM FEW120 23/21 A2986 RMK AO2 SLP106 T02280206
KSBN 300154Z 14009KT 10SM CLR 25/21 A2996 RMK AO2 LTG DSNT S-W SLP139 T02500211
KSBO 300155Z AUTO 15009KT 10SM CLR 30/23 A3010 RMK AO2
KSBP 300156Z 32007KT 10SM CLR 19/14 A2986 RMK AO2 SLP110 T01940144
KSBS 300154Z AUTO 00000KT 10SM CLR 17/10 A3020 RMK AO1 T01690100
KSBY 300154Z 00000KT 10SM CLR 19/16 A3021 RMK AO2 SLP232 T01890156
KSCD 300155Z AUTO 00000KT 10SM CLR 27/18 A3005 RMK AO2 T02710184
KSCF 300155Z AUTO 16020KT 8SM FEW044 SCT055 BKN065 27/25 A2996 RMK A01
KSCH 300150Z 00000KT 10SM CLR 17/14 A3021
KSCK 300155Z 29010KT 10SM CLR 31/14 A2981 RMK AO2 SLP095 T03110144
KSDA 300155Z AUTO 00000KT 10SM FEW095 BKN120 22/21 A2981 RMK AO2
KSDB 300148Z AUTO 35016KT 10SM CLR 26/04 A3006 RMK AO2 SLP120 T02610044
KSDF 300156Z 13005KT 10SM FEW130 SCT240 27/18 A3000 RMK AO2 SLP154 T02720183
KSDL 300153Z 24004KT 10SM CLR 38/05 A2975 RMK AO2 SLP044 T03830050
KSDM 300153Z 27008KT 10SM CLR 22/18 A2982 RMK AO2 SLP095 T02170178 $
KSDY 300155Z AUTO 00000KT 10SM CLR 17/11 A2996 RMK AO1
KSEA 300153Z 21010KT 10SM FEW035 SCT090 BKN250 21/12 A2995 RMK AO2 SLP146 T02110122 $
KSEE 300155Z AUTO 28009KT 10SM CLR 26/15 A2982 RMK AO2
KSEG 300153Z AUTO 00000KT 10SM CLR 13/12 A3021 RMK AO2 SLP228 T01330122
KSEM 300155Z AUTO 13005KT 10SM CLR 27/20 A3000 RMK AO2
KSEP 300155Z AUTO 02004KT 10SM SCT110 28/21 A2994 RMK AO2 T02770209
KSET 300154Z AUTO 00000KT 10SM SCT065 SCT080 24/22 A2988 RMK AO1 SLP112 T02390222
KSEZ 300155Z AUTO 28004KT 10SM CLR 28/05 A3005 RMK AO2
KSFB 300153Z 12007KT 10SM CLR 24/23 A3011 RMK AO2 SLP195 T02440228
KSFF 300153Z 27007KT 10SM CLR 26/04 A2981 RMK AO2 SLP082 T02560044
KSFM 300155Z AUTO 00000KT 10SM CLR 11/08 A3026 RMK AO1
KSFO 300156Z 29015KT 10SM FEW008 OVC180 19/16 A2989 RMK AO2 SLP121 T01890156 $
KSFQ 300155Z AUTO 00000KT 10SM OVC044 22/18 A3021 RMK AO2 T02200175
KSFY 300155Z AUTO 15009KT 10SM CLR 25/20 A2981 RMK AO2 T02530197
KSFZ 300155Z 00000KT 10SM CLR 13/09 A3027 RMK AO1
KSGF 300152Z 18011KT 10SM CLR 24/19 A2992 RMK AO2 SLP117 T02440194
KSGH 300156Z AUTO 13006KT 10SM FEW090 24/19 A3007 RMK AO2 T02380188 LTG DSNT SW AND W SLP173
KSGJ 300158Z AUTO 14005KT 10SM CLR 24/23 A3011 RMK AO2 SLP195 T02440228
KSGR 300203Z AUTO 10005KT 10SM BKN014 26/23 A2988 RMK AO2 T02560233
KSGS 300150Z AUTO 07003KT 10SM BKN060 BKN110 22/20 A2976 RMK AO2 LTG DSNT E AND SE T02150198
KSGT 300155Z AUTO 14003KT 10SM FEW090 26/23 A2995 RMK AO1
KSGU 300155Z AUTO 25006KT 10SM CLR 34/02 A2988 RMK AO1
KSHD 300155Z AUTO 00000KT 10SM CLR 21/15 A3023 RMK AO2 T02120153
KSHL 300155Z AUTO 27005KT 10SM BKN110 19/18 A2978 RMK AO2
KSHM 300156Z AUTO 33010KT 10SM BKN110 16/09 A3024 RMK AO2 LTG DSNT E SLP180 T01600087
KSHN 300153Z AUTO 24010KT 10SM CLR 21/12 A2993 RMK AO2 SLP134 T02060122 TSNO
KSHR 300153Z AUTO 00000KT 10SM CLR 21/11 A2996 RMK AO2 SLP119 T02110106
KSHV 300156Z 00000KT 10SM BKN045 OVC055 26/23 A2994 RMK AO2 TSE46RAE23 SLP134 TS MOV N OCNL LTG DSNT N-NE P0000 T02610228
KSIF 300155Z AUTO 00000KT 3SM BR SCT029 21/20 A3018 RMK AO2 T02060202
KSIY 300153Z AUTO 02009KT 10SM BKN080 BKN090 27/04 A2992 RMK AO2 SLP121 T02720044
KSJC 300153Z 30006KT 10SM FEW100 BKN140 BKN170 22/15 A2989 RMK AO2 SLP121 T02170150
KSJN 300154Z AUTO 20003KT 10SM CLR 25/04 A3010 RMK AO2 SLP108 T02500044
KSJS 300155Z AUTO 00000KT 7SM CLR 22/22 A3010 RMK AO2 T02220219
KSJT 300151Z 22005KT 10SM CLR 25/19 A2991 RMK AO2 SLP104 T02500194
KSJX 300155Z AUTO 17008G16KT 130V190 10SM OVC024 21/19 A2989 RMK AO2 T02120185
KSKA 300158Z AUTO 23010KT 10SM FEW130 23/08 A2983 RMK AO2 SLP094 T02320076
KSKF 300158Z AUTO 14013KT 10SM CLR 30/21 A2983 RMK AO2 SLP093 T03030207 $
KSLB 300155Z AUTO 00000KT 2SM +RA BKN029 BKN039 OVC075 19/19 A2979 RMK AO2 P0006
KSLC 300153Z 17004KT 10SM FEW100 FEW130 SCT160 BKN220 27/04 A2995 RMK AO2 SLP091 ACSL DSNT S-N T02670044
KSLE 300156Z 31006KT 10SM CLR 24/12 A2993 RMK AO2 SLP134 T02390117
KSLG 300155Z AUTO 17005KT 10SM 23/17 A2994 RMK AO1
KSLH 300157Z AUTO 18003KT 10SM CLR 20/17 A2991 RMK AO2 T01980173
KSLI 300158Z 28007KT 10SM CLR 26/18 A2979 RMK AO2A SLP091 T02610175
KSLK 300151Z AUTO 00000KT 10SM CLR 12/12 A3019 RMK AO2 SLP223 T01220117
KSLN 300153Z 22004KT 10SM CLR 26/15 A2984 RMK AO2 SLP092 T02610150
KSLO 300155Z AUTO 18008KT 10SM OVC100 28/21 A2993 RMK AO2 T02760210
KSLR 300155Z AUTO 13004KT 10SM CLR 27/21 A2991 RMK AO2 T02720210
KSME 300155Z AUTO 00000KT 10SM CLR 23/22 A3007 RMK AO2
KSMF 300153Z 17008KT 10SM BKN160 BKN250 31/12 A2979 RMK AO2 SLP086 T03060122
KSMN 300155Z AUTO 00000KT 10SM CLR 23/12 A2981 RMK AO1 LTG DSNT NW
KSMO 300151Z 19006KT 10SM CLR 23/16 A2980 RMK AO2 SLP090 T02330161
KSMP 292156Z AUTO 28008G15KT 250V310 10SM FEW022 FEW034 SCT075 13/07 A3004 RMK AO2 SLP159 T01280067 $
KSMQ 300153Z AUTO 00000KT 10SM CLR 18/12 A3022 RMK AO2 SLP234 T01780122 PWINO
KSMS 300155Z AUTO 15004KT 10SM CLR 26/22 A3013 RMK AO2
KSMX 300151Z 32007KT 8SM FEW010 SCT050 19/15 A2988 RMK AO2 SLP118 T01890150
KSNA 300153Z 21006KT 10SM FEW230 24/16 A2980 RMK AO2 SLP088 T02440161
KSNC 300155Z AUTO 17003KT 10SM CLR 16/12 A3028 RMK AO2
KSNH 300155Z AUTO 00000KT 10SM CLR 22/22 A3000 RMK
KSNK 300155Z AUTO 08004KT 10SM CLR 26/19 A2996 RMK AO2 T02570188
KSNL 300155Z AUTO 00000KT 10SM CLR 27/21 A2992 RMK AO2
KSNS 300153Z 29010KT 10SM CLR 19/15 A2990 RMK AO2 SLP133 T01890150
KSNT 300151Z AUTO 29006KT 22/M01 A3005 RMK AO1 SLP098 T02171006
KSNY 300153Z AUTO 06006KT 10SM CLR 19/11 A3007 RMK AO2 SLP141 T01940111
KSOA 300155Z AUTO 00000KT 10SM VCTS BKN110 25/21 A2998 RMK AO2 LTG DSNT W
KSOP 300155Z AUTO 08005KT 10SM SCT055 26/21 A3016 RMK AO1
KSOW 300155Z AUTO 29004KT 10SM CLR 22/02 A3019 RMK AO2
KSPA 300155Z AUTO 09005KT 10SM CLR 27/23 A3012 RMK AO2
KSPB 300153Z AUTO 36004KT 10SM CLR 23/13 A2994 RMK AO2 SLP137 T02280128
KSPD 300156Z AUTO 05005KT 21/08 A3004 RMK AO1 SLP117 T02110083
KSPF 300135Z AUTO 14003KT 10SM CLR 15/12 A3004 RMK AO2
KSPG 300153Z AUTO 13012KT 10SM CLR 28/23 A3006 RMK AO2 SLP180 T02830233
KSPI 300152Z 30004KT 10SM SCT055 SCT070 OVC095 23/21 A2990 RMK AO2 RAB22E48 SLP119 P0002 T02330211
KSPL 300155Z AUTO 09011KT 28/27 A2980 RMK AO1 LTG DSNT SE VSBY M1/4V3
KSPR 300155Z AUTO 14017KT 10SM SCT046 BKN055 BKN065 29/25 A2995 RMK A01
KSPS 300152Z 16008KT 10SM CLR 26/21 A2988 RMK AO2 SLP107 T02560206
KSPW 300153Z AUTO 16003KT 10SM SCT120 19/18 A2978 RMK AO2 RAE37 SLP078 P0001 T01940183
KSQI 300155Z 12006KT 10SM CLR 22/19 A2984 RMK AO1
KSQL 300153Z 02008KT 10SM SCT080 BKN180 21/16 A2990
KSRB 300155Z AUTO 00000KT 10SM CLR 21/20 A3006 RMK
KSRC 300156Z AUTO 10SM FEW041 23/22 A2998 RMK AO2 PWINO TSNO T02330222 SLP153 $
KSRQ 300153Z 08006KT 10SM CLR 26/22 A3006 RMK AO2 RAB15E39 SLP178 P0000 T02560222
KSRR 300155Z AUTO 13007KT 10SM CLR 18/08 A3024 RMK AO2
KSSC 300158Z AUTO 13004KT 10SM CLR 27/23 A3011 RMK AO2 SLP195 T02710231 $
KSSF 300153Z 15009KT 10SM CLR 30/21 A2982 RMK AO2 SLP086 T03000206 $
KSSI 300153Z AUTO 14009KT 10SM CLR 28/23 A3009 RMK AO2 SLP189 T02830233
KSTC 300153Z 00000KT 10SM FEW017 22/20 A2977 RMK AO2 SLP085 T02170200
KSTE 300155Z AUTO 16003KT 10SM SCT036 SCT049 SCT060 23/21 A2981 RMK AO2 T02300207
KSTF 300155Z AUTO 00000KT 10SM CLR 25/19 A2998 RMK AO2
KSTJ 300153Z AUTO 19011KT 10SM SCT055 BKN090 24/20 A2980 RMK AO2 LTG DSNT N SLP082 T02440200
KSTK 300150Z AUTO 28012G15KT 10SM CLR 21/12 A3004 RMK AO2
KSTL 300151Z 20008G17KT 10SM FEW075 BKN095 BKN150 29/19 A2990 RMK AO2 SLP110 T02890189
KSTP 300153Z 02003KT 10SM FEW014 SCT020 BKN060 21/20 A2976 RMK AO2 LTG DSNT E RAE07B32E42 SLP072 P0001 T02110200
KSTS 300153Z 16006KT 10SM BKN140 22/14 A2985 RMK AO2 SLP103 T02220139
KSUA 300155Z AUTO 00000KT 10SM CLR 27/25 A3011 RMK AO2
KSUE 300155Z AUTO 18014KT 7SM FEW007 BKN100 21/19 A2984 RMK AO1
KSUN 300147Z 21004KT 7SM HZ SCT120 25/04 A2999
KSUS 300154Z 22003KT 10SM BKN060 26/21 A2988 RMK AO2 SLP110 T02560206
KSUT 300155Z AUTO 00000KT 10SM CLR 25/21 A3014 RMK AO2 T02520210
KSUU 300158Z AUTO 24018KT 10SM CLR 25/14 A2979 RMK AO2 PK WND 25026/09 SLP094 T02450142 PWINO PNO $
KSUW 300155Z AUTO 00000KT 7SM OVC003 16/16 A2979 RMK AO2 T01630162
KSUX 300203Z AUTO 13004KT 10SM SCT011 SCT120 21/19 A2980 RMK AO2 T02110194 $
KSVC 300155Z AUTO 23004KT 10SM SCT110 28/03 A3009 RMK AO2
KSVH 300155Z AUTO 09004KT 10SM CLR 23/22 A3016 RMK AO2 T02300215
KSVN 300158Z AUTO 16002KT 10SM CLR 27/24 A3008 RMK AO2 SLP189 T02670235
KSWF 300145Z VRB03KT 10SM FEW080 19/14 A3025
KSWO 300153Z AUTO 17007KT 10SM FEW120 27/19 A2987 RMK AO2 SLP103 T02670194
KSWW 300155Z AUTO 07003KT 10SM CLR 23/21 A2999 RMK AO2 T02340212
KSXS 300156Z AUTO 17007KT 12SM SCT085 BKN110 27/23 A3008 RMK AO2 SLP184 T02700225
KSXT 300156Z AUTO VRB03KT 10SM CLR 18/08 A3003 RMK AO2 SLP127 T01830083
KSYF 300155Z AUTO 00000KT 10SM CLR 23/11 A2999 RMK AO2 T02250111
KSYI 300155Z AUTO 11004KT 10SM CLR 23/20 A3004 RMK
KSYM 300150Z AUTO 00000KT 10SM CLR 24/20 A3008 RMK AO2
KSYN 300151Z AUTO 00000KT 7SM SCT019 SCT023 BKN036 23/21 A2975 RMK AO2 LTG DSNT NE AND SE T02260206
KSYR 300154Z 10004KT 10SM FEW240 18/14 A3016 RMK AO2 SLP208 T01780144
KSZL 300158Z AUTO 18005KT 10SM CLR 23/21 A2984 RMK AO2 SLP100 T02310205
KSZT 300155Z AUTO 21006KT 10SM CLR 23/05 A2978 RMK AO2
KT20 300155Z AUTO 14008KT 10SM CLR 28/24 A2984 RMK AO2 T02820235
KT35 300155Z AUTO 00000KT 10SM CLR 24/22 A2989 RMK AO2 T02420223
KT65 292335Z AUTO 23004KT 3/4SM +TSRA OVC008 23/22 A2983 RMK AO2 LTG DSNT ALQS P0132 T02320215
KT82 300155Z AUTO 13004KT 10SM CLR 27/19 A2991 RMK AO2 T02740187
KTAD 300154Z AUTO 21005KT 10SM CLR 22/02 A3013 RMK AO2 SLP131 T02220022
KTAN 300152Z AUTO 00000KT 10SM CLR 11/10 A3027 RMK AO2 SLP249 T01060100
KTAZ 300155Z AUTO 16008KT 10SM BKN100 24/21 A2990 RMK AO2
KTBN 300158Z AUTO 17007KT 10SM OVC110 22/20 A2993 RMK AO2 SLP128 T02210200
KTBR 300155Z AUTO 14003KT 10SM CLR 26/22 A3010 RMK AO2 T02610220
KTBX 300155Z AUTO 11010KT 10SM CLR 18/02 A3022 RMK AO2
KTCC 300153Z AUTO 17005KT 10SM CLR 26/03 A3000 RMK AO2 SLP099 T02610033
KTCL 300153Z AUTO 00000KT 10SM CLR 26/19 A3000 RMK AO2 SLP155 T02610194
KTCM 300158Z AUTO 36010KT 10SM CLR 21/14 A2995 RMK AO2 SLP145 T02140135 $
KTCS 300153Z AUTO 04005KT 10SM CLR 27/06 A3003 RMK AO2 SLP084 T02720061 TSNO
KTDF 300155Z AUTO 00000KT 10SM OVC033 22/22 A3020 RMK AO2
KTDR 300056Z AUTO 18007KT 12SM CLR 27/25 A3002 RMK AO2 LTG DSNT W SLP169 T02700249
KTDZ 300153Z AUTO 10007KT 10SM CLR 21/17 A3003 RMK AO2 SLP167 T02060167 TSNO
KTEB 300151Z 16004KT 10SM CLR 21/12 A3023 RMK AO2 SLP236 T02060122
KTEW 300153Z AUTO 14007KT 10SM CLR 21/17 A3000 RMK AO2 T02100167
KTEX 300136Z AUTO 00000KT 10SM CLR 16/02 A3036 RMK AO2
KTFP 300155Z AUTO 11003KT 10SM CLR 28/23 A2983 RMK AO2 T02810233
KTHA 300155Z AUTO 00000KT 10SM CLR 22/18 A3007 RMK
KTHV 300153Z AUTO 00000KT 10SM CLR 16/12 A3020 RMK AO2 SLP228 T01560122
KTIF 300155Z 35005KT 10SM CLR 21/15 A2999 RMK AO2 T02080150 PWINO
KTIK 300158Z AUTO 20006KT 10SM CLR 25/19 A2990 RMK AO2 SLP121 T02490187 $
KTIP 300150Z AUTO 16006KT 10SM CLR 25/21 A2993 RMK AO2 T02450206
KTIW 300153Z 22008KT 10SM SCT024 SCT060 21/12 A2994 RMK AO2 SLP137 T02060122
KTIX 300050Z VRB04KT 7SM SCT030 BKN100 23/22 A3010 RMK LAST
KTKC 300152Z AUTO 00000KT 10SM CLR 20/19 A2979 RMK AO2 T01960188
KTKI 300153Z 00000KT 10SM CLR 27/21 A2988 RMK AO2 SLP115 T02670206
KTKV 300155Z AUTO 10005KT 3SM RA SCT038 BKN047 OVC055 18/17 A2981 RMK AO2 P0023 T01770171
KTLH 300153Z 18004KT 10SM SCT110 BKN250 27/24 A3007 RMK AO2 SLP182 T02670244
KTMA 300150Z AUTO 19004KT 10SM OVC090 28/23 A3009 RMK AO2 T02810225 TSNO
KTMB 300153Z 09006KT 10SM CLR 29/24 A3007 RMK AO2 SLP182 T02890244
KTME 300155Z AUTO 10005KT 10SM FEW042 25/23 A2990 RMK AO2
KTMK 300155Z AUTO 24005KT 10SM -DZ SCT025 SCT040 BKN050 17/16 A3000 RMK AO2
KTNB 300155Z AUTO 00000KT 7SM BKN018 BKN026 BKN032 21/20 A3028 RMK AO2 T02050201
KTNU 300155Z AUTO 17005KT 5SM BR FEW050 FEW060 SCT070 20/19 A2979 RMK AO2
KTOA 300151Z 29010KT 10SM SKC 23/17 A2981
KTOB 300154Z AUTO 16011KT 7SM -RA SCT011 BKN043 OVC090 22/21 A2980 RMK AO2 P0005
KTOC 300155Z AUTO 00000KT 10SM SCT090 27/21 A3011 RMK AO2 T02690209
KTOI 300153Z AUTO 20003KT 10SM BKN065 BKN080 OVC095 28/22 A3006 RMK AO2 SLP171 T02780222
KTOL 300152Z 11003KT 10SM CLR 22/17 A3002 RMK AO2 SLP161 T02220172
KTOP 300153Z AUTO 00000KT 10SM BKN065 OVC080 23/22 A2981 RMK AO2 RAE01 SLP087 P0000 T02280217
KTOR 300153Z AUTO 06006KT 10SM CLR 18/11 A3002 RMK AO2 SLP134 T01830106 $
KTPA 300153Z 09006KT 10SM FEW024 SCT180 OVC220 28/23 A3009 RMK AO2 RAB19E33 SLP188 FRQ LTGICCC DSNT E-SE CB DSNT E-SE P0000 T02780228
KTPH 300156Z AUTO 18005KT 10SM CLR 29/M06 A3004 RMK AO2 SLP095 T02941061
KTPL 300155Z AUTO 12006KT 10SM CLR 26/18 A2990 RMK AO1
KTQE 300203Z AUTO 00000KT 10SM BKN005 20/19 A2980 RMK AO2 T02000194
KTQH 300155Z AUTO 14004KT 10SM CLR 25/20 A2992 RMK AO2
KTRI 300153Z 00000KT 10SM FEW035 FEW060 SCT085 23/21 A3014 RMK AO2 SLP182 OCNL LTG DSNT NW T02280206 $
KTRK 300155Z AUTO 30003KT 10SM CLR 22/00 A3016 RMK AO2
KTRL 300153Z AUTO 00000KT 10SM CLR 28/24 A2988 RMK AO2 SLP112 T02780244
KTRM 300152Z AUTO 19004KT 10SM CLR 39/10 A2959 RMK AO2 SLP024 T03890100 TSNO
KTSP 300155Z AUTO 30015G18KT 10SM CLR 25/05 A3004 RMK AO2
KTTA 300155Z AUTO 04003KT 10SM CLR 24/23 A3015 RMK AO2 T02430232
KTTD 300153Z 33005KT 10SM CLR 24/12 A2993 RMK AO2 SLP134 T02390122
KTTF 300151Z AUTO 12006KT 10SM CLR 22/18 A3002 RMK AO2
KTTN 300153Z AUTO 18005KT 10SM CLR 19/13 A3023 RMK AO2 SLP231 T01890133
KTTS 300158Z AUTO 17005KT 10SM OVC140 24/22 A3012 RMK AO2 LTG DSNT E RAE0139DZB0116E0122B0139E0142 SLP203 P0001 T02380223
KTUL 300153Z 17012KT 10SM FEW120 SCT250 28/20 A2986 RMK AO2 SLP103 T02780200
KTUP 300153Z 00000KT 10SM CLR 28/18 A2997 RMK AO2 SLP144 T02780183
KTUS 300153Z 31005KT 10SM CLR 36/02 A2986 RMK AO2 SLP061 T03560017
KTVC 300153Z 18005KT 10SM BKN090 OVC120 23/19 A2989 RMK AO2 SLP121 LAST AUGMENTED OBS OF DAY UNTIL 11Z T02280189
KTVF 300155Z AUTO 01013KT 10SM OVC023 16/13 A2986 RMK AO1
KTVI 300155Z AUTO 00000KT 10SM SCT075 27/27 A3009 RMK AO2 LTG DSNT NE
KTVK 300155Z AUTO 00000KT 10SM CLR 20/20 A2982 RMK AO2
KTVR 300153Z AUTO 19003KT 10SM CLR 27/22 A2993 RMK AO2 SLP142 T02670222 TSNO
KTWF 300153Z AUTO 16005KT 10SM CLR 23/10 A2990 RMK AO2 LTG DSNT NW RAE0059 SLP071 P0000 T02330100
KTWM 300154Z AUTO 00000KT 1/4SM HZ OVC002 16/13 A2978 RMK AO2
KTXK 300153Z 13003KT 10SM SCT060 BKN075 25/23 A2991 RMK AO2 SLP124 T02500228
KTYQ 300155Z AUTO 15003KT 10SM CLR 25/21 A2999 RMK AO2 LTG DSNT NW T02480205
KTYR 300153Z AUTO 36003KT 10SM CLR 26/21 A2991 RMK AO2 PRESRR SLP119 T02610206 TSNO
KTYS 300153Z 07004KT 10SM FEW100 SCT250 25/20 A3006 RMK AO2 SLP169 T02500200
KTZR 300155Z AUTO 12004KT 10SM CLR 23/18 A3006 RMK AO2 T02260180
KU68 300155Z AUTO 10SM CLR 23/07 A2993 RMK AO2 PWINO
KUAO 300153Z AUTO 05003KT 10SM CLR 24/13 A2994 RMK AO2 SLP137 T02390128
KUBE 300155Z AUTO 00000KT 10SM -RA SCT042 BKN060 BKN075 17/17 A2979 RMK AO2 LTG DSNT E AND SW P0010
KUCP 300156Z AUTO 00000KT 10SM CLR 17/14 A3013 RMK AO2 TSNO T01720144 SLP216
KUCY 300155Z AUTO 16004KT 10SM CLR 24/21 A2996 RMK
KUDG 300155Z AUTO 16006KT 10SM CLR 27/20 A3013 RMK AO1
KUES 300145Z 15008KT 10SM SCT110 23/21 A2988 RMK LAST
KUGN 300152Z AUTO 16009KT 7SM CLR 23/22 A2988 RMK AO2 SLP106 T02330217
KUIL 300153Z AUTO 19004KT 8SM SCT012 BKN080 17/14 A2997 RMK AO2 SLP149 T01720144
KUIN 300154Z AUTO 17007KT 9SM FEW038 23/21 A2986 RMK AO2 SLP104 T02280211
KUKF 300155Z AUTO 05003KT 10SM BKN023 22/21 A3024 RMK AO2
KUKI 300156Z AUTO 36009KT 10SM CLR 29/03 A2987 RMK AO2 SLP106 T02890033
KUKT 300155Z AUTO 10SM CLR 19/14 A3024 RMK AO1
KULM 300153Z AUTO 31006KT 10SM CLR 19/19 A2977 RMK AO2
KUNI 300155Z AUTO 00000KT 10SM CLR 21/17 A3008 RMK AO2 T02100170
KUNO 300153Z AUTO 19004KT 10SM BKN100 24/20 A2998 RMK AO2 RAB35E45 SLP138 P0000 T02390200
KUNU 300155Z AUTO 14006KT 10SM CLR 23/21 A2986 RMK AO2 T02330214
KUNV 300155Z AUTO 00000KT 10SM SCT110 18/12 A3020 RMK AO2 T01760116
KUOX 300135Z AUTO 00000KT 10SM CLR 25/21 A2998 RMK AO2
KUSE 300155Z AUTO 13005KT 10SM CLR 21/19 A3002 RMK AO2
KUTA 300155Z AUTO 00000KT 10SM CLR 25/22 A2995 RMK AO2
KUTS 300153Z AUTO 12004KT 10SM CLR 27/22 A2990 RMK AO2 SLP119 T02670217
KUUU 300153Z AUTO 00000KT 10SM CLR 15/12 A3027 RMK AO2 SLP249 T01500122
KUVA 300155Z AUTO 12006KT 10SM CLR 33/19 A2984 RMK AO2 T03250192
KUXL 300155Z AUTO 12009KT 10SM -RA SCT010 SCT017 SCT022 24/22 A2994 RMK AO2 P0002 T02400223
KUZA 300154Z AUTO 00000KT 8SM BKN110 26/22 A3015 RMK AO2 SLP194 T02610217
KVAD 300158Z AUTO 15008KT 10SM FEW060 BKN090 27/23 A3008 RMK AO2 RAB0121E0135 SLP186 P0000 T02670234 $
KVAF 300155Z AUTO 11013KT 10SM SCT020 SCT034 28/24 A2988 RMK A01
KVAY 300154Z AUTO 12003KT 10SM CLR 17/14 A3024 RMK AO2 SLP238 T01720139
KVBG 300155Z AUTO 34010KT 9SM OVC003 17/16 A2989 RMK AO2 SLP113 T01670156 TSNO $
KVBT 300155Z AUTO 19003KT 10SM CLR 24/19 A2995 RMK AO1
KVCB 300153Z AUTO 25006KT 10SM CLR 29/12 A2980 RMK AO2 SLP091 T02940117
KVCT 300151Z 12008KT 10SM CLR 28/24 A2984 RMK AO2 SLP103 T02830244 $
KVCV 300155Z AUTO 20013KT 10SM CLR 34/M06 A2989 RMK AO2
KVDF 300155Z AUTO 14003KT 10SM BKN023 27/22 A3010 RMK AO2
KVDI 300155Z AUTO 15006KT 10SM 28/22 A3010 RMK AO2
KVEL 300153Z AUTO 30010G17KT 10SM CLR 22/06 A3010 RMK AO2 SLP141 T02170056
KVER 300155Z AUTO 14003KT 10SM 24/21 A2985 RMK AO2 T02400205
KVES 300155Z AUTO 14006KT 10SM CLR 23/19 A3003 RMK AO2
KVGT 300153Z AUTO 13009KT 10SM CLR 38/M03 A2977 RMK AO2 SLP067 T03781028 TSNO
KVIH 300153Z AUTO 19007KT 10SM FEW065 BKN110 23/19 A2991 RMK AO2 SLP116 T02330194
KVIS 300155Z AUTO 31006KT 10SM CLR 32/10 A2979 RMK AO1
KVJI 300155Z AUTO 00000KT 10SM SCT055 SCT065 SCT120 23/22 A3018 RMK AO2 T02300216
KVLD 300153Z 18005KT 10SM CLR 27/23 A3008 RMK AO2 SLP193 T02670233
KVLL 300155Z AUTO 00000KT 10SM CLR 21/13 A3007 RMK AO2 T02110129
KVNY 300151Z 12004KT 10SM CLR 31/07 A2979 RMK AO2 SLP079 T03110072
KVOA 300155Z AUTO 30005KT SCT050 BKN060 26/23 A3003 RMK A01
KVOK 300158Z AUTO 29007G15KT 10SM FEW070 23/20 A2982 RMK AO2 LTG DSNT W RAB0130E0144 SLP097 P0000 T02300203
KVPC 300153Z AUTO 00000KT 10SM CLR 22/18 A3007 RMK AO2 SLP169 T02170178
KVPS 300155Z 18006KT 10SM FEW017 SCT026 SCT095 OVC250 29/25 A3005 RMK AO2A LTG DSNT NE SLP181 T02850248 $
KVPZ 300153Z AUTO 16008KT 10SM FEW036 SCT055 BKN095 22/20 A2995 RMK AO2 PK WND 19026/0118 RAE53 SLP139 P0017 T02170200 TSNO
KVQQ 300155Z AUTO 00000KT 10SM FEW022 25/23 A3008 RMK AO2
KVQT 300155Z AUTO 14024KT 3SM BR BKN040 OVC047 26/24 A2990 RMK A01
KVRB 300153Z AUTO 33008KT 10SM FEW022 BKN034 OVC095 26/23 A3013 RMK AO2 LTG DSNT SW AND W SLP200 T02560228
KVSF 300154Z AUTO 00000KT 10SM CLR 15/13 A3023 RMK AO2 SLP238 T01500133
KVSH 300155Z AUTO 16009G14KT 10SM BKN120 26/21 A2998 RMK AO1
KVTA 300154Z AUTO 00000KT 10SM CLR 19/18 A3008 RMK AO2 SLP180 T01940178
KVTI 300155Z AUTO 20004KT 7SM RA SCT008 BKN014 BKN027 21/20 A2980 RMK AO2 P0002 T02130198
KVTN 300152Z AUTO 34006KT 10SM CLR 20/14 A2996 RMK AO2 SLP135 T02000144
KVUJ 300155Z AUTO 06005KT 10SM OVC100 25/23 A3019 RMK AO2 T02450234
KVUO 300153Z AUTO 36005KT 10SM CLR 23/12 A2994 RMK AO2 SLP138 T02330117
KVVV 300154Z AUTO 00000KT 10SM CLR 21/18 A2980 RMK AO2
KVWU 300152Z AUTO 35003KT 10SM BKN011 OVC017 18/17 A2981 RMK AO2
KVYS 300155Z AUTO 15010KT 7SM CLR 26/23 A2987 RMK AO2 T02560225
KW13 300155Z AUTO 00000KT 10SM SCT039 20/16 A3021 RMK AO1 T01980160
KW22 300155Z AUTO 00000KT 10SM CLR 21/17 A3013 RMK AO2
KW29 300200Z AUTO 13006KT 10SM 21/14 A3021 RMK AO1
KW31 300155Z AUTO 00000KT 10SM OVC037 23/22 A3018 RMK AO1
KW43 300155Z AUTO 10SM CLR 18/11 A3004 RMK AO2
KW63 300155Z AUTO 10SM OVC042 24/21 A3017 RMK AO1
KW75 300155Z AUTO 14004KT 10SM CLR 22/17 A3020 RMK AO1 T02210170
KW78 300155Z AUTO 00000KT 10SM OVC045 23/21 A3018 RMK AO1 T02330214
KW81 300155Z AUTO 17003KT 10SM OVC043 25/22 A3018 RMK AO1 T02480221
KW96 300155Z AUTO 18005KT 10SM SCT045 BKN050 21/17 A3020 RMK AO1 T02080169
KWAL 300154Z AUTO 12004KT 10SM CLR 21/16 A3022 RMK AO2 SLP231 T02060156
KWDG 300150Z 14005KT 10SM SCT130 27/20 A2985 RMK LAST
KWDR 300155Z AUTO 00000KT 10SM CLR A3011 RMK AO2
KWHP 300147Z 12008KT 20SM SKC 29/12 A2984
KWJF 300156Z 27020G25KT 10SM CLR 32/04 A2987 RMK AO2 SLP096 T03170039
KWLD 300154Z AUTO 19008KT 10SM CLR 23/19 A2987 RMK AO2 SLP106 T02330189
KWMC 300156Z AUTO 22013KT 10SM CLR 29/M03 A2994 RMK AO2 SLP095 T02891028
KWRB 300158Z AUTO 07001KT 10SM CLR 24/21 A3005 RMK AO2 SLP176 T02440206 $
KWRI 300158Z AUTO 16002KT 10SM CLR 17/15 A3022 RMK AO2 RAB0127E0133 SLP236 P0000 T01680145
KWRL 300153Z AUTO 12007KT 10SM CLR 22/06 A2992 RMK AO2 SLP098 T02220056
KWST 300153Z AUTO 16004KT 10SM CLR 18/14 A3027 RMK AO2 SLP251 T01830139
KWVI 300153Z AUTO 14006KT 10SM CLR 19/15 A2991 RMK AO2 SLP128 T01940150
KWVL 300155Z 21005KT 10SM CLR 12/09 A3020 RMK AO1
KWWD 300155Z AUTO 08003KT 10SM CLR 19/14 A3024 RMK AO1
KWWR 300155Z AUTO 23005KT 10SM CLR 22/16 A2994 RMK AO2
KWYS 300150Z AUTO 22007KT 10SM FEW090 18/06 A3009 RMK AO2
KXBP 300155Z AUTO 00000KT 10SM SCT080 SCT110 26/22 A2992 RMK AO2 T02580217
KXFL 300155Z AUTO 00000KT 10SM BKN110 23/22 A3011 RMK AO2 LTG DSNT NE AND SE T02310223
KXIH 300155Z AUTO 13016KT 6SM BR FEW017 SCT026 BKN038 25/23 A2988 RMK A01
KXLL 300155Z AUTO 15009KT 10SM CLR 20/12 A3023 RMK AO2
KXMR 300158Z AUTO 21005KT 10SM FEW120 25/21 A3011 RMK AO2 LTG DSNT NE-E SLP199 T02480211
KXNA 300153Z 17005KT 10SM CLR 24/19 A2993 RMK AO2 SLP121 T02390189
KXPY 300155Z AUTO 13008KT 10SM CLR 27/23 A3000 RMK A01
KXSA 300155Z AUTO 00000KT 10SM CLR 18/14 A3021 RMK AO2 T01810141
KXVG 300155Z AUTO 00000KT 5SM BR OVC032 18/18 A2979 RMK AO2
KY19 300155Z AUTO 02007KT 10SM SCT035 16/12 A2997 RMK AO2
KY23 300155Z AUTO 00000KT 10SM -RA SCT055 SCT075 OVC120 19/19 A2979 RMK AO2 P0007 T01920186
KY49 300155Z AUTO 00000KT 10SM BKN010 OVC017 19/18 A2980 RMK AO2 T01890182
KY50 300156Z AUTO 17005KT 10SM CLR 25/22 A2982 RMK AO2 PWINO TSNO T02500216 SLP090
KY51 300155Z AUTO 31004KT 1 1/4SM BKN021 OVC035 20/20 A2983 RMK AO1 VIS 1/4V5 P0011 T02010200
KY63 300153Z AUTO 00000KT 10SM CLR 19/18 A2980 RMK AO2 T01860181
KY70 300154Z AUTO 14006KT 10SM SCT100 21/20 A2997 RMK AO2 T02120196
KYIP 300153Z AUTO 12006KT 10SM CLR 22/16 A3004 RMK AO2 SLP168 T02220156 TSNO $
KYKM 292353Z 35009 10SM FEW080 BKN100 26/07 2985
KYKN 300155Z AUTO 10SM CLR 19/18 A2982 RMK AO1
KYNG 300151Z 13005KT 10SM FEW250 18/13 A3012 RMK AO2 SLP195 T01830128 $
KZPH 300155Z AUTO 13009KT 10SM SCT031 23/22 A3013 RMK AO2
KZZV 300153Z AUTO 13003KT 10SM CLR 21/16 A3009 RMK AO2 SLP182 T02110156